Darstellungsparameter: Aktuell verwendete Einstellungen:
Skalierung der Graphiken ... ?
xyx+y,   Skalierungsfaktor:      Skalierung: Modus: x, Faktor: 1
Darstellungszeitraum ... ?
Vom - - bis: - -   Zeitraum: 09.01.2010 - 08.02.2010
Min/Max/Avg-Anzeige ... ?
Zeige MMA aktuell
Zeige MMA Monat
Zeige MMA alles
Zeige --A aktuell
Zeige --A Monat
Zeige --A alles
Keine MMA-Anzeige
MMA:
Average (ber die Originaldaten)
MMA-Basis: 09.01.2010 - 08.02.2010
Quicknavigation für Darstellung... ?
Tage:      1T, 2T, 3T, 5T -1T -2T -3T -5T +1T +2T +3T +5T
Wochen: 1W, 2W, 3W -1W -2W -3W +1W +2W +3W
Monate: 1M, 3M, 6M -1M -3M -6M +1M +3M +6M
Jahre:    1J, 3J, 5J, 10J -1J -3J -5J -10J +1J +3J +5J +10J
Nutze für die Darstellung ... ?
Originaldaten oder Mittelwerte auf ...
Stundenbasis Tagesbasis Wochenbasis
Monatsbasis Jahresbasis      Datenbasis: Original-Daten
Darstellen als:
Statistik (Auto) Statistik J:M      Darstellung:
Zur Graphik,    zurück zur Übersicht aller Sensoren.
 
Tabellarische Datenbersicht: ?
 
Sensor: Nr:Datum:Temp:Abs-Feuchte:Windchill:Wind:
Aussen-T/F 1 09-01-2010 00:01:03 -3.9 C 2.87 g/m*3 -3.9 C 0 km/h
2 09-01-2010 00:13:03 -3.9 C 2.87 g/m*3 -3.9 C 0 km/h
3 09-01-2010 00:25:03 -3.9 C 2.91 g/m*3 -3.9 C 0 km/h
4 09-01-2010 00:37:03 -3.9 C 2.91 g/m*3 -3.9 C 0 km/h
5 09-01-2010 00:49:03 -4 C 2.89 g/m*3 -4 C 0 km/h
6 09-01-2010 01:01:03 -4 C 2.89 g/m*3 -4 C 0 km/h
7 09-01-2010 01:13:03 -4 C 2.89 g/m*3 -4 C 0 km/h
8 09-01-2010 01:25:04 -3.9 C 2.91 g/m*3 -3.9 C 0 km/h
9 09-01-2010 01:37:04 -3.9 C 2.87 g/m*3 -3.9 C 0 km/h
10 09-01-2010 01:49:04 -3.9 C 2.84 g/m*3 -3.9 C 0 km/h
11 09-01-2010 02:01:04 -3.9 C 2.76 g/m*3 -3.9 C 0 km/h
12 09-01-2010 02:13:04 -3.8 C 2.71 g/m*3 -3.8 C 0 km/h
13 09-01-2010 02:25:04 -3.8 C 2.63 g/m*3 -3.8 C 0 km/h
14 09-01-2010 02:37:04 -3.7 C 2.62 g/m*3 -3.7 C 0 km/h
15 09-01-2010 02:49:04 -3.7 C 2.62 g/m*3 -3.7 C 0 km/h
16 09-01-2010 03:01:04 -3.7 C 2.58 g/m*3 -3.7 C 0 km/h
17 09-01-2010 03:13:04 -3.6 C 2.56 g/m*3 -3.6 C 0 km/h
18 09-01-2010 03:25:04 -3.7 C 2.54 g/m*3 -3.7 C 0 km/h
19 09-01-2010 03:37:04 -3.8 C 2.56 g/m*3 -3.8 C 0 km/h
20 09-01-2010 03:49:04 -3.8 C 2.6 g/m*3 -3.8 C 0 km/h
21 09-01-2010 04:01:04 -3.9 C 2.62 g/m*3 -3.9 C 0 km/h
22 09-01-2010 04:13:04 -4 C 2.63 g/m*3 -4 C 0 km/h
23 09-01-2010 04:25:04 -4 C 2.71 g/m*3 -4 C 0 km/h
24 09-01-2010 04:37:04 -4.1 C 2.76 g/m*3 -4.1 C 0 km/h
25 09-01-2010 04:49:04 -4.1 C 2.83 g/m*3 -4.1 C 0 km/h
Sensor: Nr:Datum:Temp:Abs-Feuchte:Windchill:Wind:
Aussen-T/F 26 09-01-2010 05:01:04 -4.1 C 2.87 g/m*3 -4.1 C 0 km/h
27 09-01-2010 05:13:04 -4.1 C 2.91 g/m*3 -4.1 C 0 km/h
28 09-01-2010 05:25:05 -4.1 C 2.94 g/m*3 -4.1 C 0 km/h
29 09-01-2010 05:37:05 -4.1 C 2.98 g/m*3 -4.1 C 0 km/h
30 09-01-2010 05:49:05 -4.1 C 2.98 g/m*3 -4.1 C 0 km/h
31 09-01-2010 06:01:05 -4.1 C 3.01 g/m*3 -4.1 C 0 km/h
32 09-01-2010 06:13:05 -4.1 C 3.01 g/m*3 -4.1 C 0 km/h
33 09-01-2010 06:25:05 -4.1 C 3.05 g/m*3 -4.1 C 0 km/h
34 09-01-2010 06:37:05 -4 C 3.07 g/m*3 -4 C 0 km/h
35 09-01-2010 06:49:05 -3.9 C 3.13 g/m*3 -3.9 C 0 km/h
36 09-01-2010 07:01:05 -3.9 C 3.13 g/m*3 -3.9 C 0 km/h
37 09-01-2010 07:13:05 -3.8 C 3.15 g/m*3 -3.8 C 0 km/h
38 09-01-2010 07:25:03 -3.8 C 3.19 g/m*3 -3.8 C 0 km/h
39 09-01-2010 07:37:02 -3.7 C 3.21 g/m*3 -3.7 C 0 km/h
40 09-01-2010 07:49:02 -3.7 C 3.21 g/m*3 -3.7 C 0 km/h
41 09-01-2010 08:01:01 -3.5 C 3.26 g/m*3 -3.5 C 0 km/h
42 09-01-2010 08:13:01 -3.5 C 3.26 g/m*3 -3.5 C 0 km/h
43 09-01-2010 08:25:02 -3.4 C 3.32 g/m*3 -3.4 C 0 km/h
44 09-01-2010 08:37:01 -3.4 C 3.32 g/m*3 -3.4 C 0 km/h
45 09-01-2010 08:49:02 -3.3 C 3.35 g/m*3 -3.3 C 0 km/h
46 09-01-2010 09:01:01 -3.2 C 3.37 g/m*3 -3.2 C 0 km/h
47 09-01-2010 09:13:01 -3.1 C 3.39 g/m*3 -3.1 C 0 km/h
48 09-01-2010 09:25:01 -2.9 C 3.48 g/m*3 -2.9 C 0 km/h
49 09-01-2010 09:37:02 -2.7 C 3.53 g/m*3 -2.7 C 0 km/h
50 09-01-2010 09:49:02 -2.6 C 3.52 g/m*3 -2.6 C 0 km/h
Sensor: Nr:Datum:Temp:Abs-Feuchte:Windchill:Wind:
Aussen-T/F 51 09-01-2010 10:01:02 -2.5 C 3.54 g/m*3 -2.5 C 0 km/h
52 09-01-2010 10:13:02 -2.3 C 3.59 g/m*3 -2.3 C 0 km/h
53 09-01-2010 10:25:02 -2 C 3.67 g/m*3 -2 C 0 km/h
54 09-01-2010 10:37:02 -1.8 C 3.68 g/m*3 -1.8 C 0 km/h
55 09-01-2010 10:49:02 -1.7 C 3.66 g/m*3 -1.7 C 0 km/h
56 09-01-2010 11:01:02 -1.7 C 3.62 g/m*3 -1.7 C 0 km/h
57 09-01-2010 11:13:02 -1.8 C 3.59 g/m*3 -1.8 C 0 km/h
58 09-01-2010 11:25:02 -1.8 C 3.59 g/m*3 -1.8 C 0 km/h
59 09-01-2010 11:37:02 -1.9 C 3.52 g/m*3 -1.9 C 0 km/h
60 09-01-2010 11:49:01 -2 C 3.41 g/m*3 -2 C 0 km/h
61 09-01-2010 12:01:01 -1.9 C 3.44 g/m*3 -1.9 C 0 km/h
62 09-01-2010 12:13:01 -1.9 C 3.44 g/m*3 -1.9 C 0 km/h
63 09-01-2010 12:25:01 -2 C 3.37 g/m*3 -2 C 0 km/h
64 09-01-2010 12:37:01 -2 C 3.29 g/m*3 -2 C 0 km/h
65 09-01-2010 12:49:01 -1.9 C 3.23 g/m*3 -1.9 C 0 km/h
66 09-01-2010 13:01:01 -1.9 C 3.14 g/m*3 -1.9 C 0 km/h
67 09-01-2010 13:13:01 -1.8 C 3.12 g/m*3 -1.8 C 0 km/h
68 09-01-2010 13:25:02 -1.8 C 3.08 g/m*3 -1.8 C 0 km/h
69 09-01-2010 13:37:01 -1.7 C 3.06 g/m*3 -1.7 C 0 km/h
70 09-01-2010 13:49:03 -1.7 C 3.06 g/m*3 -1.7 C 0 km/h
71 09-01-2010 14:01:02 -1.7 C 3.06 g/m*3 -1.7 C 0 km/h
72 09-01-2010 14:13:02 -1.7 C 3.06 g/m*3 -1.7 C 0 km/h
73 09-01-2010 14:25:02 -1.7 C 3.01 g/m*3 -1.7 C 0 km/h
74 09-01-2010 14:37:02 -1.6 C 3.03 g/m*3 -1.6 C 0 km/h
75 09-01-2010 14:49:02 -1.7 C 3.01 g/m*3 -1.7 C 0 km/h
Sensor: Nr:Datum:Temp:Abs-Feuchte:Windchill:Wind:
Aussen-T/F 76 09-01-2010 15:01:02 -1.7 C 3.01 g/m*3 -1.7 C 0 km/h
77 09-01-2010 15:13:02 -1.7 C 2.97 g/m*3 -1.7 C 0 km/h
78 09-01-2010 15:25:02 -1.7 C 2.97 g/m*3 -1.7 C 0 km/h
79 09-01-2010 15:37:01 -1.7 C 2.97 g/m*3 -1.7 C 0 km/h
80 09-01-2010 15:49:02 -1.7 C 2.97 g/m*3 -1.7 C 0 km/h
81 09-01-2010 16:01:01 -1.7 C 3.01 g/m*3 -1.7 C 0 km/h
82 09-01-2010 16:13:01 -1.7 C 2.97 g/m*3 -1.7 C 0 km/h
83 09-01-2010 16:25:02 -1.7 C 2.97 g/m*3 -1.7 C 0 km/h
84 09-01-2010 16:37:02 -1.8 C 2.99 g/m*3 -1.8 C 0 km/h
85 09-01-2010 16:49:02 -1.8 C 2.95 g/m*3 -1.8 C 0 km/h
86 09-01-2010 17:01:02 -1.8 C 2.95 g/m*3 -1.8 C 0 km/h
87 09-01-2010 17:13:02 -1.8 C 2.95 g/m*3 -1.8 C 0 km/h
88 09-01-2010 17:25:02 -1.8 C 2.95 g/m*3 -1.8 C 0 km/h
89 09-01-2010 17:37:02 -1.8 C 2.95 g/m*3 -1.8 C 0 km/h
90 09-01-2010 17:49:01 -1.8 C 2.95 g/m*3 -1.8 C 0 km/h
91 09-01-2010 18:01:02 -1.8 C 2.99 g/m*3 -1.8 C 0 km/h
92 09-01-2010 18:13:02 -1.9 C 2.97 g/m*3 -1.9 C 0 km/h
93 09-01-2010 18:25:01 -1.8 C 2.99 g/m*3 -1.8 C 0 km/h
94 09-01-2010 18:37:01 -1.9 C 3.01 g/m*3 -1.9 C 0 km/h
95 09-01-2010 18:49:01 -1.9 C 2.97 g/m*3 -1.9 C 0 km/h
96 09-01-2010 19:01:02 -1.9 C 2.97 g/m*3 -1.9 C 0 km/h
97 09-01-2010 19:13:02 -1.8 C 2.99 g/m*3 -1.8 C 0 km/h
98 09-01-2010 19:25:01 -1.9 C 2.97 g/m*3 -1.9 C 0 km/h
99 09-01-2010 19:37:01 -1.9 C 2.97 g/m*3 -1.9 C 0 km/h
100 09-01-2010 19:49:01 -1.8 C 2.95 g/m*3 -1.8 C 0 km/h
Sensor: Nr:Datum:Temp:Abs-Feuchte:Windchill:Wind:
Aussen-T/F 101 09-01-2010 20:01:02 -1.8 C 2.95 g/m*3 -1.8 C 0 km/h
102 09-01-2010 20:13:02 -1.9 C 2.97 g/m*3 -1.9 C 0 km/h
103 09-01-2010 20:25:02 -1.9 C 2.97 g/m*3 -1.9 C 0 km/h
104 09-01-2010 20:37:01 -1.9 C 2.97 g/m*3 -1.9 C 0 km/h
105 09-01-2010 20:49:02 -1.9 C 2.97 g/m*3 -1.9 C 0 km/h
106 09-01-2010 21:01:01 -1.9 C 2.97 g/m*3 -1.9 C 0 km/h
107 09-01-2010 21:13:01 -1.9 C 2.97 g/m*3 -1.9 C 0 km/h
108 09-01-2010 21:25:02 -1.9 C 2.93 g/m*3 -1.9 C 0 km/h
109 09-01-2010 21:37:01 -2 C 2.95 g/m*3 -2 C 0 km/h
110 09-01-2010 21:49:03 -1.9 C 2.97 g/m*3 -1.9 C 0 km/h
111 09-01-2010 22:01:02 -2 C 2.95 g/m*3 -2 C 0 km/h
112 09-01-2010 22:13:02 -2 C 2.99 g/m*3 -2 C 0 km/h
113 09-01-2010 22:26:02 -2 C 2.99 g/m*3 -2 C 0 km/h
114 09-01-2010 22:38:02 -2 C 2.99 g/m*3 -2 C 0 km/h
115 09-01-2010 22:50:02 -2 C 3.03 g/m*3 -2 C 0 km/h
116 09-01-2010 23:02:03 -2 C 3.03 g/m*3 -2 C 0 km/h
117 09-01-2010 23:14:03 -2 C 3.03 g/m*3 -2 C 0 km/h
118 09-01-2010 23:26:03 -2 C 3.03 g/m*3 -2 C 0 km/h
119 09-01-2010 23:38:03 -2.1 C 3.01 g/m*3 -2.1 C 0 km/h
120 09-01-2010 23:50:03 -2.1 C 3.01 g/m*3 -2.1 C 0 km/h
121 10-01-2010 00:02:03 -2.1 C 3.01 g/m*3 -2.1 C 0 km/h
122 10-01-2010 00:14:03 -2.1 C 3.01 g/m*3 -2.1 C 0 km/h
123 10-01-2010 00:26:03 -2.1 C 3.01 g/m*3 -2.1 C 0 km/h
124 10-01-2010 00:38:03 -2.1 C 3.01 g/m*3 -2.1 C 0 km/h
125 10-01-2010 00:50:03 -2.1 C 3.01 g/m*3 -2.1 C 0 km/h
Sensor: Nr:Datum:Temp:Abs-Feuchte:Windchill:Wind:
Aussen-T/F 126 10-01-2010 01:02:03 -2.1 C 3.01 g/m*3 -2.1 C 0 km/h
127 10-01-2010 01:14:03 -2.2 C 2.99 g/m*3 -2.2 C 0 km/h
128 10-01-2010 01:26:03 -2.2 C 2.99 g/m*3 -2.2 C 0 km/h
129 10-01-2010 01:38:03 -2.2 C 2.99 g/m*3 -2.2 C 0 km/h
130 10-01-2010 01:50:03 -2.2 C 2.99 g/m*3 -2.2 C 0 km/h
131 10-01-2010 02:02:03 -2.3 C 2.97 g/m*3 -2.3 C 0 km/h
132 10-01-2010 02:14:03 -2.3 C 3.01 g/m*3 -2.3 C 0 km/h
133 10-01-2010 02:26:03 -2.4 C 2.99 g/m*3 -2.4 C 0 km/h
134 10-01-2010 02:38:03 -2.4 C 2.99 g/m*3 -2.4 C 0 km/h
135 10-01-2010 02:50:03 -2.5 C 3.01 g/m*3 -2.5 C 0 km/h
136 10-01-2010 03:02:04 -2.4 C 3.03 g/m*3 -2.4 C 0 km/h
137 10-01-2010 03:14:04 -2.4 C 3.03 g/m*3 -2.4 C 0 km/h
138 10-01-2010 03:26:04 -2.5 C 3.01 g/m*3 -2.5 C 0 km/h
139 10-01-2010 03:38:04 -2.5 C 3.05 g/m*3 -2.5 C 0 km/h
140 10-01-2010 03:50:04 -2.6 C 3.03 g/m*3 -2.6 C 0 km/h
141 10-01-2010 04:02:04 -2.6 C 3.03 g/m*3 -2.6 C 0 km/h
142 10-01-2010 04:14:04 -2.6 C 3.03 g/m*3 -2.6 C 0 km/h
143 10-01-2010 04:26:04 -2.6 C 3.03 g/m*3 -2.6 C 0 km/h
144 10-01-2010 04:38:04 -2.6 C 3.07 g/m*3 -2.6 C 0 km/h
145 10-01-2010 04:50:04 -2.6 C 3.07 g/m*3 -2.6 C 0 km/h
146 10-01-2010 05:02:04 -2.6 C 3.11 g/m*3 -2.6 C 0 km/h
147 10-01-2010 05:14:04 -2.6 C 3.15 g/m*3 -2.6 C 0 km/h
148 10-01-2010 05:26:04 -2.6 C 3.15 g/m*3 -2.6 C 0 km/h
149 10-01-2010 05:38:04 -2.8 C 3.11 g/m*3 -2.8 C 0 km/h
150 10-01-2010 05:50:04 -2.8 C 3.15 g/m*3 -2.8 C 0 km/h
Sensor: Nr:Datum:Temp:Abs-Feuchte:Windchill:Wind:
Aussen-T/F 151 10-01-2010 06:02:04 -2.8 C 3.15 g/m*3 -2.8 C 0 km/h
152 10-01-2010 06:14:04 -2.8 C 3.15 g/m*3 -2.8 C 0 km/h
153 10-01-2010 06:26:04 -2.8 C 3.19 g/m*3 -2.8 C 0 km/h
154 10-01-2010 06:38:04 -2.7 C 3.21 g/m*3 -2.7 C 0 km/h
155 10-01-2010 06:50:04 -2.7 C 3.21 g/m*3 -2.7 C 0 km/h
156 10-01-2010 07:02:04 -2.8 C 3.19 g/m*3 -2.8 C 0 km/h
157 10-01-2010 07:14:05 -2.7 C 3.21 g/m*3 -2.7 C 0 km/h
158 10-01-2010 07:26:05 -2.8 C 3.19 g/m*3 -2.8 C 0 km/h
159 10-01-2010 07:38:05 -2.9 C 3.2 g/m*3 -2.9 C 0 km/h
160 10-01-2010 07:50:05 -3 C 3.18 g/m*3 -3 C 0 km/h
161 10-01-2010 08:02:05 -2.9 C 3.24 g/m*3 -2.9 C 0 km/h
162 10-01-2010 08:14:05 -2.8 C 3.27 g/m*3 -2.8 C 0 km/h
163 10-01-2010 08:26:05 -2.9 C 3.24 g/m*3 -2.9 C 0 km/h
164 10-01-2010 08:38:05 -3 C 3.22 g/m*3 -3 C 0 km/h
165 10-01-2010 08:50:05 -2.9 C 3.28 g/m*3 -2.9 C 0 km/h
166 10-01-2010 09:02:02 -2.8 C 3.31 g/m*3 -2.8 C 0 km/h
167 10-01-2010 09:14:02 -2.7 C 3.33 g/m*3 -2.7 C 0 km/h
168 10-01-2010 09:26:02 -2.6 C 3.35 g/m*3 -2.6 C 0 km/h
169 10-01-2010 09:38:02 -2.6 C 3.35 g/m*3 -2.6 C 0 km/h
170 10-01-2010 09:50:02 -2.6 C 3.35 g/m*3 -2.6 C 0 km/h
171 10-01-2010 10:02:02 -2.6 C 3.35 g/m*3 -2.6 C 0 km/h
172 10-01-2010 10:14:02 -2.4 C 3.4 g/m*3 -2.4 C 0 km/h
173 10-01-2010 10:26:01 -2.1 C 3.52 g/m*3 -2.1 C 0 km/h
174 10-01-2010 10:38:02 -1.9 C 3.52 g/m*3 -1.9 C 0 km/h
175 10-01-2010 10:50:02 -1.8 C 3.55 g/m*3 -1.8 C 0 km/h
Sensor: Nr:Datum:Temp:Abs-Feuchte:Windchill:Wind:
Aussen-T/F 176 10-01-2010 11:02:02 -1.8 C 3.51 g/m*3 -1.8 C 0 km/h
177 10-01-2010 11:14:02 -1.6 C 3.55 g/m*3 -1.6 C 0 km/h
178 10-01-2010 11:26:02 -1.7 C 3.49 g/m*3 -1.7 C 0 km/h
179 10-01-2010 11:38:02 -1.3 C 3.59 g/m*3 -1.3 C 0 km/h
180 10-01-2010 11:50:02 -1 C 3.62 g/m*3 -1 C 0 km/h
181 10-01-2010 12:02:02 -0.7 C 3.69 g/m*3 -0.7 C 0 km/h
182 10-01-2010 12:14:02 -0.6 C 3.67 g/m*3 -0.6 C 0 km/h
183 10-01-2010 12:26:02 -0.8 C 3.53 g/m*3 -0.8 C 0 km/h
184 10-01-2010 12:38:02 -0.7 C 3.51 g/m*3 -0.7 C 0 km/h
185 10-01-2010 12:50:02 -0.6 C 3.49 g/m*3 -0.6 C 0 km/h
186 10-01-2010 13:02:03 -0.5 C 3.37 g/m*3 -0.5 C 0 km/h
187 10-01-2010 13:14:03 -0.6 C 3.21 g/m*3 -0.6 C 0 km/h
188 10-01-2010 13:26:02 -0.5 C 3.23 g/m*3 -0.5 C 0 km/h
189 10-01-2010 13:38:03 -0.4 C 3.3 g/m*3 -0.4 C 0 km/h
190 10-01-2010 13:50:02 -0.4 C 3.3 g/m*3 -0.4 C 0 km/h
191 10-01-2010 14:02:01 -0.5 C 3.28 g/m*3 -0.5 C 0 km/h
192 10-01-2010 14:14:01 -0.4 C 3.3 g/m*3 -0.4 C 0 km/h
193 10-01-2010 14:26:02 -0.4 C 3.35 g/m*3 -0.4 C 0 km/h
194 10-01-2010 14:38:01 -0.5 C 3.32 g/m*3 -0.5 C 0 km/h
195 10-01-2010 14:50:02 -0.4 C 3.35 g/m*3 -0.4 C 0 km/h
196 10-01-2010 15:02:01 -0.4 C 3.35 g/m*3 -0.4 C 0 km/h
197 10-01-2010 15:14:01 -0.5 C 3.28 g/m*3 -0.5 C 0 km/h
198 10-01-2010 15:26:01 -0.5 C 3.28 g/m*3 -0.5 C 0 km/h
199 10-01-2010 15:38:02 -0.6 C 3.3 g/m*3 -0.6 C 0 km/h
200 10-01-2010 15:50:02 -0.6 C 3.3 g/m*3 -0.6 C 0 km/h
Sensor: Nr:Datum:Temp:Abs-Feuchte:Windchill:Wind:
Aussen-T/F 201 10-01-2010 16:02:01 -0.6 C 3.3 g/m*3 -0.6 C 0 km/h
202 10-01-2010 16:14:01 -0.8 C 3.3 g/m*3 -0.8 C 0 km/h
203 10-01-2010 16:26:02 -1 C 3.3 g/m*3 -1 C 0 km/h
204 10-01-2010 16:38:02 -1.2 C 3.25 g/m*3 -1.2 C 0 km/h
205 10-01-2010 16:50:02 -1.3 C 3.28 g/m*3 -1.3 C 0 km/h
206 10-01-2010 17:02:02 -1.5 C 3.23 g/m*3 -1.5 C 0 km/h
207 10-01-2010 17:14:02 -1.6 C 3.25 g/m*3 -1.6 C 0 km/h
208 10-01-2010 17:26:01 -1.7 C 3.27 g/m*3 -1.7 C 0 km/h
209 10-01-2010 17:38:02 -1.8 C 3.25 g/m*3 -1.8 C 0 km/h
210 10-01-2010 17:50:02 -1.9 C 3.23 g/m*3 -1.9 C 0 km/h
211 10-01-2010 18:02:02 -1.9 C 3.27 g/m*3 -1.9 C 0 km/h
212 10-01-2010 18:14:02 -1.8 C 3.29 g/m*3 -1.8 C 0 km/h
213 10-01-2010 18:26:02 -1.8 C 3.33 g/m*3 -1.8 C 0 km/h
214 10-01-2010 18:38:02 -1.8 C 3.33 g/m*3 -1.8 C 0 km/h
215 10-01-2010 18:50:02 -1.9 C 3.31 g/m*3 -1.9 C 0 km/h
216 10-01-2010 19:02:02 -1.9 C 3.31 g/m*3 -1.9 C 0 km/h
217 10-01-2010 19:14:02 -1.8 C 3.38 g/m*3 -1.8 C 0 km/h
218 10-01-2010 19:26:02 -1.8 C 3.38 g/m*3 -1.8 C 0 km/h
219 10-01-2010 19:38:02 -1.9 C 3.35 g/m*3 -1.9 C 0 km/h
220 10-01-2010 19:50:02 -1.9 C 3.35 g/m*3 -1.9 C 0 km/h
221 10-01-2010 20:02:02 -1.8 C 3.38 g/m*3 -1.8 C 0 km/h
222 10-01-2010 20:14:02 -1.8 C 3.42 g/m*3 -1.8 C 0 km/h
223 10-01-2010 20:26:02 -1.8 C 3.42 g/m*3 -1.8 C 0 km/h
224 10-01-2010 20:38:02 -1.8 C 3.38 g/m*3 -1.8 C 0 km/h
225 10-01-2010 20:50:01 -1.8 C 3.42 g/m*3 -1.8 C 0 km/h
Sensor: Nr:Datum:Temp:Abs-Feuchte:Windchill:Wind:
Aussen-T/F 226 10-01-2010 21:02:01 -1.8 C 3.42 g/m*3 -1.8 C 0 km/h
227 10-01-2010 21:14:01 -1.8 C 3.42 g/m*3 -1.8 C 0 km/h
228 10-01-2010 21:26:02 -1.8 C 3.42 g/m*3 -1.8 C 0 km/h
229 10-01-2010 21:38:01 -1.8 C 3.42 g/m*3 -1.8 C 0 km/h
230 10-01-2010 21:50:03 -1.7 C 3.44 g/m*3 -1.7 C 0 km/h
231 10-01-2010 22:02:02 -1.8 C 3.42 g/m*3 -1.8 C 0 km/h
232 10-01-2010 22:14:02 -1.8 C 3.42 g/m*3 -1.8 C 0 km/h
233 10-01-2010 22:26:02 -1.8 C 3.42 g/m*3 -1.8 C 0 km/h
234 10-01-2010 22:39:03 -1.8 C 3.42 g/m*3 -1.8 C 0 km/h
235 10-01-2010 22:51:03 -1.8 C 3.42 g/m*3 -1.8 C 0 km/h
236 10-01-2010 23:03:03 -1.8 C 3.42 g/m*3 -1.8 C 0 km/h
237 10-01-2010 23:15:03 -1.8 C 3.42 g/m*3 -1.8 C 0 km/h
238 10-01-2010 23:27:03 -1.8 C 3.42 g/m*3 -1.8 C 0 km/h
239 10-01-2010 23:39:03 -1.8 C 3.42 g/m*3 -1.8 C 0 km/h
240 10-01-2010 23:51:03 -1.8 C 3.42 g/m*3 -1.8 C 0 km/h
241 11-01-2010 00:03:03 -1.8 C 3.42 g/m*3 -1.8 C 0 km/h
242 11-01-2010 00:15:03 -1.8 C 3.42 g/m*3 -1.8 C 0 km/h
243 11-01-2010 00:27:03 -1.8 C 3.42 g/m*3 -1.8 C 0 km/h
244 11-01-2010 00:39:03 -1.9 C 3.4 g/m*3 -1.9 C 0 km/h
245 11-01-2010 00:51:03 -1.9 C 3.4 g/m*3 -1.9 C 0 km/h
246 11-01-2010 01:03:03 -2.1 C 3.35 g/m*3 -2.1 C 0 km/h
247 11-01-2010 01:15:03 -2.2 C 3.33 g/m*3 -2.2 C 0 km/h
248 11-01-2010 01:27:03 -2.3 C 3.34 g/m*3 -2.3 C 0 km/h
249 11-01-2010 01:39:03 -2.2 C 3.37 g/m*3 -2.2 C 0 km/h
250 11-01-2010 01:51:03 -2.1 C 3.39 g/m*3 -2.1 C 0 km/h
Sensor: Nr:Datum:Temp:Abs-Feuchte:Windchill:Wind:
Aussen-T/F 251 11-01-2010 02:03:03 -2.1 C 3.43 g/m*3 -2.1 C 0 km/h
252 11-01-2010 02:15:03 -2.1 C 3.43 g/m*3 -2.1 C 0 km/h
253 11-01-2010 02:27:03 -2.1 C 3.43 g/m*3 -2.1 C 0 km/h
254 11-01-2010 02:39:04 -2.1 C 3.43 g/m*3 -2.1 C 0 km/h
255 11-01-2010 02:51:04 -2.1 C 3.47 g/m*3 -2.1 C 0 km/h
256 11-01-2010 03:03:04 -2.1 C 3.47 g/m*3 -2.1 C 0 km/h
257 11-01-2010 03:15:04 -2.1 C 3.47 g/m*3 -2.1 C 0 km/h
258 11-01-2010 03:27:04 -2.1 C 3.52 g/m*3 -2.1 C 0 km/h
259 11-01-2010 03:39:04 -2.1 C 3.52 g/m*3 -2.1 C 0 km/h
260 11-01-2010 03:51:04 -2.1 C 3.52 g/m*3 -2.1 C 0 km/h
261 11-01-2010 04:03:04 -2.1 C 3.52 g/m*3 -2.1 C 0 km/h
262 11-01-2010 04:15:04 -2 C 3.54 g/m*3 -2 C 0 km/h
263 11-01-2010 04:27:04 -2 C 3.54 g/m*3 -2 C 0 km/h
264 11-01-2010 04:39:04 -2 C 3.5 g/m*3 -2 C 0 km/h
265 11-01-2010 04:51:04 -2 C 3.5 g/m*3 -2 C 0 km/h
266 11-01-2010 05:03:04 -2 C 3.5 g/m*3 -2 C 0 km/h
267 11-01-2010 05:15:04 -2 C 3.5 g/m*3 -2 C 0 km/h
268 11-01-2010 05:27:04 -2 C 3.5 g/m*3 -2 C 0 km/h
269 11-01-2010 05:39:04 -2 C 3.5 g/m*3 -2 C 0 km/h
270 11-01-2010 05:51:04 -1.9 C 3.52 g/m*3 -1.9 C 0 km/h
271 11-01-2010 06:03:04 -1.9 C 3.52 g/m*3 -1.9 C 0 km/h
272 11-01-2010 06:15:04 -1.9 C 3.52 g/m*3 -1.9 C 0 km/h
273 11-01-2010 06:27:04 -1.9 C 3.52 g/m*3 -1.9 C 0 km/h
274 11-01-2010 06:39:04 -1.9 C 3.52 g/m*3 -1.9 C 0 km/h
275 11-01-2010 06:51:05 -2 C 3.5 g/m*3 -2 C 0 km/h
Sensor: Nr:Datum:Temp:Abs-Feuchte:Windchill:Wind:
Aussen-T/F 276 11-01-2010 07:03:05 -2 C 3.5 g/m*3 -2 C 0 km/h
277 11-01-2010 07:15:03 -2 C 3.5 g/m*3 -2 C 0 km/h
278 11-01-2010 07:27:03 -2 C 3.5 g/m*3 -2 C 0 km/h
279 11-01-2010 07:39:03 -1.9 C 3.52 g/m*3 -1.9 C 0 km/h
280 11-01-2010 07:51:02 -1.9 C 3.52 g/m*3 -1.9 C 0 km/h
281 11-01-2010 08:03:02 -2 C 3.5 g/m*3 -2 C 0 km/h
282 11-01-2010 08:15:01 -2.1 C 3.47 g/m*3 -2.1 C 0 km/h
283 11-01-2010 08:27:01 -2.1 C 3.52 g/m*3 -2.1 C 0 km/h
284 11-01-2010 08:39:02 -2.1 C 3.52 g/m*3 -2.1 C 0 km/h
285 11-01-2010 08:51:02 -2 C 3.54 g/m*3 -2 C 0 km/h
286 11-01-2010 09:03:02 -2.1 C 3.52 g/m*3 -2.1 C 0 km/h
287 11-01-2010 09:15:02 -1.9 C 3.57 g/m*3 -1.9 C 0 km/h
288 11-01-2010 09:27:02 -1.9 C 3.57 g/m*3 -1.9 C 0 km/h
289 11-01-2010 09:39:02 -1.8 C 3.59 g/m*3 -1.8 C 0 km/h
290 11-01-2010 09:51:02 -1.7 C 3.62 g/m*3 -1.7 C 0 km/h
291 11-01-2010 10:03:03 -1.5 C 3.67 g/m*3 -1.5 C 0 km/h
292 11-01-2010 10:15:02 -1.3 C 3.72 g/m*3 -1.3 C 0 km/h
293 11-01-2010 10:27:02 -1.3 C 3.67 g/m*3 -1.3 C 0 km/h
294 11-01-2010 10:39:02 -1.2 C 3.7 g/m*3 -1.2 C 0 km/h
295 11-01-2010 10:51:02 -1 C 3.71 g/m*3 -1 C 0 km/h
296 11-01-2010 11:03:02 -0.9 C 3.73 g/m*3 -0.9 C 0 km/h
297 11-01-2010 11:15:02 -0.8 C 3.71 g/m*3 -0.8 C 0 km/h
298 11-01-2010 11:27:02 -0.6 C 3.72 g/m*3 -0.6 C 0 km/h
299 11-01-2010 11:39:02 -0.6 C 3.67 g/m*3 -0.6 C 0 km/h
300 11-01-2010 11:51:02 -0.8 C 3.53 g/m*3 -0.8 C 0 km/h
Sensor: Nr:Datum:Temp:Abs-Feuchte:Windchill:Wind:
Aussen-T/F 301 11-01-2010 12:03:02 -0.6 C 3.53 g/m*3 -0.6 C 0 km/h
302 11-01-2010 12:15:02 -0.6 C 3.49 g/m*3 -0.6 C 0 km/h
303 11-01-2010 12:27:02 -0.5 C 3.51 g/m*3 -0.5 C 0 km/h
304 11-01-2010 12:39:02 -0.6 C 3.44 g/m*3 -0.6 C 0 km/h
305 11-01-2010 12:51:02 -0.6 C 3.49 g/m*3 -0.6 C 0 km/h
306 11-01-2010 13:03:02 -0.5 C 3.46 g/m*3 -0.5 C 0 km/h
307 11-01-2010 13:15:02 -0.4 C 3.49 g/m*3 -0.4 C 0 km/h
308 11-01-2010 13:27:02 -0.5 C 3.46 g/m*3 -0.5 C 0 km/h
309 11-01-2010 13:39:01 -0.6 C 3.49 g/m*3 -0.6 C 0 km/h
310 11-01-2010 13:51:02 -0.6 C 3.49 g/m*3 -0.6 C 0 km/h
311 11-01-2010 14:03:01 -0.6 C 3.49 g/m*3 -0.6 C 0 km/h
312 11-01-2010 14:15:02 -0.6 C 3.53 g/m*3 -0.6 C 0 km/h
313 11-01-2010 14:27:02 -0.5 C 3.56 g/m*3 -0.5 C 0 km/h
314 11-01-2010 14:39:01 -0.6 C 3.49 g/m*3 -0.6 C 0 km/h
315 11-01-2010 14:51:02 -0.7 C 3.51 g/m*3 -0.7 C 0 km/h
316 11-01-2010 15:03:02 -0.7 C 3.55 g/m*3 -0.7 C 0 km/h
317 11-01-2010 15:15:02 -0.7 C 3.55 g/m*3 -0.7 C 0 km/h
318 11-01-2010 15:27:02 -0.8 C 3.58 g/m*3 -0.8 C 0 km/h
319 11-01-2010 15:39:03 -0.8 C 3.62 g/m*3 -0.8 C 0 km/h
320 11-01-2010 15:51:02 -0.8 C 3.67 g/m*3 -0.8 C 0 km/h
321 11-01-2010 16:03:01 -0.8 C 3.71 g/m*3 -0.8 C 0 km/h
322 11-01-2010 16:15:02 -0.8 C 3.76 g/m*3 -0.8 C 0 km/h
323 11-01-2010 16:27:02 -0.8 C 3.8 g/m*3 -0.8 C 0 km/h
324 11-01-2010 16:39:02 -1 C 3.75 g/m*3 -1 C 0 km/h
325 11-01-2010 16:51:01 -1.1 C 3.77 g/m*3 -1.1 C 0 km/h
Sensor: Nr:Datum:Temp:Abs-Feuchte:Windchill:Wind:
Aussen-T/F 326 11-01-2010 17:03:02 -1.2 C 3.74 g/m*3 -1.2 C 0 km/h
327 11-01-2010 17:15:01 -1.2 C 3.79 g/m*3 -1.2 C 0 km/h
328 11-01-2010 17:27:01 -1.1 C 3.82 g/m*3 -1.1 C 0 km/h
329 11-01-2010 17:39:02 -1.2 C 3.79 g/m*3 -1.2 C 0 km/h
330 11-01-2010 17:51:02 -1.3 C 3.81 g/m*3 -1.3 C 0 km/h
331 11-01-2010 18:03:02 -1.3 C 3.81 g/m*3 -1.3 C 0 km/h
332 11-01-2010 18:15:01 -1.3 C 3.85 g/m*3 -1.3 C 0 km/h
333 11-01-2010 18:27:01 -1.2 C 3.88 g/m*3 -1.2 C 0 km/h
334 11-01-2010 18:39:02 -1.3 C 3.85 g/m*3 -1.3 C 0 km/h
335 11-01-2010 18:51:02 -1.4 C 3.82 g/m*3 -1.4 C 0 km/h
336 11-01-2010 19:03:02 -1.4 C 3.82 g/m*3 -1.4 C 0 km/h
337 11-01-2010 19:15:01 -1.4 C 3.82 g/m*3 -1.4 C 0 km/h
338 11-01-2010 19:27:01 -1.3 C 3.85 g/m*3 -1.3 C 0 km/h
339 11-01-2010 19:39:02 -1.4 C 3.82 g/m*3 -1.4 C 0 km/h
340 11-01-2010 19:51:02 -1.3 C 3.85 g/m*3 -1.3 C 0 km/h
341 11-01-2010 20:03:02 -1.3 C 3.85 g/m*3 -1.3 C 0 km/h
342 11-01-2010 20:15:01 -1.3 C 3.85 g/m*3 -1.3 C 0 km/h
343 11-01-2010 20:27:01 -1.3 C 3.85 g/m*3 -1.3 C 0 km/h
344 11-01-2010 20:39:02 -1.3 C 3.85 g/m*3 -1.3 C 0 km/h
345 11-01-2010 20:51:02 -1.3 C 3.85 g/m*3 -1.3 C 0 km/h
346 11-01-2010 21:03:02 -1.3 C 3.85 g/m*3 -1.3 C 0 km/h
347 11-01-2010 21:15:02 -1.3 C 3.81 g/m*3 -1.3 C 0 km/h
348 11-01-2010 21:27:02 -1.3 C 3.81 g/m*3 -1.3 C 0 km/h
349 11-01-2010 21:39:02 -1.3 C 3.81 g/m*3 -1.3 C 0 km/h
350 11-01-2010 21:51:02 -1.3 C 3.81 g/m*3 -1.3 C 0 km/h
Sensor: Nr:Datum:Temp:Abs-Feuchte:Windchill:Wind:
Aussen-T/F 351 11-01-2010 22:03:02 -1.3 C 3.81 g/m*3 -1.3 C 0 km/h
352 11-01-2010 22:15:02 -1.3 C 3.81 g/m*3 -1.3 C 0 km/h
353 11-01-2010 22:27:02 -1.2 C 3.83 g/m*3 -1.2 C 0 km/h
354 11-01-2010 22:40:04 -1.2 C 3.83 g/m*3 -1.2 C 0 km/h
355 11-01-2010 22:52:04 -1.1 C 3.86 g/m*3 -1.1 C 0 km/h
356 11-01-2010 23:04:04 -1.1 C 3.86 g/m*3 -1.1 C 0 km/h
357 11-01-2010 23:16:04 -1.2 C 3.83 g/m*3 -1.2 C 0 km/h
358 11-01-2010 23:28:04 -1.2 C 3.83 g/m*3 -1.2 C 0 km/h
359 11-01-2010 23:40:04 -1.2 C 3.83 g/m*3 -1.2 C 0 km/h
360 11-01-2010 23:52:04 -1.3 C 3.76 g/m*3 -1.3 C 0 km/h
361 12-01-2010 00:04:04 -1.3 C 3.76 g/m*3 -1.3 C 0 km/h
362 12-01-2010 00:16:04 -1.3 C 3.76 g/m*3 -1.3 C 0 km/h
363 12-01-2010 00:28:04 -1.3 C 3.76 g/m*3 -1.3 C 0 km/h
364 12-01-2010 00:40:04 -1.3 C 3.72 g/m*3 -1.3 C 0 km/h
365 12-01-2010 00:52:04 -1.3 C 3.72 g/m*3 -1.3 C 0 km/h
366 12-01-2010 01:04:04 -1.3 C 3.72 g/m*3 -1.3 C 0 km/h
367 12-01-2010 01:16:04 -1.3 C 3.67 g/m*3 -1.3 C 0 km/h
368 12-01-2010 01:28:05 -1.3 C 3.67 g/m*3 -1.3 C 0 km/h
369 12-01-2010 01:40:05 -1.3 C 3.67 g/m*3 -1.3 C 0 km/h
370 12-01-2010 01:52:05 -1.3 C 3.67 g/m*3 -1.3 C 0 km/h
371 12-01-2010 02:04:05 -1.3 C 3.67 g/m*3 -1.3 C 0 km/h
372 12-01-2010 02:16:05 -1.4 C 3.65 g/m*3 -1.4 C 0 km/h
373 12-01-2010 02:28:05 -1.4 C 3.65 g/m*3 -1.4 C 0 km/h
374 12-01-2010 02:40:05 -1.3 C 3.67 g/m*3 -1.3 C 0 km/h
375 12-01-2010 02:52:05 -1.4 C 3.65 g/m*3 -1.4 C 0 km/h
Sensor: Nr:Datum:Temp:Abs-Feuchte:Windchill:Wind:
Aussen-T/F 376 12-01-2010 03:04:05 -1.4 C 3.65 g/m*3 -1.4 C 0 km/h
377 12-01-2010 03:16:05 -1.4 C 3.65 g/m*3 -1.4 C 0 km/h
378 12-01-2010 03:28:05 -1.5 C 3.62 g/m*3 -1.5 C 0 km/h
379 12-01-2010 03:40:05 -1.5 C 3.62 g/m*3 -1.5 C 0 km/h
380 12-01-2010 03:52:05 -1.6 C 3.64 g/m*3 -1.6 C 0 km/h
381 12-01-2010 04:04:05 -1.6 C 3.64 g/m*3 -1.6 C 0 km/h
382 12-01-2010 04:16:05 -1.6 C 3.64 g/m*3 -1.6 C 0 km/h
383 12-01-2010 04:28:05 -1.8 C 3.59 g/m*3 -1.8 C 0 km/h
384 12-01-2010 04:40:05 -1.8 C 3.63 g/m*3 -1.8 C 0 km/h
385 12-01-2010 04:52:05 -1.8 C 3.63 g/m*3 -1.8 C 0 km/h
386 12-01-2010 05:04:05 -1.9 C 3.61 g/m*3 -1.9 C 0 km/h
387 12-01-2010 05:16:05 -1.9 C 3.61 g/m*3 -1.9 C 0 km/h
388 12-01-2010 05:28:05 -1.9 C 3.61 g/m*3 -1.9 C 0 km/h
389 12-01-2010 05:40:06 -2 C 3.58 g/m*3 -2 C 0 km/h
390 12-01-2010 05:52:06 -2 C 3.58 g/m*3 -2 C 0 km/h
391 12-01-2010 06:04:06 -2 C 3.58 g/m*3 -2 C 0 km/h
392 12-01-2010 06:16:06 -2 C 3.58 g/m*3 -2 C 0 km/h
393 12-01-2010 06:28:06 -2.1 C 3.56 g/m*3 -2.1 C 0 km/h
394 12-01-2010 06:40:06 -2.1 C 3.56 g/m*3 -2.1 C 0 km/h
395 12-01-2010 06:52:03 -2.1 C 3.56 g/m*3 -2.1 C 0 km/h
396 12-01-2010 07:04:02 -2.1 C 3.56 g/m*3 -2.1 C 0 km/h
397 12-01-2010 07:16:02 -2.2 C 3.49 g/m*3 -2.2 C 0 km/h
398 12-01-2010 07:28:02 -2.2 C 3.49 g/m*3 -2.2 C 0 km/h
399 12-01-2010 07:40:02 -2.2 C 3.45 g/m*3 -2.2 C 0 km/h
400 12-01-2010 07:52:02 -2.3 C 3.43 g/m*3 -2.3 C 0 km/h
Sensor: Nr:Datum:Temp:Abs-Feuchte:Windchill:Wind:
Aussen-T/F 401 12-01-2010 08:04:02 -2.4 C 3.36 g/m*3 -2.4 C 0 km/h
402 12-01-2010 08:16:02 -2.3 C 3.38 g/m*3 -2.3 C 0 km/h
403 12-01-2010 08:28:02 -2.4 C 3.36 g/m*3 -2.4 C 0 km/h
404 12-01-2010 08:40:01 -2.4 C 3.36 g/m*3 -2.4 C 0 km/h
405 12-01-2010 08:52:02 -2.4 C 3.36 g/m*3 -2.4 C 0 km/h
406 12-01-2010 09:04:01 -2.3 C 3.34 g/m*3 -2.3 C 0 km/h
407 12-01-2010 09:16:01 -2.3 C 3.34 g/m*3 -2.3 C 0 km/h
408 12-01-2010 09:28:01 -2.1 C 3.35 g/m*3 -2.1 C 0 km/h
409 12-01-2010 09:40:02 -2.1 C 3.31 g/m*3 -2.1 C 0 km/h
410 12-01-2010 09:52:02 -2.1 C 3.26 g/m*3 -2.1 C 0 km/h
411 12-01-2010 10:04:01 -1.9 C 3.31 g/m*3 -1.9 C 0 km/h
412 12-01-2010 10:16:02 -1.8 C 3.29 g/m*3 -1.8 C 0 km/h
413 12-01-2010 10:28:02 -1.7 C 3.31 g/m*3 -1.7 C 0 km/h
414 12-01-2010 10:40:02 -1.6 C 3.29 g/m*3 -1.6 C 0 km/h
415 12-01-2010 10:52:01 -1.4 C 3.34 g/m*3 -1.4 C 0 km/h
416 12-01-2010 11:04:02 -1.3 C 3.32 g/m*3 -1.3 C 0 km/h
417 12-01-2010 11:16:01 -1.3 C 3.28 g/m*3 -1.3 C 0 km/h
418 12-01-2010 11:28:01 -1.1 C 3.32 g/m*3 -1.1 C 0 km/h
419 12-01-2010 11:40:02 -1 C 3.35 g/m*3 -1 C 0 km/h
420 12-01-2010 11:52:02 -1 C 3.35 g/m*3 -1 C 0 km/h
421 12-01-2010 12:04:02 -1 C 3.3 g/m*3 -1 C 0 km/h
422 12-01-2010 12:16:01 -1 C 3.3 g/m*3 -1 C 0 km/h
423 12-01-2010 12:28:01 -1 C 3.3 g/m*3 -1 C 0 km/h
424 12-01-2010 12:40:02 -1.2 C 3.21 g/m*3 -1.2 C 0 km/h
425 12-01-2010 12:52:02 -1.2 C 3.25 g/m*3 -1.2 C 0 km/h
Sensor: Nr:Datum:Temp:Abs-Feuchte:Windchill:Wind:
Aussen-T/F 426 12-01-2010 13:04:02 -1.2 C 3.21 g/m*3 -1.2 C 0 km/h
427 12-01-2010 13:16:01 -1.2 C 3.21 g/m*3 -1.2 C 0 km/h
428 12-01-2010 13:28:01 -1.2 C 3.21 g/m*3 -1.2 C 0 km/h
429 12-01-2010 13:40:02 -1.2 C 3.21 g/m*3 -1.2 C 0 km/h
430 12-01-2010 13:52:02 -1.2 C 3.25 g/m*3 -1.2 C 0 km/h
431 12-01-2010 14:04:02 -1.2 C 3.25 g/m*3 -1.2 C 0 km/h
432 12-01-2010 14:16:02 -1 C 3.3 g/m*3 -1 C 0 km/h
433 12-01-2010 14:28:02 -1.1 C 3.28 g/m*3 -1.1 C 0 km/h
434 12-01-2010 14:40:02 -1 C 3.3 g/m*3 -1 C 0 km/h
435 12-01-2010 14:52:02 -1.2 C 3.25 g/m*3 -1.2 C 0 km/h
436 12-01-2010 15:04:02 -1.3 C 3.28 g/m*3 -1.3 C 0 km/h
437 12-01-2010 15:16:02 -1.4 C 3.3 g/m*3 -1.4 C 0 km/h
438 12-01-2010 15:28:02 -1.4 C 3.3 g/m*3 -1.4 C 0 km/h
439 12-01-2010 15:40:02 -1.3 C 3.36 g/m*3 -1.3 C 0 km/h
440 12-01-2010 15:52:02 -1.4 C 3.34 g/m*3 -1.4 C 0 km/h
441 12-01-2010 16:04:02 -1.3 C 3.36 g/m*3 -1.3 C 0 km/h
442 12-01-2010 16:16:02 -1.5 C 3.36 g/m*3 -1.5 C 0 km/h
443 12-01-2010 16:28:02 -1.6 C 3.34 g/m*3 -1.6 C 0 km/h
444 12-01-2010 16:40:01 -1.7 C 3.31 g/m*3 -1.7 C 0 km/h
445 12-01-2010 16:52:02 -1.8 C 3.33 g/m*3 -1.8 C 0 km/h
446 12-01-2010 17:04:01 -1.9 C 3.31 g/m*3 -1.9 C 0 km/h
447 12-01-2010 17:16:02 -1.9 C 3.31 g/m*3 -1.9 C 0 km/h
448 12-01-2010 17:28:02 -1.9 C 3.31 g/m*3 -1.9 C 0 km/h
449 12-01-2010 17:40:02 -1.9 C 3.31 g/m*3 -1.9 C 0 km/h
450 12-01-2010 17:52:02 -1.9 C 3.31 g/m*3 -1.9 C 0 km/h
Sensor: Nr:Datum:Temp:Abs-Feuchte:Windchill:Wind:
Aussen-T/F 451 12-01-2010 18:04:02 -1.9 C 3.35 g/m*3 -1.9 C 0 km/h
452 12-01-2010 18:16:02 -1.8 C 3.38 g/m*3 -1.8 C 0 km/h
453 12-01-2010 18:28:02 -1.8 C 3.33 g/m*3 -1.8 C 0 km/h
454 12-01-2010 18:40:03 -1.8 C 3.33 g/m*3 -1.8 C 0 km/h
455 12-01-2010 18:52:02 -1.8 C 3.33 g/m*3 -1.8 C 0 km/h
456 12-01-2010 19:04:02 -1.9 C 3.27 g/m*3 -1.9 C 0 km/h
457 12-01-2010 19:16:02 -1.9 C 3.27 g/m*3 -1.9 C 0 km/h
458 12-01-2010 19:28:02 -1.9 C 3.27 g/m*3 -1.9 C 0 km/h
459 12-01-2010 19:40:02 -2 C 3.2 g/m*3 -2 C 0 km/h
460 12-01-2010 19:52:02 -2 C 3.2 g/m*3 -2 C 0 km/h
461 12-01-2010 20:04:02 -2 C 3.2 g/m*3 -2 C 0 km/h
462 12-01-2010 20:16:02 -1.9 C 3.27 g/m*3 -1.9 C 0 km/h
463 12-01-2010 20:28:02 -1.9 C 3.27 g/m*3 -1.9 C 0 km/h
464 12-01-2010 20:40:02 -1.9 C 3.27 g/m*3 -1.9 C 0 km/h
465 12-01-2010 20:52:02 -1.8 C 3.25 g/m*3 -1.8 C 0 km/h
466 12-01-2010 21:04:02 -1.7 C 3.27 g/m*3 -1.7 C 0 km/h
467 12-01-2010 21:16:02 -1.7 C 3.27 g/m*3 -1.7 C 0 km/h
468 12-01-2010 21:28:02 -1.7 C 3.27 g/m*3 -1.7 C 0 km/h
469 12-01-2010 21:40:02 -1.6 C 3.29 g/m*3 -1.6 C 0 km/h
470 12-01-2010 21:53:01 -1.7 C 3.27 g/m*3 -1.7 C 0 km/h
471 12-01-2010 22:05:01 -1.7 C 3.27 g/m*3 -1.7 C 0 km/h
472 12-01-2010 22:17:01 -1.7 C 3.23 g/m*3 -1.7 C 0 km/h
473 12-01-2010 22:29:01 -1.6 C 3.25 g/m*3 -1.6 C 0 km/h
474 12-01-2010 22:41:01 -1.7 C 3.19 g/m*3 -1.7 C 0 km/h
475 12-01-2010 22:53:01 -1.8 C 3.16 g/m*3 -1.8 C 0 km/h
Sensor: Nr:Datum:Temp:Abs-Feuchte:Windchill:Wind:
Aussen-T/F 476 12-01-2010 23:05:01 -1.8 C 3.16 g/m*3 -1.8 C 0 km/h
477 12-01-2010 23:17:01 -1.9 C 3.14 g/m*3 -1.9 C 0 km/h
478 12-01-2010 23:29:01 -1.8 C 3.21 g/m*3 -1.8 C 0 km/h
479 12-01-2010 23:41:01 -1.8 C 3.21 g/m*3 -1.8 C 0 km/h
480 12-01-2010 23:53:01 -1.7 C 3.23 g/m*3 -1.7 C 0 km/h
481 13-01-2010 00:05:01 -1.7 C 3.19 g/m*3 -1.7 C 0 km/h
482 13-01-2010 00:17:02 -1.7 C 3.19 g/m*3 -1.7 C 0 km/h
483 13-01-2010 00:29:02 -1.7 C 3.19 g/m*3 -1.7 C 0 km/h
484 13-01-2010 00:41:02 -1.8 C 3.16 g/m*3 -1.8 C 0 km/h
485 13-01-2010 00:53:02 -2 C 3.16 g/m*3 -2 C 0 km/h
486 13-01-2010 01:05:02 -2.1 C 3.14 g/m*3 -2.1 C 0 km/h
487 13-01-2010 01:17:02 -2.5 C 3.05 g/m*3 -2.5 C 0 km/h
488 13-01-2010 01:29:02 -2.8 C 3.03 g/m*3 -2.8 C 0 km/h
489 13-01-2010 01:41:02 -2.7 C 3.09 g/m*3 -2.7 C 0 km/h
490 13-01-2010 01:53:02 -2.6 C 3.11 g/m*3 -2.6 C 0 km/h
491 13-01-2010 02:05:02 -2.7 C 3.13 g/m*3 -2.7 C 0 km/h
492 13-01-2010 02:17:02 -2.7 C 3.13 g/m*3 -2.7 C 0 km/h
493 13-01-2010 02:29:02 -2.8 C 3.11 g/m*3 -2.8 C 0 km/h
494 13-01-2010 02:41:02 -2.9 C 3.09 g/m*3 -2.9 C 0 km/h
495 13-01-2010 02:53:02 -2.9 C 3.09 g/m*3 -2.9 C 0 km/h
496 13-01-2010 03:05:02 -2.9 C 3.13 g/m*3 -2.9 C 0 km/h
497 13-01-2010 03:17:02 -2.9 C 3.13 g/m*3 -2.9 C 0 km/h
498 13-01-2010 03:29:02 -3.2 C 3.06 g/m*3 -3.2 C 0 km/h
499 13-01-2010 03:41:02 -3.5 C 2.96 g/m*3 -3.5 C 0 km/h
500 13-01-2010 03:53:02 -3.4 C 3.02 g/m*3 -3.4 C 0 km/h
Sensor: Nr:Datum:Temp:Abs-Feuchte:Windchill:Wind:
Aussen-T/F 501 13-01-2010 04:05:02 -3.2 C 3.1 g/m*3 -3.2 C 0 km/h
502 13-01-2010 04:17:02 -3.1 C 3.12 g/m*3 -3.1 C 0 km/h
503 13-01-2010 04:29:02 -3 C 3.1 g/m*3 -3 C 0 km/h
504 13-01-2010 04:41:03 -2.9 C 3.09 g/m*3 -2.9 C 0 km/h
505 13-01-2010 04:53:03 -3.1 C 3 g/m*3 -3.1 C 0 km/h
506 13-01-2010 05:05:03 -3.1 C 3 g/m*3 -3.1 C 0 km/h
507 13-01-2010 05:17:03 -2.9 C 3.05 g/m*3 -2.9 C 0 km/h
508 13-01-2010 05:29:03 -3 C 3.02 g/m*3 -3 C 0 km/h
509 13-01-2010 05:41:03 -2.9 C 3.01 g/m*3 -2.9 C 0 km/h
510 13-01-2010 05:53:03 -2.9 C 3.01 g/m*3 -2.9 C 0 km/h
511 13-01-2010 06:05:03 -2.8 C 2.99 g/m*3 -2.8 C 0 km/h
512 13-01-2010 06:17:03 -2.7 C 3.01 g/m*3 -2.7 C 0 km/h
513 13-01-2010 06:29:03 -2.7 C 2.93 g/m*3 -2.7 C 0 km/h
514 13-01-2010 06:41:03 -2.8 C 2.95 g/m*3 -2.8 C 0 km/h
515 13-01-2010 06:53:03 -2.8 C 2.91 g/m*3 -2.8 C 0 km/h
516 13-01-2010 07:05:02 -2.9 C 2.89 g/m*3 -2.9 C 0 km/h
517 13-01-2010 07:17:01 -2.9 C 2.89 g/m*3 -2.9 C 0 km/h
518 13-01-2010 07:29:01 -2.8 C 2.91 g/m*3 -2.8 C 0 km/h
519 13-01-2010 07:41:02 -3 C 2.83 g/m*3 -3 C 0 km/h
520 13-01-2010 07:53:01 -3 C 2.87 g/m*3 -3 C 0 km/h
521 13-01-2010 08:05:02 -3.1 C 2.81 g/m*3 -3.1 C 0 km/h
522 13-01-2010 08:17:01 -3.2 C 2.79 g/m*3 -3.2 C 0 km/h
523 13-01-2010 08:29:01 -3.2 C 2.75 g/m*3 -3.2 C 0 km/h
524 13-01-2010 08:41:02 -3.1 C 2.77 g/m*3 -3.1 C 0 km/h
525 13-01-2010 08:53:01 -3 C 2.79 g/m*3 -3 C 0 km/h
Sensor: Nr:Datum:Temp:Abs-Feuchte:Windchill:Wind:
Aussen-T/F 526 13-01-2010 09:05:02 -2.9 C 2.77 g/m*3 -2.9 C 0 km/h
527 13-01-2010 09:17:02 -3 C 2.71 g/m*3 -3 C 0 km/h
528 13-01-2010 09:29:02 -2.9 C 2.73 g/m*3 -2.9 C 0 km/h
529 13-01-2010 09:41:02 -3 C 2.71 g/m*3 -3 C 0 km/h
530 13-01-2010 09:53:02 -3 C 2.67 g/m*3 -3 C 0 km/h
531 13-01-2010 10:05:01 -2.9 C 2.65 g/m*3 -2.9 C 0 km/h
532 13-01-2010 10:17:02 -2.6 C 2.71 g/m*3 -2.6 C 0 km/h
533 13-01-2010 10:29:03 -2.5 C 2.65 g/m*3 -2.5 C 0 km/h
534 13-01-2010 10:41:01 -2.3 C 2.68 g/m*3 -2.3 C 0 km/h
535 13-01-2010 10:53:02 -2.1 C 2.68 g/m*3 -2.1 C 0 km/h
536 13-01-2010 11:05:01 -2 C 2.61 g/m*3 -2 C 0 km/h
537 13-01-2010 11:17:01 -2 C 2.61 g/m*3 -2 C 0 km/h
538 13-01-2010 11:29:01 -1.8 C 2.69 g/m*3 -1.8 C 0 km/h
539 13-01-2010 11:41:02 -1.6 C 2.73 g/m*3 -1.6 C 0 km/h
540 13-01-2010 11:53:02 -1.9 C 2.59 g/m*3 -1.9 C 0 km/h
541 13-01-2010 12:05:01 -1.6 C 2.69 g/m*3 -1.6 C 0 km/h
542 13-01-2010 12:17:02 -1.2 C 2.72 g/m*3 -1.2 C 0 km/h
543 13-01-2010 12:29:02 -1.1 C 2.74 g/m*3 -1.1 C 0 km/h
544 13-01-2010 12:41:02 -1 C 2.76 g/m*3 -1 C 0 km/h
545 13-01-2010 12:53:01 -0.9 C 2.78 g/m*3 -0.9 C 0 km/h
546 13-01-2010 13:05:02 -0.7 C 2.82 g/m*3 -0.7 C 0 km/h
547 13-01-2010 13:17:01 -0.8 C 2.84 g/m*3 -0.8 C 0 km/h
548 13-01-2010 13:29:01 -1.3 C 2.79 g/m*3 -1.3 C 0 km/h
549 13-01-2010 13:41:02 -1.3 C 2.97 g/m*3 -1.3 C 0 km/h
550 13-01-2010 13:53:02 -1.2 C 3.08 g/m*3 -1.2 C 0 km/h
Sensor: Nr:Datum:Temp:Abs-Feuchte:Windchill:Wind:
Aussen-T/F 551 13-01-2010 14:05:02 -1.2 C 3.08 g/m*3 -1.2 C 0 km/h
552 13-01-2010 14:17:01 -1.2 C 3.08 g/m*3 -1.2 C 0 km/h
553 13-01-2010 14:29:01 -1.4 C 3.03 g/m*3 -1.4 C 0 km/h
554 13-01-2010 14:41:02 -1.6 C 2.99 g/m*3 -1.6 C 0 km/h
555 13-01-2010 14:53:02 -1.6 C 3.03 g/m*3 -1.6 C 0 km/h
556 13-01-2010 15:05:02 -1.5 C 3.06 g/m*3 -1.5 C 0 km/h
557 13-01-2010 15:17:02 -1.4 C 3.12 g/m*3 -1.4 C 0 km/h
558 13-01-2010 15:29:02 -1.6 C 2.99 g/m*3 -1.6 C 0 km/h
559 13-01-2010 15:41:02 -1.7 C 3.01 g/m*3 -1.7 C 0 km/h
560 13-01-2010 15:53:02 -1.8 C 3.04 g/m*3 -1.8 C 0 km/h
561 13-01-2010 16:05:02 -1.8 C 3.04 g/m*3 -1.8 C 0 km/h
562 13-01-2010 16:17:03 -1.8 C 3.08 g/m*3 -1.8 C 0 km/h
563 13-01-2010 16:29:03 -1.9 C 3.01 g/m*3 -1.9 C 0 km/h
564 13-01-2010 16:41:02 -2 C 2.99 g/m*3 -2 C 0 km/h
565 13-01-2010 16:53:02 -2.1 C 3.01 g/m*3 -2.1 C 0 km/h
566 13-01-2010 17:05:02 -2.2 C 2.95 g/m*3 -2.2 C 0 km/h
567 13-01-2010 17:17:02 -2.3 C 2.93 g/m*3 -2.3 C 0 km/h
568 13-01-2010 17:29:02 -2.2 C 2.99 g/m*3 -2.2 C 0 km/h
569 13-01-2010 17:41:02 -2.3 C 2.93 g/m*3 -2.3 C 0 km/h
570 13-01-2010 17:53:02 -2.3 C 2.97 g/m*3 -2.3 C 0 km/h
571 13-01-2010 18:05:02 -2.2 C 2.95 g/m*3 -2.2 C 0 km/h
572 13-01-2010 18:17:02 -2.3 C 2.93 g/m*3 -2.3 C 0 km/h
573 13-01-2010 18:29:02 -2.3 C 2.93 g/m*3 -2.3 C 0 km/h
574 13-01-2010 18:41:02 -2.4 C 2.91 g/m*3 -2.4 C 0 km/h
575 13-01-2010 18:53:02 -2.4 C 2.95 g/m*3 -2.4 C 0 km/h
Sensor: Nr:Datum:Temp:Abs-Feuchte:Windchill:Wind:
Aussen-T/F 576 13-01-2010 19:05:01 -2.3 C 2.97 g/m*3 -2.3 C 0 km/h
577 13-01-2010 19:17:02 -2.3 C 2.97 g/m*3 -2.3 C 0 km/h
578 13-01-2010 19:29:02 -2.3 C 2.97 g/m*3 -2.3 C 0 km/h
579 13-01-2010 19:41:01 -2.3 C 2.97 g/m*3 -2.3 C 0 km/h
580 13-01-2010 19:53:02 -2.3 C 3.01 g/m*3 -2.3 C 0 km/h
581 13-01-2010 20:05:01 -2.2 C 3.03 g/m*3 -2.2 C 0 km/h
582 13-01-2010 20:17:01 -2.1 C 3.06 g/m*3 -2.1 C 0 km/h
583 13-01-2010 20:29:01 -2.2 C 3.03 g/m*3 -2.2 C 0 km/h
584 13-01-2010 20:41:02 -2.1 C 3.06 g/m*3 -2.1 C 0 km/h
585 13-01-2010 20:53:02 -2 C 3.12 g/m*3 -2 C 0 km/h
586 13-01-2010 21:05:02 -2 C 3.12 g/m*3 -2 C 0 km/h
587 13-01-2010 21:17:02 -1.9 C 3.18 g/m*3 -1.9 C 0 km/h
588 13-01-2010 21:29:02 -1.9 C 3.18 g/m*3 -1.9 C 0 km/h
589 13-01-2010 21:41:02 -1.8 C 3.21 g/m*3 -1.8 C 0 km/h
590 13-01-2010 21:53:02 -1.8 C 3.21 g/m*3 -1.8 C 0 km/h
591 13-01-2010 22:05:01 -1.7 C 3.27 g/m*3 -1.7 C 0 km/h
592 13-01-2010 22:18:03 -1.6 C 3.29 g/m*3 -1.6 C 0 km/h
593 13-01-2010 22:30:03 -1.7 C 3.27 g/m*3 -1.7 C 0 km/h
594 13-01-2010 22:42:03 -1.6 C 3.34 g/m*3 -1.6 C 0 km/h
595 13-01-2010 22:54:03 -1.6 C 3.34 g/m*3 -1.6 C 0 km/h
596 13-01-2010 23:06:03 -1.6 C 3.34 g/m*3 -1.6 C 0 km/h
597 13-01-2010 23:18:03 -1.5 C 3.36 g/m*3 -1.5 C 0 km/h
598 13-01-2010 23:30:03 -1.5 C 3.36 g/m*3 -1.5 C 0 km/h
599 13-01-2010 23:42:03 -1.5 C 3.36 g/m*3 -1.5 C 0 km/h
600 13-01-2010 23:54:03 -1.4 C 3.43 g/m*3 -1.4 C 0 km/h
Sensor: Nr:Datum:Temp:Abs-Feuchte:Windchill:Wind:
Aussen-T/F 601 14-01-2010 00:06:03 -1.4 C 3.43 g/m*3 -1.4 C 0 km/h
602 14-01-2010 00:18:04 -1.4 C 3.43 g/m*3 -1.4 C 0 km/h
603 14-01-2010 00:30:04 -1.4 C 3.43 g/m*3 -1.4 C 0 km/h
604 14-01-2010 00:42:04 -1.5 C 3.41 g/m*3 -1.5 C 0 km/h
605 14-01-2010 00:54:04 -1.4 C 3.47 g/m*3 -1.4 C 0 km/h
606 14-01-2010 01:06:04 -1.4 C 3.47 g/m*3 -1.4 C 0 km/h
607 14-01-2010 01:18:04 -1.5 C 3.45 g/m*3 -1.5 C 0 km/h
608 14-01-2010 01:30:04 -1.4 C 3.52 g/m*3 -1.4 C 0 km/h
609 14-01-2010 01:42:04 -1.3 C 3.54 g/m*3 -1.3 C 0 km/h
610 14-01-2010 01:54:04 -1.4 C 3.52 g/m*3 -1.4 C 0 km/h
611 14-01-2010 02:06:04 -1.4 C 3.52 g/m*3 -1.4 C 0 km/h
612 14-01-2010 02:18:04 -1.2 C 3.61 g/m*3 -1.2 C 0 km/h
613 14-01-2010 02:30:04 -1.1 C 3.64 g/m*3 -1.1 C 0 km/h
614 14-01-2010 02:42:04 -1.2 C 3.61 g/m*3 -1.2 C 0 km/h
615 14-01-2010 02:54:04 -1.1 C 3.64 g/m*3 -1.1 C 0 km/h
616 14-01-2010 03:06:04 -1 C 3.71 g/m*3 -1 C 0 km/h
617 14-01-2010 03:18:04 -1 C 3.71 g/m*3 -1 C 0 km/h
618 14-01-2010 03:30:04 -1.1 C 3.68 g/m*3 -1.1 C 0 km/h
619 14-01-2010 03:42:04 -1 C 3.71 g/m*3 -1 C 0 km/h
620 14-01-2010 03:54:04 -1.1 C 3.68 g/m*3 -1.1 C 0 km/h
621 14-01-2010 04:06:04 -0.9 C 3.78 g/m*3 -0.9 C 0 km/h
622 14-01-2010 04:18:04 -0.9 C 3.78 g/m*3 -0.9 C 0 km/h
623 14-01-2010 04:30:04 -0.9 C 3.78 g/m*3 -0.9 C 0 km/h
624 14-01-2010 04:42:05 -0.9 C 3.78 g/m*3 -0.9 C 0 km/h
625 14-01-2010 04:54:05 -0.8 C 3.8 g/m*3 -0.8 C 0 km/h
Sensor: Nr:Datum:Temp:Abs-Feuchte:Windchill:Wind:
Aussen-T/F 626 14-01-2010 05:06:05 -0.7 C 3.83 g/m*3 -0.7 C 0 km/h
627 14-01-2010 05:18:05 -0.8 C 3.8 g/m*3 -0.8 C 0 km/h
628 14-01-2010 05:30:05 -0.7 C 3.83 g/m*3 -0.7 C 0 km/h
629 14-01-2010 05:42:05 -0.7 C 3.83 g/m*3 -0.7 C 0 km/h
630 14-01-2010 05:54:05 -0.6 C 3.9 g/m*3 -0.6 C 0 km/h
631 14-01-2010 06:06:05 -0.6 C 3.86 g/m*3 -0.6 C 0 km/h
632 14-01-2010 06:18:05 -0.6 C 3.9 g/m*3 -0.6 C 0 km/h
633 14-01-2010 06:30:05 -0.8 C 3.8 g/m*3 -0.8 C 0 km/h
634 14-01-2010 06:42:05 -0.6 C 3.9 g/m*3 -0.6 C 0 km/h
635 14-01-2010 06:54:05 -0.6 C 3.9 g/m*3 -0.6 C 0 km/h
636 14-01-2010 07:06:05 -0.6 C 3.9 g/m*3 -0.6 C 0 km/h
637 14-01-2010 07:18:03 -0.8 C 3.85 g/m*3 -0.8 C 0 km/h
638 14-01-2010 07:30:03 -0.6 C 3.9 g/m*3 -0.6 C 0 km/h
639 14-01-2010 07:42:02 -0.6 C 3.9 g/m*3 -0.6 C 0 km/h
640 14-01-2010 07:54:01 -0.6 C 3.9 g/m*3 -0.6 C 0 km/h
641 14-01-2010 08:06:01 -0.6 C 3.9 g/m*3 -0.6 C 0 km/h
642 14-01-2010 08:18:02 -0.6 C 3.86 g/m*3 -0.6 C 0 km/h
643 14-01-2010 08:30:02 -0.6 C 3.86 g/m*3 -0.6 C 0 km/h
644 14-01-2010 08:42:01 -0.8 C 3.8 g/m*3 -0.8 C 0 km/h
645 14-01-2010 08:54:02 -1.1 C 3.73 g/m*3 -1.1 C 0 km/h
646 14-01-2010 09:06:01 -1.1 C 3.73 g/m*3 -1.1 C 0 km/h
647 14-01-2010 09:18:02 -0.9 C 3.82 g/m*3 -0.9 C 0 km/h
648 14-01-2010 09:30:02 -0.6 C 3.9 g/m*3 -0.6 C 0 km/h
649 14-01-2010 09:42:01 -0.4 C 3.96 g/m*3 -0.4 C 0 km/h
650 14-01-2010 09:54:02 0 C 4.07 g/m*3 0 C 0 km/h
Sensor: Nr:Datum:Temp:Abs-Feuchte:Windchill:Wind:
Aussen-T/F 651 14-01-2010 10:06:02 0.3 C 4.11 g/m*3 0.3 C 0 km/h
652 14-01-2010 10:18:02 0.6 C 4.19 g/m*3 0.6 C 0 km/h
653 14-01-2010 10:30:02 0.7 C 4.12 g/m*3 0.7 C 0 km/h
654 14-01-2010 10:42:02 0.8 C 4.1 g/m*3 0.8 C 0 km/h
655 14-01-2010 10:54:01 1 C 4.05 g/m*3 1 C 0 km/h
656 14-01-2010 11:06:02 1.3 C 4.08 g/m*3 1.3 C 0 km/h
657 14-01-2010 11:18:01 1.4 C 4.11 g/m*3 1.4 C 0 km/h
658 14-01-2010 11:30:01 1.5 C 4.08 g/m*3 1.5 C 0 km/h
659 14-01-2010 11:42:02 1.6 C 4.11 g/m*3 1.6 C 0 km/h
660 14-01-2010 11:54:02 1.7 C 4.08 g/m*3 1.7 C 0 km/h
661 14-01-2010 12:06:02 1.7 C 4.08 g/m*3 1.7 C 0 km/h
662 14-01-2010 12:18:01 1.8 C 4.11 g/m*3 1.8 C 0 km/h
663 14-01-2010 12:30:01 2 C 4.11 g/m*3 2 C 0 km/h
664 14-01-2010 12:42:02 2 C 4.06 g/m*3 2 C 0 km/h
665 14-01-2010 12:54:02 1.9 C 4.08 g/m*3 1.9 C 0 km/h
666 14-01-2010 13:06:02 2 C 4.06 g/m*3 2 C 0 km/h
667 14-01-2010 13:18:02 2 C 4.06 g/m*3 2 C 0 km/h
668 14-01-2010 13:30:02 2 C 4.06 g/m*3 2 C 0 km/h
669 14-01-2010 13:42:02 2 C 4.06 g/m*3 2 C 0 km/h
670 14-01-2010 13:54:02 2 C 4.06 g/m*3 2 C 0 km/h
671 14-01-2010 14:06:02 2 C 4.06 g/m*3 2 C 0 km/h
672 14-01-2010 14:18:02 2.1 C 4.08 g/m*3 2.1 C 0 km/h
673 14-01-2010 14:30:02 2.1 C 4.08 g/m*3 2.1 C 0 km/h
674 14-01-2010 14:42:02 2 C 4.06 g/m*3 2 C 0 km/h
675 14-01-2010 14:54:02 2 C 4.06 g/m*3 2 C 0 km/h
Sensor: Nr:Datum:Temp:Abs-Feuchte:Windchill:Wind:
Aussen-T/F 676 14-01-2010 15:06:02 2 C 4.11 g/m*3 2 C 0 km/h
677 14-01-2010 15:18:03 1.8 C 4.11 g/m*3 1.8 C 0 km/h
678 14-01-2010 15:30:03 1.7 C 4.14 g/m*3 1.7 C 0 km/h
679 14-01-2010 15:42:02 1.6 C 4.11 g/m*3 1.6 C 0 km/h
680 14-01-2010 15:54:02 1.6 C 4.16 g/m*3 1.6 C 0 km/h
681 14-01-2010 16:06:02 1.5 C 4.14 g/m*3 1.5 C 0 km/h
682 14-01-2010 16:18:03 1.5 C 4.19 g/m*3 1.5 C 0 km/h
683 14-01-2010 16:30:03 1.4 C 4.16 g/m*3 1.4 C 0 km/h
684 14-01-2010 16:42:02 1.4 C 4.16 g/m*3 1.4 C 0 km/h
685 14-01-2010 16:54:03 1.3 C 4.19 g/m*3 1.3 C 0 km/h
686 14-01-2010 17:06:02 1.2 C 4.16 g/m*3 1.2 C 0 km/h
687 14-01-2010 17:18:02 1.2 C 4.21 g/m*3 1.2 C 0 km/h
688 14-01-2010 17:30:02 1.2 C 4.21 g/m*3 1.2 C 0 km/h
689 14-01-2010 17:42:02 1.2 C 4.21 g/m*3 1.2 C 0 km/h
690 14-01-2010 17:54:01 1.1 C 4.18 g/m*3 1.1 C 0 km/h
691 14-01-2010 18:06:02 1.1 C 4.23 g/m*3 1.1 C 0 km/h
692 14-01-2010 18:18:01 1.1 C 4.23 g/m*3 1.1 C 0 km/h
693 14-01-2010 18:30:01 1.1 C 4.23 g/m*3 1.1 C 0 km/h
694 14-01-2010 18:42:02 1.1 C 4.23 g/m*3 1.1 C 0 km/h
695 14-01-2010 18:54:02 1 C 4.2 g/m*3 1 C 0 km/h
696 14-01-2010 19:06:02 1 C 4.2 g/m*3 1 C 0 km/h
697 14-01-2010 19:18:02 0.9 C 4.23 g/m*3 0.9 C 0 km/h
698 14-01-2010 19:30:02 1 C 4.2 g/m*3 1 C 0 km/h
699 14-01-2010 19:42:02 1 C 4.2 g/m*3 1 C 0 km/h
700 14-01-2010 19:54:02 1 C 4.26 g/m*3 1 C 0 km/h
Sensor: Nr:Datum:Temp:Abs-Feuchte:Windchill:Wind:
Aussen-T/F 701 14-01-2010 20:06:03 1 C 4.26 g/m*3 1 C 0 km/h
702 14-01-2010 20:18:02 1 C 4.26 g/m*3 1 C 0 km/h
703 14-01-2010 20:30:02 1 C 4.26 g/m*3 1 C 0 km/h
704 14-01-2010 20:42:02 0.9 C 4.23 g/m*3 0.9 C 0 km/h
705 14-01-2010 20:54:01 0.9 C 4.28 g/m*3 0.9 C 0 km/h
706 14-01-2010 21:06:02 0.9 C 4.28 g/m*3 0.9 C 0 km/h
707 14-01-2010 21:18:01 0.8 C 4.25 g/m*3 0.8 C 0 km/h
708 14-01-2010 21:30:01 0.8 C 4.25 g/m*3 0.8 C 0 km/h
709 14-01-2010 21:42:02 0.8 C 4.25 g/m*3 0.8 C 0 km/h
710 14-01-2010 21:54:02 0.8 C 4.25 g/m*3 0.8 C 0 km/h
711 14-01-2010 22:06:02 0.8 C 4.25 g/m*3 0.8 C 0 km/h
712 14-01-2010 22:19:04 0.8 C 4.2 g/m*3 0.8 C 0 km/h
713 14-01-2010 22:31:04 0.9 C 4.23 g/m*3 0.9 C 0 km/h
714 14-01-2010 22:43:04 0.8 C 4.2 g/m*3 0.8 C 0 km/h
715 14-01-2010 22:55:04 0.7 C 4.12 g/m*3 0.7 C 0 km/h
716 14-01-2010 23:07:04 0.7 C 4.12 g/m*3 0.7 C 0 km/h
717 14-01-2010 23:19:05 0.7 C 4.07 g/m*3 0.7 C 0 km/h
718 14-01-2010 23:31:05 0.6 C 4.09 g/m*3 0.6 C 0 km/h
719 14-01-2010 23:43:05 0.7 C 4.12 g/m*3 0.7 C 0 km/h
720 14-01-2010 23:55:05 0.7 C 4.12 g/m*3 0.7 C 0 km/h
721 15-01-2010 00:07:05 0.7 C 4.12 g/m*3 0.7 C 0 km/h
722 15-01-2010 00:19:05 0.6 C 4.09 g/m*3 0.6 C 0 km/h
723 15-01-2010 00:31:05 0.6 C 4.09 g/m*3 0.6 C 0 km/h
724 15-01-2010 00:43:05 0.6 C 4.09 g/m*3 0.6 C 0 km/h
725 15-01-2010 00:55:05 0.6 C 4.14 g/m*3 0.6 C 0 km/h
Sensor: Nr:Datum:Temp:Abs-Feuchte:Windchill:Wind:
Aussen-T/F 726 15-01-2010 01:07:05 0.7 C 4.17 g/m*3 0.7 C 0 km/h
727 15-01-2010 01:19:05 0.7 C 4.17 g/m*3 0.7 C 0 km/h
728 15-01-2010 01:31:05 0.6 C 4.14 g/m*3 0.6 C 0 km/h
729 15-01-2010 01:43:05 0.6 C 4.14 g/m*3 0.6 C 0 km/h
730 15-01-2010 01:55:05 0.6 C 4.14 g/m*3 0.6 C 0 km/h
731 15-01-2010 02:07:05 0.7 C 4.22 g/m*3 0.7 C 0 km/h
732 15-01-2010 02:19:05 0.7 C 4.22 g/m*3 0.7 C 0 km/h
733 15-01-2010 02:31:05 0.7 C 4.22 g/m*3 0.7 C 0 km/h
734 15-01-2010 02:43:05 0.7 C 4.17 g/m*3 0.7 C 0 km/h
735 15-01-2010 02:55:05 0.7 C 4.22 g/m*3 0.7 C 0 km/h
736 15-01-2010 03:07:05 0.6 C 4.14 g/m*3 0.6 C 0 km/h
737 15-01-2010 03:19:05 0.6 C 4.19 g/m*3 0.6 C 0 km/h
738 15-01-2010 03:31:05 0.6 C 4.19 g/m*3 0.6 C 0 km/h
739 15-01-2010 03:43:06 0.7 C 4.22 g/m*3 0.7 C 0 km/h
740 15-01-2010 03:55:06 0.7 C 4.17 g/m*3 0.7 C 0 km/h
741 15-01-2010 04:07:06 0.7 C 4.17 g/m*3 0.7 C 0 km/h
742 15-01-2010 04:19:06 0.7 C 4.17 g/m*3 0.7 C 0 km/h
743 15-01-2010 04:31:06 0.7 C 4.12 g/m*3 0.7 C 0 km/h
744 15-01-2010 04:43:06 0.7 C 4.12 g/m*3 0.7 C 0 km/h
745 15-01-2010 04:55:06 0.7 C 4.07 g/m*3 0.7 C 0 km/h
746 15-01-2010 05:07:06 0.7 C 4.12 g/m*3 0.7 C 0 km/h
747 15-01-2010 05:19:06 0.6 C 4.09 g/m*3 0.6 C 0 km/h
748 15-01-2010 05:31:06 0.7 C 4.12 g/m*3 0.7 C 0 km/h
749 15-01-2010 05:43:06 0.7 C 4.12 g/m*3 0.7 C 0 km/h
750 15-01-2010 05:55:01 0.7 C 4.12 g/m*3 0.7 C 0 km/h
Sensor: Nr:Datum:Temp:Abs-Feuchte:Windchill:Wind:
Aussen-T/F 751 15-01-2010 06:07:02 0.7 C 4.12 g/m*3 0.7 C 0 km/h
752 15-01-2010 06:19:01 0.6 C 4.09 g/m*3 0.6 C 0 km/h
753 15-01-2010 06:31:01 0.6 C 4.14 g/m*3 0.6 C 0 km/h
754 15-01-2010 06:43:01 0.6 C 4.14 g/m*3 0.6 C 0 km/h
755 15-01-2010 06:55:01 0.6 C 4.14 g/m*3 0.6 C 0 km/h
756 15-01-2010 07:07:02 0.7 C 4.17 g/m*3 0.7 C 0 km/h
757 15-01-2010 07:19:01 0.7 C 4.12 g/m*3 0.7 C 0 km/h
758 15-01-2010 07:31:02 0.7 C 4.12 g/m*3 0.7 C 0 km/h
759 15-01-2010 07:43:02 0.7 C 4.12 g/m*3 0.7 C 0 km/h
760 15-01-2010 07:55:01 0.7 C 4.12 g/m*3 0.7 C 0 km/h
761 15-01-2010 08:07:02 0.6 C 4.09 g/m*3 0.6 C 0 km/h
762 15-01-2010 08:19:02 0.6 C 4.09 g/m*3 0.6 C 0 km/h
763 15-01-2010 08:31:01 0.6 C 4.09 g/m*3 0.6 C 0 km/h
764 15-01-2010 08:43:01 0.6 C 4.09 g/m*3 0.6 C 0 km/h
765 15-01-2010 08:55:01 0.6 C 4.09 g/m*3 0.6 C 0 km/h
766 15-01-2010 09:07:02 0.6 C 4.04 g/m*3 0.6 C 0 km/h
767 15-01-2010 09:19:02 0.6 C 4.04 g/m*3 0.6 C 0 km/h
768 15-01-2010 09:31:01 0.6 C 4.04 g/m*3 0.6 C 0 km/h
769 15-01-2010 09:43:01 0.7 C 4.07 g/m*3 0.7 C 0 km/h
770 15-01-2010 09:55:02 0.7 C 4.07 g/m*3 0.7 C 0 km/h
771 15-01-2010 10:07:03 0.7 C 4.07 g/m*3 0.7 C 0 km/h
772 15-01-2010 10:19:01 0.9 C 4.12 g/m*3 0.9 C 0 km/h
773 15-01-2010 10:31:02 0.9 C 4.07 g/m*3 0.9 C 0 km/h
774 15-01-2010 10:43:02 0.9 C 4.02 g/m*3 0.9 C 0 km/h
775 15-01-2010 10:55:02 0.9 C 4.02 g/m*3 0.9 C 0 km/h
Sensor: Nr:Datum:Temp:Abs-Feuchte:Windchill:Wind:
Aussen-T/F 776 15-01-2010 11:07:02 0.8 C 3.99 g/m*3 0.8 C 0 km/h
777 15-01-2010 11:19:01 0.7 C 3.92 g/m*3 0.7 C 0 km/h
778 15-01-2010 11:31:01 0.8 C 3.94 g/m*3 0.8 C 0 km/h
779 15-01-2010 11:43:01 0.8 C 3.94 g/m*3 0.8 C 0 km/h
780 15-01-2010 11:55:01 0.9 C 3.97 g/m*3 0.9 C 0 km/h
781 15-01-2010 12:07:01 1 C 3.94 g/m*3 1 C 0 km/h
782 15-01-2010 12:19:01 1.1 C 3.92 g/m*3 1.1 C 0 km/h
783 15-01-2010 12:31:01 1.1 C 3.87 g/m*3 1.1 C 0 km/h
784 15-01-2010 12:43:01 1.1 C 3.87 g/m*3 1.1 C 0 km/h
785 15-01-2010 12:55:02 1.1 C 3.87 g/m*3 1.1 C 0 km/h
786 15-01-2010 13:07:02 1.2 C 3.95 g/m*3 1.2 C 0 km/h
787 15-01-2010 13:19:02 1.3 C 3.92 g/m*3 1.3 C 0 km/h
788 15-01-2010 13:31:01 1.5 C 3.97 g/m*3 1.5 C 0 km/h
789 15-01-2010 13:43:01 1.6 C 3.95 g/m*3 1.6 C 0 km/h
790 15-01-2010 13:55:03 1.8 C 4 g/m*3 1.8 C 0 km/h
791 15-01-2010 14:07:02 2.2 C 4.06 g/m*3 2.2 C 0 km/h
792 15-01-2010 14:19:03 2.3 C 4.03 g/m*3 2.3 C 0 km/h
793 15-01-2010 14:31:02 2.1 C 3.92 g/m*3 2.1 C 0 km/h
794 15-01-2010 14:43:02 2 C 3.89 g/m*3 2 C 0 km/h
795 15-01-2010 14:55:03 2.2 C 3.94 g/m*3 2.2 C 0 km/h
796 15-01-2010 15:07:02 2.2 C 3.94 g/m*3 2.2 C 0 km/h
797 15-01-2010 15:19:02 2.1 C 3.92 g/m*3 2.1 C 0 km/h
798 15-01-2010 15:31:03 1.8 C 3.95 g/m*3 1.8 C 0 km/h
799 15-01-2010 15:43:03 1.8 C 4 g/m*3 1.8 C 0 km/h
800 15-01-2010 15:55:02 1.8 C 4 g/m*3 1.8 C 0 km/h
Sensor: Nr:Datum:Temp:Abs-Feuchte:Windchill:Wind:
Aussen-T/F 801 15-01-2010 16:07:03 1.8 C 4 g/m*3 1.8 C 0 km/h
802 15-01-2010 16:19:02 1.6 C 4 g/m*3 1.6 C 0 km/h
803 15-01-2010 16:31:02 1.4 C 4 g/m*3 1.4 C 0 km/h
804 15-01-2010 16:43:02 1.3 C 4.03 g/m*3 1.3 C 0 km/h
805 15-01-2010 16:55:02 1.2 C 4 g/m*3 1.2 C 0 km/h
806 15-01-2010 17:07:02 1.2 C 4.05 g/m*3 1.2 C 0 km/h
807 15-01-2010 17:19:01 1.1 C 4.08 g/m*3 1.1 C 0 km/h
808 15-01-2010 17:31:02 1 C 4.05 g/m*3 1 C 0 km/h
809 15-01-2010 17:43:02 1 C 4.05 g/m*3 1 C 0 km/h
810 15-01-2010 17:55:02 0.9 C 4.07 g/m*3 0.9 C 0 km/h
811 15-01-2010 18:07:02 0.9 C 4.12 g/m*3 0.9 C 0 km/h
812 15-01-2010 18:19:01 0.8 C 4.1 g/m*3 0.8 C 0 km/h
813 15-01-2010 18:31:02 0.8 C 4.1 g/m*3 0.8 C 0 km/h
814 15-01-2010 18:43:02 0.8 C 4.1 g/m*3 0.8 C 0 km/h
815 15-01-2010 18:55:02 0.7 C 4.07 g/m*3 0.7 C 0 km/h
816 15-01-2010 19:07:02 0.7 C 4.12 g/m*3 0.7 C 0 km/h
817 15-01-2010 19:19:02 0.6 C 4.09 g/m*3 0.6 C 0 km/h
818 15-01-2010 19:31:02 0.6 C 4.14 g/m*3 0.6 C 0 km/h
819 15-01-2010 19:43:02 0.6 C 4.14 g/m*3 0.6 C 0 km/h
820 15-01-2010 19:55:02 0.6 C 4.14 g/m*3 0.6 C 0 km/h
821 15-01-2010 20:07:02 0.7 C 4.17 g/m*3 0.7 C 0 km/h
822 15-01-2010 20:19:02 0.7 C 4.17 g/m*3 0.7 C 0 km/h
823 15-01-2010 20:31:02 0.7 C 4.17 g/m*3 0.7 C 0 km/h
824 15-01-2010 20:43:02 0.7 C 4.17 g/m*3 0.7 C 0 km/h
825 15-01-2010 20:55:02 0.5 C 4.06 g/m*3 0.5 C 0 km/h
Sensor: Nr:Datum:Temp:Abs-Feuchte:Windchill:Wind:
Aussen-T/F 826 15-01-2010 21:07:02 0.5 C 4.11 g/m*3 0.5 C 0 km/h
827 15-01-2010 21:19:02 0.6 C 4.14 g/m*3 0.6 C 0 km/h
828 15-01-2010 21:31:01 0.6 C 4.09 g/m*3 0.6 C 0 km/h
829 15-01-2010 21:43:01 0.6 C 4.09 g/m*3 0.6 C 0 km/h
830 15-01-2010 21:55:02 0.5 C 4.06 g/m*3 0.5 C 0 km/h
831 15-01-2010 22:07:01 0.5 C 4.06 g/m*3 0.5 C 0 km/h
832 15-01-2010 22:20:03 0.5 C 4.06 g/m*3 0.5 C 0 km/h
833 15-01-2010 22:32:03 0.5 C 4.06 g/m*3 0.5 C 0 km/h
834 15-01-2010 22:44:03 0.5 C 4.06 g/m*3 0.5 C 0 km/h
835 15-01-2010 22:56:03 0.5 C 4.06 g/m*3 0.5 C 0 km/h
836 15-01-2010 23:08:03 0.4 C 3.98 g/m*3 0.4 C 0 km/h
837 15-01-2010 23:20:03 0.5 C 4.06 g/m*3 0.5 C 0 km/h
838 15-01-2010 23:32:03 0.5 C 4.06 g/m*3 0.5 C 0 km/h
839 15-01-2010 23:44:03 0.5 C 4.01 g/m*3 0.5 C 0 km/h
840 15-01-2010 23:56:03 0.4 C 3.98 g/m*3 0.4 C 0 km/h
841 16-01-2010 00:08:03 0.4 C 3.93 g/m*3 0.4 C 0 km/h
842 16-01-2010 00:20:03 0.4 C 3.93 g/m*3 0.4 C 0 km/h
843 16-01-2010 00:32:03 0.5 C 3.96 g/m*3 0.5 C 0 km/h
844 16-01-2010 00:44:03 0.4 C 3.93 g/m*3 0.4 C 0 km/h
845 16-01-2010 00:56:03 0.3 C 3.91 g/m*3 0.3 C 0 km/h
846 16-01-2010 01:08:03 0.3 C 3.91 g/m*3 0.3 C 0 km/h
847 16-01-2010 01:20:03 0.2 C 3.88 g/m*3 0.2 C 0 km/h
848 16-01-2010 01:32:04 0.2 C 3.88 g/m*3 0.2 C 0 km/h
849 16-01-2010 01:44:04 0.2 C 3.88 g/m*3 0.2 C 0 km/h
850 16-01-2010 01:56:04 0.2 C 3.88 g/m*3 0.2 C 0 km/h
Sensor: Nr:Datum:Temp:Abs-Feuchte:Windchill:Wind:
Aussen-T/F 851 16-01-2010 02:08:04 0.1 C 3.85 g/m*3 0.1 C 0 km/h
852 16-01-2010 02:20:04 0.1 C 3.85 g/m*3 0.1 C 0 km/h
853 16-01-2010 02:32:04 0.1 C 3.85 g/m*3 0.1 C 0 km/h
854 16-01-2010 02:44:04 0.1 C 3.85 g/m*3 0.1 C 0 km/h
855 16-01-2010 02:56:04 0.1 C 3.85 g/m*3 0.1 C 0 km/h
856 16-01-2010 03:08:04 0.1 C 3.85 g/m*3 0.1 C 0 km/h
857 16-01-2010 03:20:04 0.1 C 3.85 g/m*3 0.1 C 0 km/h
858 16-01-2010 03:32:04 0.2 C 3.88 g/m*3 0.2 C 0 km/h
859 16-01-2010 03:44:04 0.2 C 3.88 g/m*3 0.2 C 0 km/h
860 16-01-2010 03:56:04 0.2 C 3.83 g/m*3 0.2 C 0 km/h
861 16-01-2010 04:08:04 0.2 C 3.83 g/m*3 0.2 C 0 km/h
862 16-01-2010 04:20:04 0.2 C 3.83 g/m*3 0.2 C 0 km/h
863 16-01-2010 04:32:04 0.2 C 3.83 g/m*3 0.2 C 0 km/h
864 16-01-2010 04:44:04 0.2 C 3.83 g/m*3 0.2 C 0 km/h
865 16-01-2010 04:56:04 0.1 C 3.81 g/m*3 0.1 C 0 km/h
866 16-01-2010 05:08:04 0.1 C 3.81 g/m*3 0.1 C 0 km/h
867 16-01-2010 05:20:04 0 C 3.78 g/m*3 0 C 0 km/h
868 16-01-2010 05:32:04 -0.1 C 3.8 g/m*3 -0.1 C 0 km/h
869 16-01-2010 05:44:04 -0.2 C 3.78 g/m*3 -0.2 C 0 km/h
870 16-01-2010 05:56:05 -0.2 C 3.82 g/m*3 -0.2 C 0 km/h
871 16-01-2010 06:08:05 -0.3 C 3.8 g/m*3 -0.3 C 0 km/h
872 16-01-2010 06:20:05 -0.3 C 3.8 g/m*3 -0.3 C 0 km/h
873 16-01-2010 06:32:05 -0.4 C 3.77 g/m*3 -0.4 C 0 km/h
874 16-01-2010 06:44:05 -0.4 C 3.82 g/m*3 -0.4 C 0 km/h
875 16-01-2010 06:56:05 -0.4 C 3.82 g/m*3 -0.4 C 0 km/h
Sensor: Nr:Datum:Temp:Abs-Feuchte:Windchill:Wind:
Aussen-T/F 876 16-01-2010 07:08:05 -0.4 C 3.82 g/m*3 -0.4 C 0 km/h
877 16-01-2010 07:20:05 -0.5 C 3.79 g/m*3 -0.5 C 0 km/h
878 16-01-2010 07:32:05 -0.6 C 3.72 g/m*3 -0.6 C 0 km/h
879 16-01-2010 07:44:05 -0.7 C 3.69 g/m*3 -0.7 C 0 km/h
880 16-01-2010 07:56:05 -0.7 C 3.74 g/m*3 -0.7 C 0 km/h
881 16-01-2010 08:08:05 -0.7 C 3.69 g/m*3 -0.7 C 0 km/h
882 16-01-2010 08:20:03 -0.7 C 3.69 g/m*3 -0.7 C 0 km/h
883 16-01-2010 08:32:02 -0.7 C 3.69 g/m*3 -0.7 C 0 km/h
884 16-01-2010 08:44:02 -0.6 C 3.72 g/m*3 -0.6 C 0 km/h
885 16-01-2010 08:56:01 -0.5 C 3.74 g/m*3 -0.5 C 0 km/h
886 16-01-2010 09:08:02 -0.5 C 3.74 g/m*3 -0.5 C 0 km/h
887 16-01-2010 09:20:02 -0.4 C 3.77 g/m*3 -0.4 C 0 km/h
888 16-01-2010 09:32:01 -0.4 C 3.77 g/m*3 -0.4 C 0 km/h
889 16-01-2010 09:44:01 -0.4 C 3.72 g/m*3 -0.4 C 0 km/h
890 16-01-2010 09:56:02 -0.3 C 3.75 g/m*3 -0.3 C 0 km/h
891 16-01-2010 10:08:01 -0.5 C 3.6 g/m*3 -0.5 C 0 km/h
892 16-01-2010 10:20:01 -0.5 C 3.6 g/m*3 -0.5 C 0 km/h
893 16-01-2010 10:32:02 -0.3 C 3.65 g/m*3 -0.3 C 0 km/h
894 16-01-2010 10:44:02 -0.7 C 3.51 g/m*3 -0.7 C 0 km/h
895 16-01-2010 10:56:02 -0.5 C 3.56 g/m*3 -0.5 C 0 km/h
896 16-01-2010 11:08:01 -0.5 C 3.51 g/m*3 -0.5 C 0 km/h
897 16-01-2010 11:20:02 -0.3 C 3.56 g/m*3 -0.3 C 0 km/h
898 16-01-2010 11:32:02 -0.2 C 3.58 g/m*3 -0.2 C 0 km/h
899 16-01-2010 11:44:02 -0.1 C 3.56 g/m*3 -0.1 C 0 km/h
900 16-01-2010 11:56:01 -0.2 C 3.49 g/m*3 -0.2 C 0 km/h
Sensor: Nr:Datum:Temp:Abs-Feuchte:Windchill:Wind:
Aussen-T/F 901 16-01-2010 12:08:02 -0.2 C 3.49 g/m*3 -0.2 C 0 km/h
902 16-01-2010 12:20:01 -0.1 C 3.51 g/m*3 -0.1 C 0 km/h
903 16-01-2010 12:32:01 -0.3 C 3.46 g/m*3 -0.3 C 0 km/h
904 16-01-2010 12:44:02 -0.2 C 3.49 g/m*3 -0.2 C 0 km/h
905 16-01-2010 12:56:02 0 C 3.54 g/m*3 0 C 0 km/h
906 16-01-2010 13:08:02 -0.1 C 3.51 g/m*3 -0.1 C 0 km/h
907 16-01-2010 13:20:01 0.1 C 3.56 g/m*3 0.1 C 0 km/h
908 16-01-2010 13:32:02 0 C 3.54 g/m*3 0 C 0 km/h
909 16-01-2010 13:44:02 -0.2 C 3.44 g/m*3 -0.2 C 0 km/h
910 16-01-2010 13:56:01 -0.5 C 3.42 g/m*3 -0.5 C 0 km/h
911 16-01-2010 14:08:02 -0.4 C 3.49 g/m*3 -0.4 C 0 km/h
912 16-01-2010 14:20:01 -0.5 C 3.46 g/m*3 -0.5 C 0 km/h
913 16-01-2010 14:32:02 -0.4 C 3.53 g/m*3 -0.4 C 0 km/h
914 16-01-2010 14:44:02 -0.3 C 3.56 g/m*3 -0.3 C 0 km/h
915 16-01-2010 14:56:01 -0.2 C 3.58 g/m*3 -0.2 C 0 km/h
916 16-01-2010 15:08:02 -0.2 C 3.58 g/m*3 -0.2 C 0 km/h
917 16-01-2010 15:20:02 -0.2 C 3.58 g/m*3 -0.2 C 0 km/h
918 16-01-2010 15:32:01 -0.2 C 3.58 g/m*3 -0.2 C 0 km/h
919 16-01-2010 15:44:01 0 C 3.63 g/m*3 0 C 0 km/h
920 16-01-2010 15:56:01 0 C 3.63 g/m*3 0 C 0 km/h
921 16-01-2010 16:08:02 -0.2 C 3.63 g/m*3 -0.2 C 0 km/h
922 16-01-2010 16:20:02 -0.2 C 3.63 g/m*3 -0.2 C 0 km/h
923 16-01-2010 16:32:01 -0.2 C 3.63 g/m*3 -0.2 C 0 km/h
924 16-01-2010 16:44:01 -0.2 C 3.68 g/m*3 -0.2 C 0 km/h
925 16-01-2010 16:56:02 -0.2 C 3.68 g/m*3 -0.2 C 0 km/h
Sensor: Nr:Datum:Temp:Abs-Feuchte:Windchill:Wind:
Aussen-T/F 926 16-01-2010 17:08:01 -0.2 C 3.68 g/m*3 -0.2 C 0 km/h
927 16-01-2010 17:20:02 -0.1 C 3.71 g/m*3 -0.1 C 0 km/h
928 16-01-2010 17:32:01 -0.1 C 3.71 g/m*3 -0.1 C 0 km/h
929 16-01-2010 17:44:01 -0.1 C 3.71 g/m*3 -0.1 C 0 km/h
930 16-01-2010 17:56:02 0 C 3.73 g/m*3 0 C 0 km/h
931 16-01-2010 18:08:01 0 C 3.73 g/m*3 0 C 0 km/h
932 16-01-2010 18:20:02 0 C 3.73 g/m*3 0 C 0 km/h
933 16-01-2010 18:32:01 0 C 3.73 g/m*3 0 C 0 km/h
934 16-01-2010 18:44:01 0.1 C 3.71 g/m*3 0.1 C 0 km/h
935 16-01-2010 18:56:02 0.1 C 3.76 g/m*3 0.1 C 0 km/h
936 16-01-2010 19:08:02 0.2 C 3.73 g/m*3 0.2 C 0 km/h
937 16-01-2010 19:20:02 0.2 C 3.73 g/m*3 0.2 C 0 km/h
938 16-01-2010 19:32:02 0.2 C 3.73 g/m*3 0.2 C 0 km/h
939 16-01-2010 19:44:02 0.2 C 3.73 g/m*3 0.2 C 0 km/h
940 16-01-2010 19:56:02 0.2 C 3.78 g/m*3 0.2 C 0 km/h
941 16-01-2010 20:08:01 0.2 C 3.78 g/m*3 0.2 C 0 km/h
942 16-01-2010 20:20:02 0.1 C 3.71 g/m*3 0.1 C 0 km/h
943 16-01-2010 20:32:02 0.1 C 3.71 g/m*3 0.1 C 0 km/h
944 16-01-2010 20:44:02 0.1 C 3.71 g/m*3 0.1 C 0 km/h
945 16-01-2010 20:56:02 0.1 C 3.76 g/m*3 0.1 C 0 km/h
946 16-01-2010 21:08:03 0.1 C 3.71 g/m*3 0.1 C 0 km/h
947 16-01-2010 21:20:02 0 C 3.78 g/m*3 0 C 0 km/h
948 16-01-2010 21:32:02 -0.1 C 3.85 g/m*3 -0.1 C 0 km/h
949 16-01-2010 21:44:02 -0.3 C 3.94 g/m*3 -0.3 C 0 km/h
950 16-01-2010 21:56:01 -0.3 C 3.99 g/m*3 -0.3 C 0 km/h
Sensor: Nr:Datum:Temp:Abs-Feuchte:Windchill:Wind:
Aussen-T/F 951 16-01-2010 22:08:02 -0.3 C 3.99 g/m*3 -0.3 C 0 km/h
952 16-01-2010 22:20:01 -0.2 C 4.01 g/m*3 -0.2 C 0 km/h
953 16-01-2010 22:32:33 -0.2 C 4.01 g/m*3 -0.2 C 0 km/h
954 16-01-2010 22:44:33 -0.1 C 4.04 g/m*3 -0.1 C 0 km/h
955 16-01-2010 22:56:33 -0.1 C 4.09 g/m*3 -0.1 C 0 km/h
956 16-01-2010 23:08:34 -0.1 C 4.09 g/m*3 -0.1 C 0 km/h
957 16-01-2010 23:20:34 -0.1 C 4.09 g/m*3 -0.1 C 0 km/h
958 16-01-2010 23:32:34 -0.1 C 4.09 g/m*3 -0.1 C 0 km/h
959 16-01-2010 23:44:34 0 C 4.12 g/m*3 0 C 0 km/h
960 16-01-2010 23:56:34 0 C 4.17 g/m*3 0 C 0 km/h
961 17-01-2010 00:08:34 0 C 4.17 g/m*3 0 C 0 km/h
962 17-01-2010 00:20:34 0 C 4.17 g/m*3 0 C 0 km/h
963 17-01-2010 00:32:34 0.2 C 4.27 g/m*3 0.2 C 0 km/h
964 17-01-2010 00:44:34 0.2 C 4.32 g/m*3 0.2 C 0 km/h
965 17-01-2010 00:56:34 0.2 C 4.32 g/m*3 0.2 C 0 km/h
966 17-01-2010 01:08:34 0.3 C 4.4 g/m*3 0.3 C 0 km/h
967 17-01-2010 01:20:34 0.3 C 4.4 g/m*3 0.3 C 0 km/h
968 17-01-2010 01:32:34 0.3 C 4.45 g/m*3 0.3 C 0 km/h
969 17-01-2010 01:44:34 0.4 C 4.48 g/m*3 0.4 C 0 km/h
970 17-01-2010 01:56:34 0.4 C 4.53 g/m*3 0.4 C 0 km/h
971 17-01-2010 02:08:34 0.4 C 4.53 g/m*3 0.4 C 0 km/h
972 17-01-2010 02:20:34 0.5 C 4.56 g/m*3 0.5 C 0 km/h
973 17-01-2010 02:32:34 0.5 C 4.56 g/m*3 0.5 C 0 km/h
974 17-01-2010 02:44:34 0.6 C 4.65 g/m*3 0.6 C 0 km/h
975 17-01-2010 02:56:34 0.6 C 4.65 g/m*3 0.6 C 0 km/h
Sensor: Nr:Datum:Temp:Abs-Feuchte:Windchill:Wind:
Aussen-T/F 976 17-01-2010 03:08:34 0.6 C 4.65 g/m*3 0.6 C 0 km/h
977 17-01-2010 03:20:35 0.5 C 4.61 g/m*3 0.5 C 0 km/h
978 17-01-2010 03:32:35 0.6 C 4.7 g/m*3 0.6 C 0 km/h
979 17-01-2010 03:44:35 0.7 C 4.73 g/m*3 0.7 C 0 km/h
980 17-01-2010 03:56:35 0.7 C 4.73 g/m*3 0.7 C 0 km/h
981 17-01-2010 04:08:35 0.9 C 4.79 g/m*3 0.9 C 0 km/h
982 17-01-2010 04:20:35 0.9 C 4.85 g/m*3 0.9 C 0 km/h
983 17-01-2010 04:32:35 0.9 C 4.85 g/m*3 0.9 C 0 km/h
984 17-01-2010 04:44:35 1 C 4.83 g/m*3 1 C 0 km/h
985 17-01-2010 04:56:35 1.1 C 4.91 g/m*3 1.1 C 0 km/h
986 17-01-2010 05:08:35 1.2 C 4.95 g/m*3 1.2 C 0 km/h
987 17-01-2010 05:20:35 1.2 C 4.95 g/m*3 1.2 C 0 km/h
988 17-01-2010 05:32:35 1.1 C 4.91 g/m*3 1.1 C 0 km/h
989 17-01-2010 05:44:35 1.1 C 4.91 g/m*3 1.1 C 0 km/h
990 17-01-2010 05:56:35 1.1 C 4.91 g/m*3 1.1 C 0 km/h
991 17-01-2010 06:08:35 1.1 C 4.91 g/m*3 1.1 C 0 km/h
992 17-01-2010 06:20:35 1.1 C 4.91 g/m*3 1.1 C 0 km/h
993 17-01-2010 06:32:35 1.1 C 4.91 g/m*3 1.1 C 0 km/h
994 17-01-2010 06:44:35 1 C 4.93 g/m*3 1 C 0 km/h
995 17-01-2010 06:56:35 1.1 C 4.96 g/m*3 1.1 C 0 km/h
996 17-01-2010 07:08:35 1.1 C 4.96 g/m*3 1.1 C 0 km/h
997 17-01-2010 07:20:35 1.2 C 5 g/m*3 1.2 C 0 km/h
998 17-01-2010 07:32:36 1.2 C 5 g/m*3 1.2 C 0 km/h
999 17-01-2010 07:44:36 1.2 C 5 g/m*3 1.2 C 0 km/h
1000 17-01-2010 07:56:01 1.2 C 5 g/m*3 1.2 C 0 km/h
Sensor: Nr:Datum:Temp:Abs-Feuchte:Windchill:Wind:
Aussen-T/F 1001 17-01-2010 08:08:01 1.3 C 5.03 g/m*3 1.3 C 0 km/h
1002 17-01-2010 08:20:01 1.2 C 5 g/m*3 1.2 C 0 km/h
1003 17-01-2010 08:32:02 1.2 C 5 g/m*3 1.2 C 0 km/h
1004 17-01-2010 08:44:02 1.4 C 5.07 g/m*3 1.4 C 0 km/h
1005 17-01-2010 08:56:01 1.4 C 5.07 g/m*3 1.4 C 0 km/h
1006 17-01-2010 09:08:02 1.4 C 5.07 g/m*3 1.4 C 0 km/h
1007 17-01-2010 09:20:01 1.4 C 5.07 g/m*3 1.4 C 0 km/h
1008 17-01-2010 09:32:01 1.5 C 5.1 g/m*3 1.5 C 0 km/h
1009 17-01-2010 09:44:02 1.5 C 5.1 g/m*3 1.5 C 0 km/h
1010 17-01-2010 09:56:01 1.6 C 5.14 g/m*3 1.6 C 0 km/h
1011 17-01-2010 10:08:01 1.7 C 5.17 g/m*3 1.7 C 0 km/h
1012 17-01-2010 10:20:01 1.8 C 5.21 g/m*3 1.8 C 0 km/h
1013 17-01-2010 10:32:02 2 C 5.28 g/m*3 2 C 0 km/h
1014 17-01-2010 10:44:02 2.1 C 5.31 g/m*3 2.1 C 0 km/h
1015 17-01-2010 10:56:01 2.1 C 5.31 g/m*3 2.1 C 0 km/h
1016 17-01-2010 11:08:02 2 C 5.28 g/m*3 2 C 0 km/h
1017 17-01-2010 11:20:01 2.1 C 5.31 g/m*3 2.1 C 0 km/h
1018 17-01-2010 11:32:01 2.3 C 5.39 g/m*3 2.3 C 0 km/h
1019 17-01-2010 11:44:02 2.4 C 5.42 g/m*3 2.4 C 0 km/h
1020 17-01-2010 11:56:01 2.4 C 5.42 g/m*3 2.4 C 0 km/h
1021 17-01-2010 12:08:02 2.5 C 5.46 g/m*3 2.5 C 0 km/h
1022 17-01-2010 12:20:01 3.2 C 5.72 g/m*3 3.2 C 0 km/h
1023 17-01-2010 12:32:01 3.5 C 5.84 g/m*3 3.5 C 0 km/h
1024 17-01-2010 12:44:01 3.5 C 5.84 g/m*3 3.5 C 0 km/h
1025 17-01-2010 12:56:01 3.6 C 5.88 g/m*3 3.6 C 0 km/h
Sensor: Nr:Datum:Temp:Abs-Feuchte:Windchill:Wind:
Aussen-T/F 1026 17-01-2010 13:08:01 3.5 C 5.84 g/m*3 3.5 C 0 km/h
1027 17-01-2010 13:20:01 3.3 C 5.76 g/m*3 3.3 C 0 km/h
1028 17-01-2010 13:32:01 3.2 C 5.72 g/m*3 3.2 C 0 km/h
1029 17-01-2010 13:44:01 3.3 C 5.76 g/m*3 3.3 C 0 km/h
1030 17-01-2010 13:56:01 3.3 C 5.76 g/m*3 3.3 C 0 km/h
1031 17-01-2010 14:08:01 3.3 C 5.76 g/m*3 3.3 C 0 km/h
1032 17-01-2010 14:20:02 3.6 C 5.88 g/m*3 3.6 C 0 km/h
1033 17-01-2010 14:32:01 4.2 C 6.12 g/m*3 4.2 C 0 km/h
1034 17-01-2010 14:44:01 4.2 C 6.12 g/m*3 4.2 C 0 km/h
1035 17-01-2010 14:56:01 4.2 C 6.12 g/m*3 4.2 C 0 km/h
1036 17-01-2010 15:08:01 4.3 C 6.16 g/m*3 4.3 C 0 km/h
1037 17-01-2010 15:20:02 4.3 C 6.1 g/m*3 4.3 C 0 km/h
1038 17-01-2010 15:32:01 4.8 C 6.04 g/m*3 4.8 C 0 km/h
1039 17-01-2010 15:44:01 4.8 C 5.7 g/m*3 4.8 C 0 km/h
1040 17-01-2010 15:56:02 4.7 C 5.46 g/m*3 4.7 C 0 km/h
1041 17-01-2010 16:08:01 4.3 C 5.32 g/m*3 4.3 C 0 km/h
1042 17-01-2010 16:20:02 4.2 C 5.35 g/m*3 4.2 C 0 km/h
1043 17-01-2010 16:32:01 4 C 5.28 g/m*3 4 C 0 km/h
1044 17-01-2010 16:44:01 3.4 C 5.13 g/m*3 3.4 C 0 km/h
1045 17-01-2010 16:56:02 3 C 5.05 g/m*3 3 C 0 km/h
1046 17-01-2010 17:08:01 2.8 C 5.1 g/m*3 2.8 C 0 km/h
1047 17-01-2010 17:20:01 2.8 C 5.22 g/m*3 2.8 C 0 km/h
1048 17-01-2010 17:32:02 3 C 5.23 g/m*3 3 C 0 km/h
1049 17-01-2010 17:44:02 3.1 C 5.27 g/m*3 3.1 C 0 km/h
1050 17-01-2010 17:56:02 3.1 C 5.21 g/m*3 3.1 C 0 km/h
Sensor: Nr:Datum:Temp:Abs-Feuchte:Windchill:Wind:
Aussen-T/F 1051 17-01-2010 18:08:01 2.9 C 5.14 g/m*3 2.9 C 0 km/h
1052 17-01-2010 18:20:01 2.7 C 5.07 g/m*3 2.7 C 0 km/h
1053 17-01-2010 18:32:02 2.9 C 5.14 g/m*3 2.9 C 0 km/h
1054 17-01-2010 18:44:02 3 C 5.05 g/m*3 3 C 0 km/h
1055 17-01-2010 18:56:01 2.8 C 4.99 g/m*3 2.8 C 0 km/h
1056 17-01-2010 19:08:02 2.6 C 4.98 g/m*3 2.6 C 0 km/h
1057 17-01-2010 19:20:01 2.7 C 5.07 g/m*3 2.7 C 0 km/h
1058 17-01-2010 19:32:02 2.6 C 4.98 g/m*3 2.6 C 0 km/h
1059 17-01-2010 19:44:02 2.6 C 5.03 g/m*3 2.6 C 0 km/h
1060 17-01-2010 19:56:01 2.5 C 5 g/m*3 2.5 C 0 km/h
1061 17-01-2010 20:08:02 2.4 C 5.02 g/m*3 2.4 C 0 km/h
1062 17-01-2010 20:20:02 2.2 C 4.96 g/m*3 2.2 C 0 km/h
1063 17-01-2010 20:32:01 2.1 C 4.92 g/m*3 2.1 C 0 km/h
1064 17-01-2010 20:44:01 2.1 C 4.98 g/m*3 2.1 C 0 km/h
1065 17-01-2010 20:56:01 2.1 C 4.98 g/m*3 2.1 C 0 km/h
1066 17-01-2010 21:08:02 2.2 C 5.07 g/m*3 2.2 C 0 km/h
1067 17-01-2010 21:20:01 2.2 C 5.01 g/m*3 2.2 C 0 km/h
1068 17-01-2010 21:32:01 2.3 C 5.05 g/m*3 2.3 C 0 km/h
1069 17-01-2010 21:44:02 2.2 C 5.01 g/m*3 2.2 C 0 km/h
1070 17-01-2010 21:56:01 2.2 C 5.01 g/m*3 2.2 C 0 km/h
1071 17-01-2010 22:09:05 2.2 C 5.01 g/m*3 2.2 C 0 km/h
1072 17-01-2010 22:21:05 2.4 C 5.08 g/m*3 2.4 C 0 km/h
1073 17-01-2010 22:33:05 2.5 C 5.12 g/m*3 2.5 C 0 km/h
1074 17-01-2010 22:45:05 2.8 C 5.22 g/m*3 2.8 C 0 km/h
1075 17-01-2010 22:57:06 3.1 C 5.21 g/m*3 3.1 C 0 km/h
Sensor: Nr:Datum:Temp:Abs-Feuchte:Windchill:Wind:
Aussen-T/F 1076 17-01-2010 23:09:06 3.2 C 5.24 g/m*3 3.2 C 0 km/h
1077 17-01-2010 23:21:06 3.2 C 5.12 g/m*3 3.2 C 0 km/h
1078 17-01-2010 23:33:06 3.2 C 5.12 g/m*3 3.2 C 0 km/h
1079 17-01-2010 23:45:06 3.1 C 5.09 g/m*3 3.1 C 0 km/h
1080 17-01-2010 23:57:06 3 C 5.05 g/m*3 3 C 0 km/h
1081 18-01-2010 00:09:06 3.1 C 5.15 g/m*3 3.1 C 0 km/h
1082 18-01-2010 00:21:06 3.1 C 5.15 g/m*3 3.1 C 0 km/h
1083 18-01-2010 00:33:06 3.1 C 5.09 g/m*3 3.1 C 0 km/h
1084 18-01-2010 00:45:06 3 C 5.11 g/m*3 3 C 0 km/h
1085 18-01-2010 00:57:06 2.9 C 5.2 g/m*3 2.9 C 0 km/h
1086 18-01-2010 01:09:06 2.7 C 5.19 g/m*3 2.7 C 0 km/h
1087 18-01-2010 01:21:06 2.7 C 5.24 g/m*3 2.7 C 0 km/h
1088 18-01-2010 01:33:06 2.7 C 5.3 g/m*3 2.7 C 0 km/h
1089 18-01-2010 01:45:06 2.7 C 5.36 g/m*3 2.7 C 0 km/h
1090 18-01-2010 01:57:06 2.7 C 5.36 g/m*3 2.7 C 0 km/h
1091 18-01-2010 02:09:06 2.7 C 5.36 g/m*3 2.7 C 0 km/h
1092 18-01-2010 02:21:06 2.6 C 5.32 g/m*3 2.6 C 0 km/h
1093 18-01-2010 02:33:06 2.6 C 5.32 g/m*3 2.6 C 0 km/h
1094 18-01-2010 02:45:06 2.5 C 5.35 g/m*3 2.5 C 0 km/h
1095 18-01-2010 02:57:06 2.4 C 5.31 g/m*3 2.4 C 0 km/h
1096 18-01-2010 03:09:07 2.4 C 5.31 g/m*3 2.4 C 0 km/h
1097 18-01-2010 03:21:07 2.5 C 5.35 g/m*3 2.5 C 0 km/h
1098 18-01-2010 03:33:07 2.6 C 5.38 g/m*3 2.6 C 0 km/h
1099 18-01-2010 03:45:07 2.6 C 5.38 g/m*3 2.6 C 0 km/h
1100 18-01-2010 03:57:07 2.8 C 5.46 g/m*3 2.8 C 0 km/h
Sensor: Nr:Datum:Temp:Abs-Feuchte:Windchill:Wind:
Aussen-T/F 1101 18-01-2010 04:09:07 2.8 C 5.46 g/m*3 2.8 C 0 km/h
1102 18-01-2010 04:21:07 2.8 C 5.46 g/m*3 2.8 C 0 km/h
1103 18-01-2010 04:33:07 2.8 C 5.4 g/m*3 2.8 C 0 km/h
1104 18-01-2010 04:45:07 2.9 C 5.43 g/m*3 2.9 C 0 km/h
1105 18-01-2010 04:57:07 2.8 C 5.34 g/m*3 2.8 C 0 km/h
1106 18-01-2010 05:09:07 3 C 5.35 g/m*3 3 C 0 km/h
1107 18-01-2010 05:21:07 3 C 5.29 g/m*3 3 C 0 km/h
1108 18-01-2010 05:33:07 3.1 C 5.33 g/m*3 3.1 C 0 km/h
1109 18-01-2010 05:45:07 3.1 C 5.27 g/m*3 3.1 C 0 km/h
1110 18-01-2010 05:57:07 3.1 C 5.21 g/m*3 3.1 C 0 km/h
1111 18-01-2010 06:09:07 3.2 C 5.24 g/m*3 3.2 C 0 km/h
1112 18-01-2010 06:21:07 3.1 C 5.21 g/m*3 3.1 C 0 km/h
1113 18-01-2010 06:33:07 3.2 C 5.24 g/m*3 3.2 C 0 km/h
1114 18-01-2010 06:45:07 3.1 C 5.21 g/m*3 3.1 C 0 km/h
1115 18-01-2010 06:57:07 3 C 5.17 g/m*3 3 C 0 km/h
1116 18-01-2010 07:09:07 3 C 5.17 g/m*3 3 C 0 km/h
1117 18-01-2010 07:21:05 2.8 C 5.16 g/m*3 2.8 C 0 km/h
1118 18-01-2010 07:33:05 3 C 5.23 g/m*3 3 C 0 km/h
1119 18-01-2010 07:45:02 3 C 5.23 g/m*3 3 C 0 km/h
1120 18-01-2010 07:57:02 3 C 5.23 g/m*3 3 C 0 km/h
1121 18-01-2010 08:09:02 3.1 C 5.27 g/m*3 3.1 C 0 km/h
1122 18-01-2010 08:21:02 3 C 5.17 g/m*3 3 C 0 km/h
1123 18-01-2010 08:33:02 3 C 5.17 g/m*3 3 C 0 km/h
1124 18-01-2010 08:45:02 3.1 C 5.21 g/m*3 3.1 C 0 km/h
1125 18-01-2010 08:57:02 3.2 C 5.24 g/m*3 3.2 C 0 km/h
Sensor: Nr:Datum:Temp:Abs-Feuchte:Windchill:Wind:
Aussen-T/F 1126 18-01-2010 09:09:02 3.2 C 5.18 g/m*3 3.2 C 0 km/h
1127 18-01-2010 09:21:01 3.2 C 5.18 g/m*3 3.2 C 0 km/h
1128 18-01-2010 09:33:02 3.4 C 5.25 g/m*3 3.4 C 0 km/h
1129 18-01-2010 09:45:02 3.5 C 5.29 g/m*3 3.5 C 0 km/h
1130 18-01-2010 09:57:02 3.7 C 5.3 g/m*3 3.7 C 0 km/h
1131 18-01-2010 10:09:02 4 C 5.34 g/m*3 4 C 0 km/h
1132 18-01-2010 10:21:02 4.1 C 5.31 g/m*3 4.1 C 0 km/h
1133 18-01-2010 10:33:02 4.2 C 5.28 g/m*3 4.2 C 0 km/h
1134 18-01-2010 10:45:02 4.2 C 5.22 g/m*3 4.2 C 0 km/h
1135 18-01-2010 10:57:02 4.1 C 5.18 g/m*3 4.1 C 0 km/h
1136 18-01-2010 11:09:02 4 C 5.15 g/m*3 4 C 0 km/h
1137 18-01-2010 11:21:02 3.9 C 5.24 g/m*3 3.9 C 0 km/h
1138 18-01-2010 11:33:02 3.9 C 5.24 g/m*3 3.9 C 0 km/h
1139 18-01-2010 11:45:01 4 C 5.21 g/m*3 4 C 0 km/h
1140 18-01-2010 11:57:01 4 C 5.21 g/m*3 4 C 0 km/h
1141 18-01-2010 12:09:01 4.3 C 5.25 g/m*3 4.3 C 0 km/h
1142 18-01-2010 12:21:02 4.4 C 5.16 g/m*3 4.4 C 0 km/h
1143 18-01-2010 12:33:01 4.6 C 5.23 g/m*3 4.6 C 0 km/h
1144 18-01-2010 12:45:02 4.6 C 5.16 g/m*3 4.6 C 0 km/h
1145 18-01-2010 12:57:02 4.6 C 5.16 g/m*3 4.6 C 0 km/h
1146 18-01-2010 13:09:01 4.5 C 5.06 g/m*3 4.5 C 0 km/h
1147 18-01-2010 13:21:02 4.6 C 5.1 g/m*3 4.6 C 0 km/h
1148 18-01-2010 13:33:01 4.6 C 4.96 g/m*3 4.6 C 0 km/h
1149 18-01-2010 13:45:02 4.9 C 5 g/m*3 4.9 C 0 km/h
1150 18-01-2010 13:57:02 5.2 C 4.96 g/m*3 5.2 C 0 km/h
Sensor: Nr:Datum:Temp:Abs-Feuchte:Windchill:Wind:
Aussen-T/F 1151 18-01-2010 14:09:02 5 C 4.82 g/m*3 5 C 0 km/h
1152 18-01-2010 14:21:02 5 C 4.82 g/m*3 5 C 0 km/h
1153 18-01-2010 14:33:02 5 C 4.76 g/m*3 5 C 0 km/h
1154 18-01-2010 14:45:02 4.7 C 4.8 g/m*3 4.7 C 0 km/h
1155 18-01-2010 14:57:02 4.6 C 4.76 g/m*3 4.6 C 0 km/h
1156 18-01-2010 15:09:01 4.5 C 4.8 g/m*3 4.5 C 0 km/h
1157 18-01-2010 15:21:02 4.6 C 4.83 g/m*3 4.6 C 0 km/h
1158 18-01-2010 15:33:02 4.8 C 4.83 g/m*3 4.8 C 0 km/h
1159 18-01-2010 15:45:02 4.7 C 4.8 g/m*3 4.7 C 0 km/h
1160 18-01-2010 15:57:03 4.6 C 4.83 g/m*3 4.6 C 0 km/h
1161 18-01-2010 16:09:01 4.3 C 4.8 g/m*3 4.3 C 0 km/h
1162 18-01-2010 16:21:01 4.2 C 4.77 g/m*3 4.2 C 0 km/h
1163 18-01-2010 16:33:02 4.1 C 4.8 g/m*3 4.1 C 0 km/h
1164 18-01-2010 16:45:02 4 C 4.77 g/m*3 4 C 0 km/h
1165 18-01-2010 16:57:02 3.7 C 4.74 g/m*3 3.7 C 0 km/h
1166 18-01-2010 17:09:02 3.5 C 4.73 g/m*3 3.5 C 0 km/h
1167 18-01-2010 17:21:02 3.5 C 4.8 g/m*3 3.5 C 0 km/h
1168 18-01-2010 17:33:02 3.4 C 4.76 g/m*3 3.4 C 0 km/h
1169 18-01-2010 17:45:02 3.4 C 4.76 g/m*3 3.4 C 0 km/h
1170 18-01-2010 17:57:02 3.4 C 4.83 g/m*3 3.4 C 0 km/h
1171 18-01-2010 18:09:03 3.3 C 4.79 g/m*3 3.3 C 0 km/h
1172 18-01-2010 18:21:02 3.3 C 4.85 g/m*3 3.3 C 0 km/h
1173 18-01-2010 18:33:02 3.3 C 4.85 g/m*3 3.3 C 0 km/h
1174 18-01-2010 18:45:01 3.1 C 4.79 g/m*3 3.1 C 0 km/h
1175 18-01-2010 18:57:01 3.1 C 4.85 g/m*3 3.1 C 0 km/h
Sensor: Nr:Datum:Temp:Abs-Feuchte:Windchill:Wind:
Aussen-T/F 1176 18-01-2010 19:09:02 3 C 4.82 g/m*3 3 C 0 km/h
1177 18-01-2010 19:21:01 3.1 C 4.85 g/m*3 3.1 C 0 km/h
1178 18-01-2010 19:33:02 3 C 4.82 g/m*3 3 C 0 km/h
1179 18-01-2010 19:45:01 3 C 4.82 g/m*3 3 C 0 km/h
1180 18-01-2010 19:57:01 3 C 4.82 g/m*3 3 C 0 km/h
1181 18-01-2010 20:09:02 2.9 C 4.84 g/m*3 2.9 C 0 km/h
1182 18-01-2010 20:21:01 2.8 C 4.87 g/m*3 2.8 C 0 km/h
1183 18-01-2010 20:33:02 2.9 C 4.9 g/m*3 2.9 C 0 km/h
1184 18-01-2010 20:45:01 3 C 4.88 g/m*3 3 C 0 km/h
1185 18-01-2010 20:57:01 3 C 4.82 g/m*3 3 C 0 km/h
1186 18-01-2010 21:09:02 3 C 4.82 g/m*3 3 C 0 km/h
1187 18-01-2010 21:21:01 2.9 C 4.84 g/m*3 2.9 C 0 km/h
1188 18-01-2010 21:33:02 2.9 C 4.84 g/m*3 2.9 C 0 km/h
1189 18-01-2010 21:46:02 2.9 C 4.84 g/m*3 2.9 C 0 km/h
1190 18-01-2010 21:58:02 2.8 C 4.81 g/m*3 2.8 C 0 km/h
1191 18-01-2010 22:10:02 2.7 C 4.84 g/m*3 2.7 C 0 km/h
1192 18-01-2010 22:22:02 2.7 C 4.84 g/m*3 2.7 C 0 km/h
1193 18-01-2010 22:34:02 2.6 C 4.8 g/m*3 2.6 C 0 km/h
1194 18-01-2010 22:46:02 2.7 C 4.84 g/m*3 2.7 C 0 km/h
1195 18-01-2010 22:58:02 2.7 C 4.84 g/m*3 2.7 C 0 km/h
1196 18-01-2010 23:10:02 2.8 C 4.81 g/m*3 2.8 C 0 km/h
1197 18-01-2010 23:22:02 2.8 C 4.81 g/m*3 2.8 C 0 km/h
1198 18-01-2010 23:34:03 2.8 C 4.81 g/m*3 2.8 C 0 km/h
1199 18-01-2010 23:46:03 2.8 C 4.75 g/m*3 2.8 C 0 km/h
1200 18-01-2010 23:58:03 2.8 C 4.75 g/m*3 2.8 C 0 km/h
Sensor: Nr:Datum:Temp:Abs-Feuchte:Windchill:Wind:
Aussen-T/F 1201 19-01-2010 00:10:03 2.7 C 4.72 g/m*3 2.7 C 0 km/h
1202 19-01-2010 00:22:03 2.7 C 4.78 g/m*3 2.7 C 0 km/h
1203 19-01-2010 00:34:03 2.5 C 4.77 g/m*3 2.5 C 0 km/h
1204 19-01-2010 00:46:03 2.4 C 4.85 g/m*3 2.4 C 0 km/h
1205 19-01-2010 00:58:03 2.3 C 4.88 g/m*3 2.3 C 0 km/h
1206 19-01-2010 01:10:03 2.2 C 4.96 g/m*3 2.2 C 0 km/h
1207 19-01-2010 01:22:03 2.2 C 5.01 g/m*3 2.2 C 0 km/h
1208 19-01-2010 01:34:03 2.2 C 5.07 g/m*3 2.2 C 0 km/h
1209 19-01-2010 01:46:03 2.2 C 5.07 g/m*3 2.2 C 0 km/h
1210 19-01-2010 01:58:03 2.2 C 5.07 g/m*3 2.2 C 0 km/h
1211 19-01-2010 02:10:03 2.2 C 5.07 g/m*3 2.2 C 0 km/h
1212 19-01-2010 02:22:03 2.2 C 5.07 g/m*3 2.2 C 0 km/h
1213 19-01-2010 02:34:03 2.1 C 4.98 g/m*3 2.1 C 0 km/h
1214 19-01-2010 02:46:03 1.7 C 4.85 g/m*3 1.7 C 0 km/h
1215 19-01-2010 02:58:03 1.5 C 4.83 g/m*3 1.5 C 0 km/h
1216 19-01-2010 03:10:03 1.6 C 4.87 g/m*3 1.6 C 0 km/h
1217 19-01-2010 03:22:03 1.4 C 4.85 g/m*3 1.4 C 0 km/h
1218 19-01-2010 03:34:03 1.3 C 4.82 g/m*3 1.3 C 0 km/h
1219 19-01-2010 03:46:04 1.4 C 4.85 g/m*3 1.4 C 0 km/h
1220 19-01-2010 03:58:04 1.3 C 4.82 g/m*3 1.3 C 0 km/h
1221 19-01-2010 04:10:04 1.3 C 4.82 g/m*3 1.3 C 0 km/h
1222 19-01-2010 04:22:04 1.4 C 4.91 g/m*3 1.4 C 0 km/h
1223 19-01-2010 04:34:04 1.5 C 4.94 g/m*3 1.5 C 0 km/h
1224 19-01-2010 04:46:04 1.6 C 4.97 g/m*3 1.6 C 0 km/h
1225 19-01-2010 04:58:04 1.7 C 5.01 g/m*3 1.7 C 0 km/h
Sensor: Nr:Datum:Temp:Abs-Feuchte:Windchill:Wind:
Aussen-T/F 1226 19-01-2010 05:10:04 1.8 C 5.04 g/m*3 1.8 C 0 km/h
1227 19-01-2010 05:22:04 1.8 C 5.04 g/m*3 1.8 C 0 km/h
1228 19-01-2010 05:34:04 1.6 C 4.92 g/m*3 1.6 C 0 km/h
1229 19-01-2010 05:46:04 1.5 C 4.89 g/m*3 1.5 C 0 km/h
1230 19-01-2010 05:58:04 1.3 C 4.82 g/m*3 1.3 C 0 km/h
1231 19-01-2010 06:10:04 1.3 C 4.82 g/m*3 1.3 C 0 km/h
1232 19-01-2010 06:22:04 1.4 C 4.91 g/m*3 1.4 C 0 km/h
1233 19-01-2010 06:34:04 1.6 C 4.97 g/m*3 1.6 C 0 km/h
1234 19-01-2010 06:46:04 1.6 C 4.97 g/m*3 1.6 C 0 km/h
1235 19-01-2010 06:58:04 1.6 C 4.97 g/m*3 1.6 C 0 km/h
1236 19-01-2010 07:10:02 1.7 C 5.06 g/m*3 1.7 C 0 km/h
1237 19-01-2010 07:22:03 1.7 C 5.06 g/m*3 1.7 C 0 km/h
1238 19-01-2010 07:34:03 1.7 C 5.06 g/m*3 1.7 C 0 km/h
1239 19-01-2010 07:46:02 1.7 C 5.06 g/m*3 1.7 C 0 km/h
1240 19-01-2010 07:58:02 1.8 C 5.1 g/m*3 1.8 C 0 km/h
1241 19-01-2010 08:10:02 1.8 C 5.1 g/m*3 1.8 C 0 km/h
1242 19-01-2010 08:22:02 1.8 C 5.1 g/m*3 1.8 C 0 km/h
1243 19-01-2010 08:34:02 1.8 C 5.1 g/m*3 1.8 C 0 km/h
1244 19-01-2010 08:46:01 1.8 C 5.1 g/m*3 1.8 C 0 km/h
1245 19-01-2010 08:58:01 2.3 C 5.22 g/m*3 2.3 C 0 km/h
1246 19-01-2010 09:10:02 1.9 C 5.08 g/m*3 1.9 C 0 km/h
1247 19-01-2010 09:22:01 1.9 C 5.08 g/m*3 1.9 C 0 km/h
1248 19-01-2010 09:34:01 2 C 5.06 g/m*3 2 C 0 km/h
1249 19-01-2010 09:46:01 2.1 C 5.09 g/m*3 2.1 C 0 km/h
1250 19-01-2010 09:58:01 2.2 C 5.13 g/m*3 2.2 C 0 km/h
Sensor: Nr:Datum:Temp:Abs-Feuchte:Windchill:Wind:
Aussen-T/F 1251 19-01-2010 10:10:02 2.2 C 5.07 g/m*3 2.2 C 0 km/h
1252 19-01-2010 10:22:01 2.3 C 5.1 g/m*3 2.3 C 0 km/h
1253 19-01-2010 10:34:02 2.3 C 5.1 g/m*3 2.3 C 0 km/h
1254 19-01-2010 10:46:01 2.4 C 5.14 g/m*3 2.4 C 0 km/h
1255 19-01-2010 10:58:01 2.5 C 5.17 g/m*3 2.5 C 0 km/h
1256 19-01-2010 11:10:02 2.7 C 5.24 g/m*3 2.7 C 0 km/h
1257 19-01-2010 11:22:02 2.8 C 5.22 g/m*3 2.8 C 0 km/h
1258 19-01-2010 11:34:01 2.8 C 5.16 g/m*3 2.8 C 0 km/h
1259 19-01-2010 11:46:02 2.7 C 5.13 g/m*3 2.7 C 0 km/h
1260 19-01-2010 11:58:02 2.8 C 5.16 g/m*3 2.8 C 0 km/h
1261 19-01-2010 12:10:01 2.9 C 5.2 g/m*3 2.9 C 0 km/h
1262 19-01-2010 12:22:02 3 C 5.17 g/m*3 3 C 0 km/h
1263 19-01-2010 12:34:01 3.1 C 5.21 g/m*3 3.1 C 0 km/h
1264 19-01-2010 12:46:03 3.2 C 5.24 g/m*3 3.2 C 0 km/h
1265 19-01-2010 12:58:03 3.2 C 5.24 g/m*3 3.2 C 0 km/h
1266 19-01-2010 13:10:02 3.2 C 5.24 g/m*3 3.2 C 0 km/h
1267 19-01-2010 13:22:02 3.1 C 5.21 g/m*3 3.1 C 0 km/h
1268 19-01-2010 13:34:02 2.9 C 5.2 g/m*3 2.9 C 0 km/h
1269 19-01-2010 13:46:02 2.9 C 5.2 g/m*3 2.9 C 0 km/h
1270 19-01-2010 13:58:02 2.8 C 5.22 g/m*3 2.8 C 0 km/h
1271 19-01-2010 14:10:02 2.9 C 5.26 g/m*3 2.9 C 0 km/h
1272 19-01-2010 14:22:02 2.9 C 5.32 g/m*3 2.9 C 0 km/h
1273 19-01-2010 14:34:02 2.9 C 5.32 g/m*3 2.9 C 0 km/h
1274 19-01-2010 14:46:02 3 C 5.35 g/m*3 3 C 0 km/h
1275 19-01-2010 14:58:03 3.2 C 5.42 g/m*3 3.2 C 0 km/h
Sensor: Nr:Datum:Temp:Abs-Feuchte:Windchill:Wind:
Aussen-T/F 1276 19-01-2010 15:10:01 3.4 C 5.5 g/m*3 3.4 C 0 km/h
1277 19-01-2010 15:22:01 3.4 C 5.5 g/m*3 3.4 C 0 km/h
1278 19-01-2010 15:34:02 3.3 C 5.4 g/m*3 3.3 C 0 km/h
1279 19-01-2010 15:46:02 3.3 C 5.4 g/m*3 3.3 C 0 km/h
1280 19-01-2010 15:58:02 3.3 C 5.4 g/m*3 3.3 C 0 km/h
1281 19-01-2010 16:10:02 3.2 C 5.36 g/m*3 3.2 C 0 km/h
1282 19-01-2010 16:22:02 3.2 C 5.36 g/m*3 3.2 C 0 km/h
1283 19-01-2010 16:34:02 3.1 C 5.33 g/m*3 3.1 C 0 km/h
1284 19-01-2010 16:46:02 3.1 C 5.33 g/m*3 3.1 C 0 km/h
1285 19-01-2010 16:58:02 2.9 C 5.32 g/m*3 2.9 C 0 km/h
1286 19-01-2010 17:10:01 2.8 C 5.28 g/m*3 2.8 C 0 km/h
1287 19-01-2010 17:22:02 2.7 C 5.24 g/m*3 2.7 C 0 km/h
1288 19-01-2010 17:34:01 2.7 C 5.24 g/m*3 2.7 C 0 km/h
1289 19-01-2010 17:46:02 2.7 C 5.24 g/m*3 2.7 C 0 km/h
1290 19-01-2010 17:58:02 2.7 C 5.24 g/m*3 2.7 C 0 km/h
1291 19-01-2010 18:10:02 2.6 C 5.21 g/m*3 2.6 C 0 km/h
1292 19-01-2010 18:22:02 2.5 C 5.17 g/m*3 2.5 C 0 km/h
1293 19-01-2010 18:34:03 2.4 C 5.14 g/m*3 2.4 C 0 km/h
1294 19-01-2010 18:46:02 2.3 C 5.16 g/m*3 2.3 C 0 km/h
1295 19-01-2010 18:58:02 2.2 C 5.13 g/m*3 2.2 C 0 km/h
1296 19-01-2010 19:10:01 2 C 5.06 g/m*3 2 C 0 km/h
1297 19-01-2010 19:22:02 2 C 5.06 g/m*3 2 C 0 km/h
1298 19-01-2010 19:34:02 2 C 5.06 g/m*3 2 C 0 km/h
1299 19-01-2010 19:46:02 2 C 5.06 g/m*3 2 C 0 km/h
1300 19-01-2010 19:58:02 2 C 5.06 g/m*3 2 C 0 km/h
Sensor: Nr:Datum:Temp:Abs-Feuchte:Windchill:Wind:
Aussen-T/F 1301 19-01-2010 20:10:02 2 C 5.06 g/m*3 2 C 0 km/h
1302 19-01-2010 20:22:02 2 C 5.06 g/m*3 2 C 0 km/h
1303 19-01-2010 20:34:02 2 C 5.11 g/m*3 2 C 0 km/h
1304 19-01-2010 20:46:01 2 C 5.11 g/m*3 2 C 0 km/h
1305 19-01-2010 20:58:01 2 C 5.11 g/m*3 2 C 0 km/h
1306 19-01-2010 21:10:02 2.2 C 5.18 g/m*3 2.2 C 0 km/h
1307 19-01-2010 21:22:01 2 C 5.11 g/m*3 2 C 0 km/h
1308 19-01-2010 21:34:01 2 C 5.11 g/m*3 2 C 0 km/h
1309 19-01-2010 21:46:01 2 C 5.11 g/m*3 2 C 0 km/h
1310 19-01-2010 21:58:01 2 C 5.11 g/m*3 2 C 0 km/h
1311 19-01-2010 22:11:02 2 C 5.11 g/m*3 2 C 0 km/h
1312 19-01-2010 22:23:02 2 C 5.11 g/m*3 2 C 0 km/h
1313 19-01-2010 22:35:02 1.9 C 5.08 g/m*3 1.9 C 0 km/h
1314 19-01-2010 22:47:02 1.8 C 5.04 g/m*3 1.8 C 0 km/h
1315 19-01-2010 22:59:02 1.8 C 5.04 g/m*3 1.8 C 0 km/h
1316 19-01-2010 23:11:02 1.9 C 5.13 g/m*3 1.9 C 0 km/h
1317 19-01-2010 23:23:02 1.9 C 5.13 g/m*3 1.9 C 0 km/h
1318 19-01-2010 23:35:02 2 C 5.11 g/m*3 2 C 0 km/h
1319 19-01-2010 23:47:03 2 C 5.11 g/m*3 2 C 0 km/h
1320 19-01-2010 23:59:03 2 C 5.11 g/m*3 2 C 0 km/h
1321 20-01-2010 00:11:03 2 C 5.11 g/m*3 2 C 0 km/h
1322 20-01-2010 00:23:03 2 C 5.11 g/m*3 2 C 0 km/h
1323 20-01-2010 00:35:03 2 C 5.11 g/m*3 2 C 0 km/h
1324 20-01-2010 00:47:03 2 C 5.11 g/m*3 2 C 0 km/h
1325 20-01-2010 00:59:03 2.1 C 5.15 g/m*3 2.1 C 0 km/h
Sensor: Nr:Datum:Temp:Abs-Feuchte:Windchill:Wind:
Aussen-T/F 1326 20-01-2010 01:11:03 2.1 C 5.15 g/m*3 2.1 C 0 km/h
1327 20-01-2010 01:23:03 2.1 C 5.15 g/m*3 2.1 C 0 km/h
1328 20-01-2010 01:35:03 2.2 C 5.18 g/m*3 2.2 C 0 km/h
1329 20-01-2010 01:47:03 2.2 C 5.18 g/m*3 2.2 C 0 km/h
1330 20-01-2010 01:59:03 2.2 C 5.18 g/m*3 2.2 C 0 km/h
1331 20-01-2010 02:11:03 2.2 C 5.18 g/m*3 2.2 C 0 km/h
1332 20-01-2010 02:23:03 2 C 5.11 g/m*3 2 C 0 km/h
1333 20-01-2010 02:35:03 2 C 5.11 g/m*3 2 C 0 km/h
1334 20-01-2010 02:47:03 2.1 C 5.15 g/m*3 2.1 C 0 km/h
1335 20-01-2010 02:59:03 2 C 5.11 g/m*3 2 C 0 km/h
1336 20-01-2010 03:11:03 2 C 5.11 g/m*3 2 C 0 km/h
1337 20-01-2010 03:23:03 2 C 5.11 g/m*3 2 C 0 km/h
1338 20-01-2010 03:35:03 1.9 C 5.08 g/m*3 1.9 C 0 km/h
1339 20-01-2010 03:47:04 1.9 C 5.08 g/m*3 1.9 C 0 km/h
1340 20-01-2010 03:59:04 1.8 C 5.04 g/m*3 1.8 C 0 km/h
1341 20-01-2010 04:11:04 1.8 C 5.04 g/m*3 1.8 C 0 km/h
1342 20-01-2010 04:23:04 1.8 C 5.04 g/m*3 1.8 C 0 km/h
1343 20-01-2010 04:35:04 1.8 C 5.04 g/m*3 1.8 C 0 km/h
1344 20-01-2010 04:47:04 1.8 C 5.04 g/m*3 1.8 C 0 km/h
1345 20-01-2010 04:59:04 1.8 C 5.04 g/m*3 1.8 C 0 km/h
1346 20-01-2010 05:11:04 1.8 C 5.04 g/m*3 1.8 C 0 km/h
1347 20-01-2010 05:23:04 1.8 C 5.04 g/m*3 1.8 C 0 km/h
1348 20-01-2010 05:35:04 1.7 C 5.01 g/m*3 1.7 C 0 km/h
1349 20-01-2010 05:47:04 1.7 C 5.01 g/m*3 1.7 C 0 km/h
1350 20-01-2010 05:59:04 1.6 C 4.97 g/m*3 1.6 C 0 km/h
Sensor: Nr:Datum:Temp:Abs-Feuchte:Windchill:Wind:
Aussen-T/F 1351 20-01-2010 06:11:04 1.3 C 4.82 g/m*3 1.3 C 0 km/h
1352 20-01-2010 06:23:04 0.6 C 4.6 g/m*3 0.6 C 0 km/h
1353 20-01-2010 06:35:04 0.4 C 4.53 g/m*3 0.4 C 0 km/h
1354 20-01-2010 06:47:04 0.3 C 4.5 g/m*3 0.3 C 0 km/h
1355 20-01-2010 06:59:04 0.4 C 4.58 g/m*3 0.4 C 0 km/h
1356 20-01-2010 07:11:02 0.5 C 4.61 g/m*3 0.5 C 0 km/h
1357 20-01-2010 07:23:02 0.2 C 4.52 g/m*3 0.2 C 0 km/h
1358 20-01-2010 07:35:03 -0.2 C 4.4 g/m*3 -0.2 C 0 km/h
1359 20-01-2010 07:47:02 -0.4 C 4.34 g/m*3 -0.4 C 0 km/h
1360 20-01-2010 07:59:02 -0.4 C 4.34 g/m*3 -0.4 C 0 km/h
1361 20-01-2010 08:11:02 -0.6 C 4.28 g/m*3 -0.6 C 0 km/h
1362 20-01-2010 08:23:02 -0.7 C 4.25 g/m*3 -0.7 C 0 km/h
1363 20-01-2010 08:35:02 -0.8 C 4.22 g/m*3 -0.8 C 0 km/h
1364 20-01-2010 08:47:02 -0.9 C 4.19 g/m*3 -0.9 C 0 km/h
1365 20-01-2010 08:59:02 -0.9 C 4.19 g/m*3 -0.9 C 0 km/h
1366 20-01-2010 09:11:02 -0.9 C 4.23 g/m*3 -0.9 C 0 km/h
1367 20-01-2010 09:23:02 -0.8 C 4.26 g/m*3 -0.8 C 0 km/h
1368 20-01-2010 09:35:02 -0.8 C 4.26 g/m*3 -0.8 C 0 km/h
1369 20-01-2010 09:47:02 -0.6 C 4.32 g/m*3 -0.6 C 0 km/h
1370 20-01-2010 09:59:02 0 C 4.55 g/m*3 0 C 0 km/h
1371 20-01-2010 10:11:02 0.5 C 4.71 g/m*3 0.5 C 0 km/h
1372 20-01-2010 10:23:02 0.9 C 4.9 g/m*3 0.9 C 0 km/h
1373 20-01-2010 10:35:02 1.3 C 5.03 g/m*3 1.3 C 0 km/h
1374 20-01-2010 10:47:02 1.7 C 5.17 g/m*3 1.7 C 0 km/h
1375 20-01-2010 10:59:02 2 C 5.28 g/m*3 2 C 0 km/h
Sensor: Nr:Datum:Temp:Abs-Feuchte:Windchill:Wind:
Aussen-T/F 1376 20-01-2010 11:11:01 2.3 C 5.33 g/m*3 2.3 C 0 km/h
1377 20-01-2010 11:23:01 2.5 C 5.4 g/m*3 2.5 C 0 km/h
1378 20-01-2010 11:35:02 2.7 C 5.42 g/m*3 2.7 C 0 km/h
1379 20-01-2010 11:47:02 3 C 5.41 g/m*3 3 C 0 km/h
1380 20-01-2010 11:59:02 3.2 C 5.3 g/m*3 3.2 C 0 km/h
1381 20-01-2010 12:11:02 3.1 C 4.91 g/m*3 3.1 C 0 km/h
1382 20-01-2010 12:23:02 3.2 C 4.7 g/m*3 3.2 C 0 km/h
1383 20-01-2010 12:35:02 3.3 C 4.67 g/m*3 3.3 C 0 km/h
1384 20-01-2010 12:47:02 3.4 C 4.64 g/m*3 3.4 C 0 km/h
1385 20-01-2010 12:59:02 3.5 C 4.61 g/m*3 3.5 C 0 km/h
1386 20-01-2010 13:11:02 3.6 C 4.52 g/m*3 3.6 C 0 km/h
1387 20-01-2010 13:23:02 3.8 C 4.52 g/m*3 3.8 C 0 km/h
1388 20-01-2010 13:35:02 3.8 C 4.45 g/m*3 3.8 C 0 km/h
1389 20-01-2010 13:47:02 3.8 C 4.45 g/m*3 3.8 C 0 km/h
1390 20-01-2010 13:59:02 3.8 C 4.39 g/m*3 3.8 C 0 km/h
1391 20-01-2010 14:11:02 4 C 4.39 g/m*3 4 C 0 km/h
1392 20-01-2010 14:23:02 4.1 C 4.35 g/m*3 4.1 C 0 km/h
1393 20-01-2010 14:35:02 4.1 C 4.35 g/m*3 4.1 C 0 km/h
1394 20-01-2010 14:47:02 4.2 C 4.38 g/m*3 4.2 C 0 km/h
1395 20-01-2010 14:59:02 3.9 C 4.36 g/m*3 3.9 C 0 km/h
1396 20-01-2010 15:11:02 3.9 C 4.42 g/m*3 3.9 C 0 km/h
1397 20-01-2010 15:23:03 3.8 C 4.45 g/m*3 3.8 C 0 km/h
1398 20-01-2010 15:35:02 3.8 C 4.39 g/m*3 3.8 C 0 km/h
1399 20-01-2010 15:47:02 3.7 C 4.49 g/m*3 3.7 C 0 km/h
1400 20-01-2010 15:59:02 3.6 C 4.39 g/m*3 3.6 C 0 km/h
Sensor: Nr:Datum:Temp:Abs-Feuchte:Windchill:Wind:
Aussen-T/F 1401 20-01-2010 16:11:02 3.6 C 4.39 g/m*3 3.6 C 0 km/h
1402 20-01-2010 16:23:02 3.5 C 4.43 g/m*3 3.5 C 0 km/h
1403 20-01-2010 16:35:02 3.4 C 4.4 g/m*3 3.4 C 0 km/h
1404 20-01-2010 16:47:02 3.2 C 4.4 g/m*3 3.2 C 0 km/h
1405 20-01-2010 16:59:02 3 C 4.4 g/m*3 3 C 0 km/h
1406 20-01-2010 17:11:02 2.8 C 4.46 g/m*3 2.8 C 0 km/h
1407 20-01-2010 17:23:02 2.8 C 4.52 g/m*3 2.8 C 0 km/h
1408 20-01-2010 17:35:01 2.6 C 4.46 g/m*3 2.6 C 0 km/h
1409 20-01-2010 17:47:02 2.4 C 4.45 g/m*3 2.4 C 0 km/h
1410 20-01-2010 17:59:02 2.3 C 4.48 g/m*3 2.3 C 0 km/h
1411 20-01-2010 18:11:01 2.2 C 4.45 g/m*3 2.2 C 0 km/h
1412 20-01-2010 18:23:01 2.2 C 4.51 g/m*3 2.2 C 0 km/h
1413 20-01-2010 18:35:01 2 C 4.45 g/m*3 2 C 0 km/h
1414 20-01-2010 18:47:02 1.7 C 4.41 g/m*3 1.7 C 0 km/h
1415 20-01-2010 18:59:02 1.7 C 4.46 g/m*3 1.7 C 0 km/h
1416 20-01-2010 19:11:01 1.7 C 4.52 g/m*3 1.7 C 0 km/h
1417 20-01-2010 19:23:02 1.8 C 4.55 g/m*3 1.8 C 0 km/h
1418 20-01-2010 19:35:02 2 C 4.56 g/m*3 2 C 0 km/h
1419 20-01-2010 19:47:02 2.2 C 4.62 g/m*3 2.2 C 0 km/h
1420 20-01-2010 19:59:02 2.3 C 4.65 g/m*3 2.3 C 0 km/h
1421 20-01-2010 20:11:01 2.4 C 4.62 g/m*3 2.4 C 0 km/h
1422 20-01-2010 20:23:01 2.6 C 4.51 g/m*3 2.6 C 0 km/h
1423 20-01-2010 20:35:01 2.6 C 4.46 g/m*3 2.6 C 0 km/h
1424 20-01-2010 20:47:02 2.5 C 4.31 g/m*3 2.5 C 0 km/h
1425 20-01-2010 20:59:02 2.1 C 4.2 g/m*3 2.1 C 0 km/h
Sensor: Nr:Datum:Temp:Abs-Feuchte:Windchill:Wind:
Aussen-T/F 1426 20-01-2010 21:11:02 1.6 C 4.11 g/m*3 1.6 C 0 km/h
1427 20-01-2010 21:23:02 1.4 C 4.16 g/m*3 1.4 C 0 km/h
1428 20-01-2010 21:35:02 1.7 C 4.25 g/m*3 1.7 C 0 km/h
1429 20-01-2010 21:47:01 1.7 C 4.25 g/m*3 1.7 C 0 km/h
1430 20-01-2010 21:59:01 1.7 C 4.25 g/m*3 1.7 C 0 km/h
1431 20-01-2010 22:11:02 1.8 C 4.28 g/m*3 1.8 C 0 km/h
1432 20-01-2010 22:23:02 1.8 C 4.22 g/m*3 1.8 C 0 km/h
1433 20-01-2010 22:35:01 1.9 C 4.19 g/m*3 1.9 C 0 km/h
1434 20-01-2010 22:47:02 2 C 4.11 g/m*3 2 C 0 km/h
1435 20-01-2010 22:59:02 1.9 C 4.14 g/m*3 1.9 C 0 km/h
1436 20-01-2010 23:11:01 1.9 C 4.19 g/m*3 1.9 C 0 km/h
1437 20-01-2010 23:23:02 1.9 C 4.19 g/m*3 1.9 C 0 km/h
1438 20-01-2010 23:35:01 1.8 C 4.17 g/m*3 1.8 C 0 km/h
1439 20-01-2010 23:47:02 1.8 C 4.11 g/m*3 1.8 C 0 km/h
1440 20-01-2010 23:59:02 1.8 C 4.17 g/m*3 1.8 C 0 km/h
1441 21-01-2010 00:11:02 1.8 C 4.11 g/m*3 1.8 C 0 km/h
1442 21-01-2010 00:23:02 1.8 C 4.11 g/m*3 1.8 C 0 km/h
1443 21-01-2010 00:35:03 1.9 C 4.03 g/m*3 1.9 C 0 km/h
1444 21-01-2010 00:47:02 1.8 C 4 g/m*3 1.8 C 0 km/h
1445 21-01-2010 00:59:02 1.8 C 3.95 g/m*3 1.8 C 0 km/h
1446 21-01-2010 01:11:02 1.8 C 3.84 g/m*3 1.8 C 0 km/h
1447 21-01-2010 01:23:02 1.7 C 3.81 g/m*3 1.7 C 0 km/h
1448 21-01-2010 01:35:02 1.7 C 3.81 g/m*3 1.7 C 0 km/h
1449 21-01-2010 01:47:02 1.8 C 3.84 g/m*3 1.8 C 0 km/h
1450 21-01-2010 01:59:02 1.8 C 3.78 g/m*3 1.8 C 0 km/h
Sensor: Nr:Datum:Temp:Abs-Feuchte:Windchill:Wind:
Aussen-T/F 1451 21-01-2010 02:11:03 1.8 C 3.84 g/m*3 1.8 C 0 km/h
1452 21-01-2010 02:23:02 1.7 C 3.87 g/m*3 1.7 C 0 km/h
1453 21-01-2010 02:35:02 1.7 C 3.92 g/m*3 1.7 C 0 km/h
1454 21-01-2010 02:47:01 1.7 C 3.92 g/m*3 1.7 C 0 km/h
1455 21-01-2010 02:59:01 1.7 C 3.92 g/m*3 1.7 C 0 km/h
1456 21-01-2010 03:11:02 1.7 C 3.92 g/m*3 1.7 C 0 km/h
1457 21-01-2010 03:23:02 1.7 C 3.97 g/m*3 1.7 C 0 km/h
1458 21-01-2010 03:35:01 1.7 C 4.03 g/m*3 1.7 C 0 km/h
1459 21-01-2010 03:47:01 1.7 C 4.03 g/m*3 1.7 C 0 km/h
1460 21-01-2010 03:59:01 1.8 C 4 g/m*3 1.8 C 0 km/h
1461 21-01-2010 04:11:02 1.7 C 3.97 g/m*3 1.7 C 0 km/h
1462 21-01-2010 04:23:01 1.7 C 4.03 g/m*3 1.7 C 0 km/h
1463 21-01-2010 04:35:02 1.8 C 4 g/m*3 1.8 C 0 km/h
1464 21-01-2010 04:47:01 1.8 C 3.89 g/m*3 1.8 C 0 km/h
1465 21-01-2010 04:59:01 1.8 C 3.89 g/m*3 1.8 C 0 km/h
1466 21-01-2010 05:11:02 1.8 C 3.95 g/m*3 1.8 C 0 km/h
1467 21-01-2010 05:23:01 1.7 C 3.97 g/m*3 1.7 C 0 km/h
1468 21-01-2010 05:35:01 1.7 C 4.03 g/m*3 1.7 C 0 km/h
1469 21-01-2010 05:47:01 1.7 C 4.03 g/m*3 1.7 C 0 km/h
1470 21-01-2010 05:59:01 1.6 C 3.95 g/m*3 1.6 C 0 km/h
1471 21-01-2010 06:11:01 1.6 C 4 g/m*3 1.6 C 0 km/h
1472 21-01-2010 06:23:01 1.6 C 4.06 g/m*3 1.6 C 0 km/h
1473 21-01-2010 06:35:01 1.5 C 4.03 g/m*3 1.5 C 0 km/h
1474 21-01-2010 06:47:01 1.5 C 4.08 g/m*3 1.5 C 0 km/h
1475 21-01-2010 06:59:01 1.4 C 4.11 g/m*3 1.4 C 0 km/h
Sensor: Nr:Datum:Temp:Abs-Feuchte:Windchill:Wind:
Aussen-T/F 1476 21-01-2010 07:11:01 1.4 C 4.16 g/m*3 1.4 C 0 km/h
1477 21-01-2010 07:23:02 1.4 C 4.21 g/m*3 1.4 C 0 km/h
1478 21-01-2010 07:35:01 1.3 C 4.19 g/m*3 1.3 C 0 km/h
1479 21-01-2010 07:47:02 1.4 C 4.21 g/m*3 1.4 C 0 km/h
1480 21-01-2010 07:59:02 1.4 C 4.21 g/m*3 1.4 C 0 km/h
1481 21-01-2010 08:11:01 1.3 C 4.24 g/m*3 1.3 C 0 km/h
1482 21-01-2010 08:23:02 1.3 C 4.24 g/m*3 1.3 C 0 km/h
1483 21-01-2010 08:35:01 1.4 C 4.27 g/m*3 1.4 C 0 km/h
1484 21-01-2010 08:47:02 1.3 C 4.24 g/m*3 1.3 C 0 km/h
1485 21-01-2010 08:59:02 1.5 C 4.3 g/m*3 1.5 C 0 km/h
1486 21-01-2010 09:11:01 1.6 C 4.33 g/m*3 1.6 C 0 km/h
1487 21-01-2010 09:23:01 1.8 C 4.33 g/m*3 1.8 C 0 km/h
1488 21-01-2010 09:35:01 2 C 4.33 g/m*3 2 C 0 km/h
1489 21-01-2010 09:47:01 2.1 C 4.25 g/m*3 2.1 C 0 km/h
1490 21-01-2010 09:59:02 2.1 C 3.97 g/m*3 2.1 C 0 km/h
1491 21-01-2010 10:11:01 2.3 C 3.97 g/m*3 2.3 C 0 km/h
1492 21-01-2010 10:23:01 2.5 C 3.97 g/m*3 2.5 C 0 km/h
1493 21-01-2010 10:35:02 2.6 C 3.88 g/m*3 2.6 C 0 km/h
1494 21-01-2010 10:47:01 2.9 C 4.02 g/m*3 2.9 C 0 km/h
1495 21-01-2010 10:59:01 3.1 C 3.95 g/m*3 3.1 C 0 km/h
1496 21-01-2010 11:11:02 3.2 C 3.86 g/m*3 3.2 C 0 km/h
1497 21-01-2010 11:23:01 3.2 C 3.8 g/m*3 3.2 C 0 km/h
1498 21-01-2010 11:35:02 3 C 3.75 g/m*3 3 C 0 km/h
1499 21-01-2010 11:47:01 3.3 C 3.88 g/m*3 3.3 C 0 km/h
1500 21-01-2010 11:59:01 3.4 C 3.73 g/m*3 3.4 C 0 km/h
Sensor: Nr:Datum:Temp:Abs-Feuchte:Windchill:Wind:
Aussen-T/F 1501 21-01-2010 12:11:02 3.4 C 3.79 g/m*3 3.4 C 0 km/h
1502 21-01-2010 12:23:01 3.6 C 3.84 g/m*3 3.6 C 0 km/h
1503 21-01-2010 12:35:01 3.5 C 3.75 g/m*3 3.5 C 0 km/h
1504 21-01-2010 12:47:01 3.6 C 3.71 g/m*3 3.6 C 0 km/h
1505 21-01-2010 12:59:01 3.7 C 3.74 g/m*3 3.7 C 0 km/h
1506 21-01-2010 13:11:01 3.8 C 3.76 g/m*3 3.8 C 0 km/h
1507 21-01-2010 13:23:01 3.7 C 3.74 g/m*3 3.7 C 0 km/h
1508 21-01-2010 13:35:01 4 C 3.81 g/m*3 4 C 0 km/h
1509 21-01-2010 13:47:01 3.8 C 3.7 g/m*3 3.8 C 0 km/h
1510 21-01-2010 13:59:01 3.8 C 3.76 g/m*3 3.8 C 0 km/h
1511 21-01-2010 14:11:01 3.8 C 3.76 g/m*3 3.8 C 0 km/h
1512 21-01-2010 14:23:02 3.8 C 3.76 g/m*3 3.8 C 0 km/h
1513 21-01-2010 14:35:01 3.7 C 3.74 g/m*3 3.7 C 0 km/h
1514 21-01-2010 14:47:02 3.4 C 3.91 g/m*3 3.4 C 0 km/h
1515 21-01-2010 14:59:02 3.3 C 4 g/m*3 3.3 C 0 km/h
1516 21-01-2010 15:11:01 3.3 C 4.06 g/m*3 3.3 C 0 km/h
1517 21-01-2010 15:23:02 3.4 C 4.09 g/m*3 3.4 C 0 km/h
1518 21-01-2010 15:35:01 3.4 C 4.09 g/m*3 3.4 C 0 km/h
1519 21-01-2010 15:47:02 3.4 C 4.09 g/m*3 3.4 C 0 km/h
1520 21-01-2010 15:59:02 3.3 C 4.06 g/m*3 3.3 C 0 km/h
1521 21-01-2010 16:11:01 3.2 C 4.04 g/m*3 3.2 C 0 km/h
1522 21-01-2010 16:23:01 3.2 C 4.04 g/m*3 3.2 C 0 km/h
1523 21-01-2010 16:35:01 3.2 C 4.04 g/m*3 3.2 C 0 km/h
1524 21-01-2010 16:47:01 3.1 C 3.95 g/m*3 3.1 C 0 km/h
1525 21-01-2010 16:59:02 3 C 3.98 g/m*3 3 C 0 km/h
Sensor: Nr:Datum:Temp:Abs-Feuchte:Windchill:Wind:
Aussen-T/F 1526 21-01-2010 17:11:01 3 C 4.04 g/m*3 3 C 0 km/h
1527 21-01-2010 17:23:01 2.9 C 4.02 g/m*3 2.9 C 0 km/h
1528 21-01-2010 17:35:02 2.8 C 3.99 g/m*3 2.8 C 0 km/h
1529 21-01-2010 17:47:01 2.9 C 4.07 g/m*3 2.9 C 0 km/h
1530 21-01-2010 17:59:01 2.9 C 4.13 g/m*3 2.9 C 0 km/h
1531 21-01-2010 18:11:02 2.8 C 4.11 g/m*3 2.8 C 0 km/h
1532 21-01-2010 18:23:01 2.8 C 4.11 g/m*3 2.8 C 0 km/h
1533 21-01-2010 18:35:01 2.8 C 4.05 g/m*3 2.8 C 0 km/h
1534 21-01-2010 18:47:01 2.7 C 4.02 g/m*3 2.7 C 0 km/h
1535 21-01-2010 18:59:01 2.7 C 4.02 g/m*3 2.7 C 0 km/h
1536 21-01-2010 19:11:02 2.8 C 4.05 g/m*3 2.8 C 0 km/h
1537 21-01-2010 19:23:01 2.7 C 4.08 g/m*3 2.7 C 0 km/h
1538 21-01-2010 19:35:01 2.7 C 4.02 g/m*3 2.7 C 0 km/h
1539 21-01-2010 19:47:01 2.7 C 4.08 g/m*3 2.7 C 0 km/h
1540 21-01-2010 19:59:01 2.7 C 4.14 g/m*3 2.7 C 0 km/h
1541 21-01-2010 20:11:01 2.6 C 4.05 g/m*3 2.6 C 0 km/h
1542 21-01-2010 20:23:01 2.6 C 4.05 g/m*3 2.6 C 0 km/h
1543 21-01-2010 20:35:01 2.6 C 4.05 g/m*3 2.6 C 0 km/h
1544 21-01-2010 20:47:01 2.6 C 4.05 g/m*3 2.6 C 0 km/h
1545 21-01-2010 20:59:01 2.7 C 4.08 g/m*3 2.7 C 0 km/h
1546 21-01-2010 21:11:01 2.7 C 4.08 g/m*3 2.7 C 0 km/h
1547 21-01-2010 21:23:02 2.6 C 3.99 g/m*3 2.6 C 0 km/h
1548 21-01-2010 21:35:01 2.6 C 3.99 g/m*3 2.6 C 0 km/h
1549 21-01-2010 21:47:02 2.6 C 4.05 g/m*3 2.6 C 0 km/h
1550 21-01-2010 21:59:02 2.6 C 4.05 g/m*3 2.6 C 0 km/h
Sensor: Nr:Datum:Temp:Abs-Feuchte:Windchill:Wind:
Aussen-T/F 1551 21-01-2010 22:11:02 2.6 C 4.11 g/m*3 2.6 C 0 km/h
1552 21-01-2010 22:24:02 2.6 C 4.11 g/m*3 2.6 C 0 km/h
1553 21-01-2010 22:36:02 2.6 C 4.17 g/m*3 2.6 C 0 km/h
1554 21-01-2010 22:48:02 2.6 C 4.22 g/m*3 2.6 C 0 km/h
1555 21-01-2010 23:00:02 2.6 C 4.22 g/m*3 2.6 C 0 km/h
1556 21-01-2010 23:12:02 2.6 C 4.22 g/m*3 2.6 C 0 km/h
1557 21-01-2010 23:24:02 2.6 C 4.28 g/m*3 2.6 C 0 km/h
1558 21-01-2010 23:36:02 2.6 C 4.28 g/m*3 2.6 C 0 km/h
1559 21-01-2010 23:48:02 2.6 C 4.28 g/m*3 2.6 C 0 km/h
1560 22-01-2010 00:00:02 2.6 C 4.28 g/m*3 2.6 C 0 km/h
1561 22-01-2010 00:12:02 2.5 C 4.25 g/m*3 2.5 C 0 km/h
1562 22-01-2010 00:24:02 2.6 C 4.28 g/m*3 2.6 C 0 km/h
1563 22-01-2010 00:36:03 2.5 C 4.25 g/m*3 2.5 C 0 km/h
1564 22-01-2010 00:48:03 2.5 C 4.25 g/m*3 2.5 C 0 km/h
1565 22-01-2010 01:00:03 2.5 C 4.25 g/m*3 2.5 C 0 km/h
1566 22-01-2010 01:12:03 2.5 C 4.25 g/m*3 2.5 C 0 km/h
1567 22-01-2010 01:24:03 2.5 C 4.31 g/m*3 2.5 C 0 km/h
1568 22-01-2010 01:36:03 2.5 C 4.31 g/m*3 2.5 C 0 km/h
1569 22-01-2010 01:48:03 2.5 C 4.31 g/m*3 2.5 C 0 km/h
1570 22-01-2010 02:00:03 2.5 C 4.37 g/m*3 2.5 C 0 km/h
1571 22-01-2010 02:12:03 2.4 C 4.34 g/m*3 2.4 C 0 km/h
1572 22-01-2010 02:24:03 2.4 C 4.34 g/m*3 2.4 C 0 km/h
1573 22-01-2010 02:36:03 2.3 C 4.31 g/m*3 2.3 C 0 km/h
1574 22-01-2010 02:48:03 2.4 C 4.34 g/m*3 2.4 C 0 km/h
1575 22-01-2010 03:00:03 2.4 C 4.34 g/m*3 2.4 C 0 km/h
Sensor: Nr:Datum:Temp:Abs-Feuchte:Windchill:Wind:
Aussen-T/F 1576 22-01-2010 03:12:03 2.4 C 4.4 g/m*3 2.4 C 0 km/h
1577 22-01-2010 03:24:03 2.4 C 4.4 g/m*3 2.4 C 0 km/h
1578 22-01-2010 03:36:03 2.4 C 4.4 g/m*3 2.4 C 0 km/h
1579 22-01-2010 03:48:03 2.4 C 4.4 g/m*3 2.4 C 0 km/h
1580 22-01-2010 04:00:03 2.3 C 4.37 g/m*3 2.3 C 0 km/h
1581 22-01-2010 04:12:03 2.3 C 4.37 g/m*3 2.3 C 0 km/h
1582 22-01-2010 04:24:04 2.3 C 4.37 g/m*3 2.3 C 0 km/h
1583 22-01-2010 04:36:04 2.4 C 4.4 g/m*3 2.4 C 0 km/h
1584 22-01-2010 04:48:04 2.3 C 4.37 g/m*3 2.3 C 0 km/h
1585 22-01-2010 05:00:04 2.3 C 4.37 g/m*3 2.3 C 0 km/h
1586 22-01-2010 05:12:04 2.3 C 4.37 g/m*3 2.3 C 0 km/h
1587 22-01-2010 05:24:04 2.3 C 4.37 g/m*3 2.3 C 0 km/h
1588 22-01-2010 05:36:04 2.2 C 4.34 g/m*3 2.2 C 0 km/h
1589 22-01-2010 05:48:04 2.3 C 4.37 g/m*3 2.3 C 0 km/h
1590 22-01-2010 06:00:04 2.2 C 4.34 g/m*3 2.2 C 0 km/h
1591 22-01-2010 06:12:04 2.2 C 4.34 g/m*3 2.2 C 0 km/h
1592 22-01-2010 06:24:04 2.2 C 4.34 g/m*3 2.2 C 0 km/h
1593 22-01-2010 06:36:04 2.2 C 4.34 g/m*3 2.2 C 0 km/h
1594 22-01-2010 06:48:04 2.2 C 4.34 g/m*3 2.2 C 0 km/h
1595 22-01-2010 07:00:04 2.2 C 4.34 g/m*3 2.2 C 0 km/h
1596 22-01-2010 07:12:01 2.2 C 4.39 g/m*3 2.2 C 0 km/h
1597 22-01-2010 07:24:02 2.2 C 4.39 g/m*3 2.2 C 0 km/h
1598 22-01-2010 07:36:02 2.1 C 4.36 g/m*3 2.1 C 0 km/h
1599 22-01-2010 07:48:01 2.1 C 4.36 g/m*3 2.1 C 0 km/h
1600 22-01-2010 08:00:01 2.1 C 4.36 g/m*3 2.1 C 0 km/h
Sensor: Nr:Datum:Temp:Abs-Feuchte:Windchill:Wind:
Aussen-T/F 1601 22-01-2010 08:12:02 2 C 4.33 g/m*3 2 C 0 km/h
1602 22-01-2010 08:24:01 2 C 4.33 g/m*3 2 C 0 km/h
1603 22-01-2010 08:36:01 1.9 C 4.36 g/m*3 1.9 C 0 km/h
1604 22-01-2010 08:48:01 1.9 C 4.36 g/m*3 1.9 C 0 km/h
1605 22-01-2010 09:00:01 2.1 C 4.36 g/m*3 2.1 C 0 km/h
1606 22-01-2010 09:12:02 2.2 C 4.39 g/m*3 2.2 C 0 km/h
1607 22-01-2010 09:24:01 2.3 C 4.37 g/m*3 2.3 C 0 km/h
1608 22-01-2010 09:36:02 2.5 C 4.37 g/m*3 2.5 C 0 km/h
1609 22-01-2010 09:48:01 2.6 C 4.34 g/m*3 2.6 C 0 km/h
1610 22-01-2010 10:00:01 2.8 C 4.4 g/m*3 2.8 C 0 km/h
1611 22-01-2010 10:12:02 2.8 C 4.16 g/m*3 2.8 C 0 km/h
1612 22-01-2010 10:24:01 3 C 4.16 g/m*3 3 C 0 km/h
1613 22-01-2010 10:36:01 3.1 C 4.07 g/m*3 3.1 C 0 km/h
1614 22-01-2010 10:48:01 3.2 C 4.1 g/m*3 3.2 C 0 km/h
1615 22-01-2010 11:00:01 3.5 C 4.12 g/m*3 3.5 C 0 km/h
1616 22-01-2010 11:12:02 3.8 C 4.14 g/m*3 3.8 C 0 km/h
1617 22-01-2010 11:24:02 4 C 4.07 g/m*3 4 C 0 km/h
1618 22-01-2010 11:36:01 4 C 4.01 g/m*3 4 C 0 km/h
1619 22-01-2010 11:48:02 4.2 C 4.06 g/m*3 4.2 C 0 km/h
1620 22-01-2010 12:00:02 4.1 C 3.97 g/m*3 4.1 C 0 km/h
1621 22-01-2010 12:12:01 4.2 C 3.99 g/m*3 4.2 C 0 km/h
1622 22-01-2010 12:24:02 4.4 C 4.05 g/m*3 4.4 C 0 km/h
1623 22-01-2010 12:36:01 4.7 C 4.06 g/m*3 4.7 C 0 km/h
1624 22-01-2010 12:48:02 4.9 C 4.12 g/m*3 4.9 C 0 km/h
1625 22-01-2010 13:00:02 4.9 C 4.05 g/m*3 4.9 C 0 km/h
Sensor: Nr:Datum:Temp:Abs-Feuchte:Windchill:Wind:
Aussen-T/F 1626 22-01-2010 13:12:02 4.9 C 4.05 g/m*3 4.9 C 0 km/h
1627 22-01-2010 13:24:02 4.8 C 4.09 g/m*3 4.8 C 0 km/h
1628 22-01-2010 13:36:02 4.8 C 4.16 g/m*3 4.8 C 0 km/h
1629 22-01-2010 13:48:02 4.7 C 4.06 g/m*3 4.7 C 0 km/h
1630 22-01-2010 14:00:02 4.7 C 4.13 g/m*3 4.7 C 0 km/h
1631 22-01-2010 14:12:01 4.4 C 4.05 g/m*3 4.4 C 0 km/h
1632 22-01-2010 14:24:01 4.4 C 4.11 g/m*3 4.4 C 0 km/h
1633 22-01-2010 14:36:02 4.7 C 4.26 g/m*3 4.7 C 0 km/h
1634 22-01-2010 14:48:02 4.8 C 4.16 g/m*3 4.8 C 0 km/h
1635 22-01-2010 15:00:02 4.7 C 4.13 g/m*3 4.7 C 0 km/h
1636 22-01-2010 15:12:02 4.6 C 4.17 g/m*3 4.6 C 0 km/h
1637 22-01-2010 15:24:02 4.8 C 4.16 g/m*3 4.8 C 0 km/h
1638 22-01-2010 15:36:02 4.8 C 4.16 g/m*3 4.8 C 0 km/h
1639 22-01-2010 15:48:02 4.2 C 4.06 g/m*3 4.2 C 0 km/h
1640 22-01-2010 16:00:02 3.8 C 4.14 g/m*3 3.8 C 0 km/h
1641 22-01-2010 16:12:02 3.8 C 4.27 g/m*3 3.8 C 0 km/h
1642 22-01-2010 16:24:02 3.9 C 4.29 g/m*3 3.9 C 0 km/h
1643 22-01-2010 16:36:02 3.8 C 4.27 g/m*3 3.8 C 0 km/h
1644 22-01-2010 16:48:02 3.8 C 4.33 g/m*3 3.8 C 0 km/h
1645 22-01-2010 17:00:02 3.7 C 4.36 g/m*3 3.7 C 0 km/h
1646 22-01-2010 17:12:02 3.6 C 4.33 g/m*3 3.6 C 0 km/h
1647 22-01-2010 17:24:02 3.4 C 4.28 g/m*3 3.4 C 0 km/h
1648 22-01-2010 17:36:02 3.3 C 4.25 g/m*3 3.3 C 0 km/h
1649 22-01-2010 17:48:02 3.2 C 4.22 g/m*3 3.2 C 0 km/h
1650 22-01-2010 18:00:02 3.2 C 4.28 g/m*3 3.2 C 0 km/h
Sensor: Nr:Datum:Temp:Abs-Feuchte:Windchill:Wind:
Aussen-T/F 1651 22-01-2010 18:12:02 3.2 C 4.22 g/m*3 3.2 C 0 km/h
1652 22-01-2010 18:24:03 3.1 C 4.19 g/m*3 3.1 C 0 km/h
1653 22-01-2010 18:36:02 3 C 4.16 g/m*3 3 C 0 km/h
1654 22-01-2010 18:48:02 2.9 C 4.19 g/m*3 2.9 C 0 km/h
1655 22-01-2010 19:00:02 2.7 C 4.14 g/m*3 2.7 C 0 km/h
1656 22-01-2010 19:12:02 2.5 C 4.08 g/m*3 2.5 C 0 km/h
1657 22-01-2010 19:24:02 2.3 C 4.08 g/m*3 2.3 C 0 km/h
1658 22-01-2010 19:36:02 2.3 C 4.14 g/m*3 2.3 C 0 km/h
1659 22-01-2010 19:48:02 2.3 C 4.14 g/m*3 2.3 C 0 km/h
1660 22-01-2010 20:00:02 2.3 C 4.14 g/m*3 2.3 C 0 km/h
1661 22-01-2010 20:12:02 2.4 C 4.17 g/m*3 2.4 C 0 km/h
1662 22-01-2010 20:24:02 2.3 C 4.14 g/m*3 2.3 C 0 km/h
1663 22-01-2010 20:36:02 2.4 C 4.23 g/m*3 2.4 C 0 km/h
1664 22-01-2010 20:48:02 2.3 C 4.2 g/m*3 2.3 C 0 km/h
1665 22-01-2010 21:00:02 2.3 C 4.2 g/m*3 2.3 C 0 km/h
1666 22-01-2010 21:12:01 2.3 C 4.2 g/m*3 2.3 C 0 km/h
1667 22-01-2010 21:24:02 2.3 C 4.2 g/m*3 2.3 C 0 km/h
1668 22-01-2010 21:36:02 2.3 C 4.25 g/m*3 2.3 C 0 km/h
1669 22-01-2010 21:48:01 2.4 C 4.28 g/m*3 2.4 C 0 km/h
1670 22-01-2010 22:00:02 2.3 C 4.25 g/m*3 2.3 C 0 km/h
1671 22-01-2010 22:12:01 2.3 C 4.2 g/m*3 2.3 C 0 km/h
1672 22-01-2010 22:25:02 2.3 C 4.2 g/m*3 2.3 C 0 km/h
1673 22-01-2010 22:37:02 2.3 C 4.14 g/m*3 2.3 C 0 km/h
1674 22-01-2010 22:49:02 2.3 C 4.08 g/m*3 2.3 C 0 km/h
1675 22-01-2010 23:01:02 2.3 C 4.03 g/m*3 2.3 C 0 km/h
Sensor: Nr:Datum:Temp:Abs-Feuchte:Windchill:Wind:
Aussen-T/F 1676 22-01-2010 23:13:02 2.3 C 4.03 g/m*3 2.3 C 0 km/h
1677 22-01-2010 23:25:02 2.3 C 4.03 g/m*3 2.3 C 0 km/h
1678 22-01-2010 23:37:02 2.2 C 4 g/m*3 2.2 C 0 km/h
1679 22-01-2010 23:49:02 2.2 C 3.94 g/m*3 2.2 C 0 km/h
1680 23-01-2010 00:01:02 2.2 C 3.89 g/m*3 2.2 C 0 km/h
1681 23-01-2010 00:13:02 1.8 C 3.84 g/m*3 1.8 C 0 km/h
1682 23-01-2010 00:25:02 1.5 C 3.76 g/m*3 1.5 C 0 km/h
1683 23-01-2010 00:37:02 1.2 C 3.68 g/m*3 1.2 C 0 km/h
1684 23-01-2010 00:49:02 1.1 C 3.71 g/m*3 1.1 C 0 km/h
1685 23-01-2010 01:01:02 1 C 3.69 g/m*3 1 C 0 km/h
1686 23-01-2010 01:13:02 0.9 C 3.66 g/m*3 0.9 C 0 km/h
1687 23-01-2010 01:25:02 0.8 C 3.69 g/m*3 0.8 C 0 km/h
1688 23-01-2010 01:37:02 0.7 C 3.61 g/m*3 0.7 C 0 km/h
1689 23-01-2010 01:49:03 0.6 C 3.59 g/m*3 0.6 C 0 km/h
1690 23-01-2010 02:01:03 0.5 C 3.61 g/m*3 0.5 C 0 km/h
1691 23-01-2010 02:13:03 0.4 C 3.59 g/m*3 0.4 C 0 km/h
1692 23-01-2010 02:25:03 0.5 C 3.61 g/m*3 0.5 C 0 km/h
1693 23-01-2010 02:37:03 0.4 C 3.59 g/m*3 0.4 C 0 km/h
1694 23-01-2010 02:49:03 0.4 C 3.59 g/m*3 0.4 C 0 km/h
1695 23-01-2010 03:01:03 0.4 C 3.64 g/m*3 0.4 C 0 km/h
1696 23-01-2010 03:13:03 0.4 C 3.64 g/m*3 0.4 C 0 km/h
1697 23-01-2010 03:25:03 0.4 C 3.64 g/m*3 0.4 C 0 km/h
1698 23-01-2010 03:37:03 0.3 C 3.61 g/m*3 0.3 C 0 km/h
1699 23-01-2010 03:49:03 0.2 C 3.59 g/m*3 0.2 C 0 km/h
1700 23-01-2010 04:01:03 0.1 C 3.56 g/m*3 0.1 C 0 km/h
Sensor: Nr:Datum:Temp:Abs-Feuchte:Windchill:Wind:
Aussen-T/F 1701 23-01-2010 04:13:03 0 C 3.59 g/m*3 0 C 0 km/h
1702 23-01-2010 04:25:03 -0.1 C 3.56 g/m*3 -0.1 C 0 km/h
1703 23-01-2010 04:37:03 -0.2 C 3.54 g/m*3 -0.2 C 0 km/h
1704 23-01-2010 04:49:03 -0.2 C 3.54 g/m*3 -0.2 C 0 km/h
1705 23-01-2010 05:01:03 -0.3 C 3.51 g/m*3 -0.3 C 0 km/h
1706 23-01-2010 05:13:03 -0.3 C 3.51 g/m*3 -0.3 C 0 km/h
1707 23-01-2010 05:25:03 -0.3 C 3.51 g/m*3 -0.3 C 0 km/h
1708 23-01-2010 05:37:03 -0.4 C 3.44 g/m*3 -0.4 C 0 km/h
1709 23-01-2010 05:49:03 -0.5 C 3.46 g/m*3 -0.5 C 0 km/h
1710 23-01-2010 06:01:04 -0.5 C 3.46 g/m*3 -0.5 C 0 km/h
1711 23-01-2010 06:13:04 -0.6 C 3.44 g/m*3 -0.6 C 0 km/h
1712 23-01-2010 06:25:04 -0.5 C 3.46 g/m*3 -0.5 C 0 km/h
1713 23-01-2010 06:37:04 -0.6 C 3.44 g/m*3 -0.6 C 0 km/h
1714 23-01-2010 06:49:04 -0.7 C 3.42 g/m*3 -0.7 C 0 km/h
1715 23-01-2010 07:01:04 -1 C 3.35 g/m*3 -1 C 0 km/h
1716 23-01-2010 07:13:04 -1 C 3.39 g/m*3 -1 C 0 km/h
1717 23-01-2010 07:25:04 -1 C 3.39 g/m*3 -1 C 0 km/h
1718 23-01-2010 07:37:04 -1.1 C 3.32 g/m*3 -1.1 C 0 km/h
1719 23-01-2010 07:49:04 -1.1 C 3.37 g/m*3 -1.1 C 0 km/h
1720 23-01-2010 08:01:04 -1 C 3.35 g/m*3 -1 C 0 km/h
1721 23-01-2010 08:13:04 -1.1 C 3.32 g/m*3 -1.1 C 0 km/h
1722 23-01-2010 08:25:02 -1.1 C 3.28 g/m*3 -1.1 C 0 km/h
1723 23-01-2010 08:37:02 -1.1 C 3.23 g/m*3 -1.1 C 0 km/h
1724 23-01-2010 08:49:01 -1.1 C 3.23 g/m*3 -1.1 C 0 km/h
1725 23-01-2010 09:01:02 -1 C 3.25 g/m*3 -1 C 0 km/h
Sensor: Nr:Datum:Temp:Abs-Feuchte:Windchill:Wind:
Aussen-T/F 1726 23-01-2010 09:13:02 -1 C 3.21 g/m*3 -1 C 0 km/h
1727 23-01-2010 09:25:02 -1 C 3.21 g/m*3 -1 C 0 km/h
1728 23-01-2010 09:37:02 -1.1 C 3.19 g/m*3 -1.1 C 0 km/h
1729 23-01-2010 09:49:03 -1.2 C 3.17 g/m*3 -1.2 C 0 km/h
1730 23-01-2010 10:01:03 -1.2 C 3.17 g/m*3 -1.2 C 0 km/h
1731 23-01-2010 10:13:03 -1.1 C 3.19 g/m*3 -1.1 C 0 km/h
1732 23-01-2010 10:25:02 -1.1 C 3.19 g/m*3 -1.1 C 0 km/h
1733 23-01-2010 10:37:03 -1.2 C 3.12 g/m*3 -1.2 C 0 km/h
1734 23-01-2010 10:49:02 -1 C 3.21 g/m*3 -1 C 0 km/h
1735 23-01-2010 11:01:02 -1 C 3.16 g/m*3 -1 C 0 km/h
1736 23-01-2010 11:13:02 -1 C 3.16 g/m*3 -1 C 0 km/h
1737 23-01-2010 11:25:02 -0.9 C 3.19 g/m*3 -0.9 C 0 km/h
1738 23-01-2010 11:37:02 -0.6 C 3.25 g/m*3 -0.6 C 0 km/h
1739 23-01-2010 11:49:02 -0.8 C 3.16 g/m*3 -0.8 C 0 km/h
1740 23-01-2010 12:01:03 -0.9 C 3.19 g/m*3 -0.9 C 0 km/h
1741 23-01-2010 12:13:03 -0.8 C 3.21 g/m*3 -0.8 C 0 km/h
1742 23-01-2010 12:25:02 -0.7 C 3.23 g/m*3 -0.7 C 0 km/h
1743 23-01-2010 12:37:02 -0.6 C 3.25 g/m*3 -0.6 C 0 km/h
1744 23-01-2010 12:49:01 -0.5 C 3.28 g/m*3 -0.5 C 0 km/h
1745 23-01-2010 13:01:02 -0.6 C 3.25 g/m*3 -0.6 C 0 km/h
1746 23-01-2010 13:13:02 -0.5 C 3.28 g/m*3 -0.5 C 0 km/h
1747 23-01-2010 13:25:01 -0.6 C 3.25 g/m*3 -0.6 C 0 km/h
1748 23-01-2010 13:37:02 -0.5 C 3.28 g/m*3 -0.5 C 0 km/h
1749 23-01-2010 13:49:01 -0.4 C 3.3 g/m*3 -0.4 C 0 km/h
1750 23-01-2010 14:01:02 -0.3 C 3.32 g/m*3 -0.3 C 0 km/h
Sensor: Nr:Datum:Temp:Abs-Feuchte:Windchill:Wind:
Aussen-T/F 1751 23-01-2010 14:13:02 -0.3 C 3.32 g/m*3 -0.3 C 0 km/h
1752 23-01-2010 14:25:01 -0.3 C 3.27 g/m*3 -0.3 C 0 km/h
1753 23-01-2010 14:37:02 -0.3 C 3.27 g/m*3 -0.3 C 0 km/h
1754 23-01-2010 14:49:01 -0.3 C 3.32 g/m*3 -0.3 C 0 km/h
1755 23-01-2010 15:01:02 -0.5 C 3.28 g/m*3 -0.5 C 0 km/h
1756 23-01-2010 15:13:02 -0.6 C 3.25 g/m*3 -0.6 C 0 km/h
1757 23-01-2010 15:25:02 -0.6 C 3.25 g/m*3 -0.6 C 0 km/h
1758 23-01-2010 15:37:02 -0.6 C 3.3 g/m*3 -0.6 C 0 km/h
1759 23-01-2010 15:49:02 -0.6 C 3.3 g/m*3 -0.6 C 0 km/h
1760 23-01-2010 16:01:02 -0.5 C 3.32 g/m*3 -0.5 C 0 km/h
1761 23-01-2010 16:13:02 -0.6 C 3.3 g/m*3 -0.6 C 0 km/h
1762 23-01-2010 16:25:02 -0.7 C 3.28 g/m*3 -0.7 C 0 km/h
1763 23-01-2010 16:37:01 -0.7 C 3.32 g/m*3 -0.7 C 0 km/h
1764 23-01-2010 16:49:02 -0.7 C 3.32 g/m*3 -0.7 C 0 km/h
1765 23-01-2010 17:01:01 -0.7 C 3.32 g/m*3 -0.7 C 0 km/h
1766 23-01-2010 17:13:01 -0.6 C 3.35 g/m*3 -0.6 C 0 km/h
1767 23-01-2010 17:25:02 -0.6 C 3.35 g/m*3 -0.6 C 0 km/h
1768 23-01-2010 17:37:01 -0.5 C 3.42 g/m*3 -0.5 C 0 km/h
1769 23-01-2010 17:49:02 -0.6 C 3.35 g/m*3 -0.6 C 0 km/h
1770 23-01-2010 18:01:02 -0.5 C 3.37 g/m*3 -0.5 C 0 km/h
1771 23-01-2010 18:13:02 -0.6 C 3.35 g/m*3 -0.6 C 0 km/h
1772 23-01-2010 18:25:02 -0.6 C 3.35 g/m*3 -0.6 C 0 km/h
1773 23-01-2010 18:37:03 -0.7 C 3.32 g/m*3 -0.7 C 0 km/h
1774 23-01-2010 18:49:02 -0.8 C 3.3 g/m*3 -0.8 C 0 km/h
1775 23-01-2010 19:01:01 -0.8 C 3.3 g/m*3 -0.8 C 0 km/h
Sensor: Nr:Datum:Temp:Abs-Feuchte:Windchill:Wind:
Aussen-T/F 1776 23-01-2010 19:13:01 -0.7 C 3.32 g/m*3 -0.7 C 0 km/h
1777 23-01-2010 19:25:02 -0.7 C 3.32 g/m*3 -0.7 C 0 km/h
1778 23-01-2010 19:37:02 -0.7 C 3.28 g/m*3 -0.7 C 0 km/h
1779 23-01-2010 19:49:02 -0.6 C 3.3 g/m*3 -0.6 C 0 km/h
1780 23-01-2010 20:01:03 -0.7 C 3.23 g/m*3 -0.7 C 0 km/h
1781 23-01-2010 20:13:03 -0.7 C 3.23 g/m*3 -0.7 C 0 km/h
1782 23-01-2010 20:25:02 -0.7 C 3.23 g/m*3 -0.7 C 0 km/h
1783 23-01-2010 20:37:02 -0.6 C 3.25 g/m*3 -0.6 C 0 km/h
1784 23-01-2010 20:49:02 -0.6 C 3.25 g/m*3 -0.6 C 0 km/h
1785 23-01-2010 21:01:02 -0.6 C 3.25 g/m*3 -0.6 C 0 km/h
1786 23-01-2010 21:13:02 -0.6 C 3.25 g/m*3 -0.6 C 0 km/h
1787 23-01-2010 21:25:01 -0.5 C 3.28 g/m*3 -0.5 C 0 km/h
1788 23-01-2010 21:37:02 -0.6 C 3.25 g/m*3 -0.6 C 0 km/h
1789 23-01-2010 21:49:02 -0.6 C 3.25 g/m*3 -0.6 C 0 km/h
1790 23-01-2010 22:01:02 -0.5 C 3.28 g/m*3 -0.5 C 0 km/h
1791 23-01-2010 22:13:02 -0.5 C 3.28 g/m*3 -0.5 C 0 km/h
1792 23-01-2010 22:26:02 -0.5 C 3.28 g/m*3 -0.5 C 0 km/h
1793 23-01-2010 22:38:02 -0.5 C 3.28 g/m*3 -0.5 C 0 km/h
1794 23-01-2010 22:50:02 -0.5 C 3.28 g/m*3 -0.5 C 0 km/h
1795 23-01-2010 23:02:02 -0.5 C 3.28 g/m*3 -0.5 C 0 km/h
1796 23-01-2010 23:14:02 -0.5 C 3.23 g/m*3 -0.5 C 0 km/h
1797 23-01-2010 23:26:02 -0.5 C 3.28 g/m*3 -0.5 C 0 km/h
1798 23-01-2010 23:38:02 -0.3 C 3.32 g/m*3 -0.3 C 0 km/h
1799 23-01-2010 23:50:02 -0.5 C 3.23 g/m*3 -0.5 C 0 km/h
1800 24-01-2010 00:02:02 -0.5 C 3.23 g/m*3 -0.5 C 0 km/h
Sensor: Nr:Datum:Temp:Abs-Feuchte:Windchill:Wind:
Aussen-T/F 1801 24-01-2010 00:14:02 -0.5 C 3.23 g/m*3 -0.5 C 0 km/h
1802 24-01-2010 00:26:02 -0.5 C 3.23 g/m*3 -0.5 C 0 km/h
1803 24-01-2010 00:38:02 -0.5 C 3.23 g/m*3 -0.5 C 0 km/h
1804 24-01-2010 00:50:02 -0.5 C 3.28 g/m*3 -0.5 C 0 km/h
1805 24-01-2010 01:02:02 -0.5 C 3.23 g/m*3 -0.5 C 0 km/h
1806 24-01-2010 01:14:03 -0.5 C 3.23 g/m*3 -0.5 C 0 km/h
1807 24-01-2010 01:26:03 -0.5 C 3.23 g/m*3 -0.5 C 0 km/h
1808 24-01-2010 01:38:03 -0.5 C 3.23 g/m*3 -0.5 C 0 km/h
1809 24-01-2010 01:50:03 -0.5 C 3.28 g/m*3 -0.5 C 0 km/h
1810 24-01-2010 02:02:03 -0.5 C 3.23 g/m*3 -0.5 C 0 km/h
1811 24-01-2010 02:14:03 -0.5 C 3.23 g/m*3 -0.5 C 0 km/h
1812 24-01-2010 02:26:03 -0.5 C 3.23 g/m*3 -0.5 C 0 km/h
1813 24-01-2010 02:38:03 -0.3 C 3.32 g/m*3 -0.3 C 0 km/h
1814 24-01-2010 02:50:03 -0.5 C 3.28 g/m*3 -0.5 C 0 km/h
1815 24-01-2010 03:02:03 -0.6 C 3.35 g/m*3 -0.6 C 0 km/h
1816 24-01-2010 03:14:03 -0.6 C 3.39 g/m*3 -0.6 C 0 km/h
1817 24-01-2010 03:26:03 -0.5 C 3.46 g/m*3 -0.5 C 0 km/h
1818 24-01-2010 03:38:03 -0.6 C 3.44 g/m*3 -0.6 C 0 km/h
1819 24-01-2010 03:50:03 -0.6 C 3.49 g/m*3 -0.6 C 0 km/h
1820 24-01-2010 04:02:03 -0.6 C 3.53 g/m*3 -0.6 C 0 km/h
1821 24-01-2010 04:14:03 -0.6 C 3.58 g/m*3 -0.6 C 0 km/h
1822 24-01-2010 04:26:03 -0.5 C 3.65 g/m*3 -0.5 C 0 km/h
1823 24-01-2010 04:38:03 -0.4 C 3.68 g/m*3 -0.4 C 0 km/h
1824 24-01-2010 04:50:03 -0.3 C 3.7 g/m*3 -0.3 C 0 km/h
1825 24-01-2010 05:02:03 -0.3 C 3.75 g/m*3 -0.3 C 0 km/h
Sensor: Nr:Datum:Temp:Abs-Feuchte:Windchill:Wind:
Aussen-T/F 1826 24-01-2010 05:14:03 -0.3 C 3.75 g/m*3 -0.3 C 0 km/h
1827 24-01-2010 05:26:04 -0.3 C 3.8 g/m*3 -0.3 C 0 km/h
1828 24-01-2010 05:38:04 -0.3 C 3.8 g/m*3 -0.3 C 0 km/h
1829 24-01-2010 05:50:04 -0.3 C 3.8 g/m*3 -0.3 C 0 km/h
1830 24-01-2010 06:02:04 -0.4 C 3.82 g/m*3 -0.4 C 0 km/h
1831 24-01-2010 06:14:04 -0.5 C 3.79 g/m*3 -0.5 C 0 km/h
1832 24-01-2010 06:26:04 -0.4 C 3.86 g/m*3 -0.4 C 0 km/h
1833 24-01-2010 06:38:04 -0.4 C 3.86 g/m*3 -0.4 C 0 km/h
1834 24-01-2010 06:50:04 -0.4 C 3.86 g/m*3 -0.4 C 0 km/h
1835 24-01-2010 07:02:04 -0.4 C 3.86 g/m*3 -0.4 C 0 km/h
1836 24-01-2010 07:14:04 -0.5 C 3.88 g/m*3 -0.5 C 0 km/h
1837 24-01-2010 07:26:04 -0.4 C 3.91 g/m*3 -0.4 C 0 km/h
1838 24-01-2010 07:38:04 -0.5 C 3.88 g/m*3 -0.5 C 0 km/h
1839 24-01-2010 07:50:04 -0.5 C 3.93 g/m*3 -0.5 C 0 km/h
1840 24-01-2010 08:02:04 -0.6 C 3.9 g/m*3 -0.6 C 0 km/h
1841 24-01-2010 08:14:04 -0.5 C 3.98 g/m*3 -0.5 C 0 km/h
1842 24-01-2010 08:26:04 -0.4 C 4.01 g/m*3 -0.4 C 0 km/h
1843 24-01-2010 08:38:04 -0.4 C 4.01 g/m*3 -0.4 C 0 km/h
1844 24-01-2010 08:50:04 -0.4 C 4.05 g/m*3 -0.4 C 0 km/h
1845 24-01-2010 09:02:01 -0.4 C 4.05 g/m*3 -0.4 C 0 km/h
1846 24-01-2010 09:14:01 -0.3 C 4.08 g/m*3 -0.3 C 0 km/h
1847 24-01-2010 09:26:02 -0.3 C 4.08 g/m*3 -0.3 C 0 km/h
1848 24-01-2010 09:38:02 -0.2 C 4.11 g/m*3 -0.2 C 0 km/h
1849 24-01-2010 09:50:02 -0.1 C 4.14 g/m*3 -0.1 C 0 km/h
1850 24-01-2010 10:02:01 0.1 C 4.2 g/m*3 0.1 C 0 km/h
Sensor: Nr:Datum:Temp:Abs-Feuchte:Windchill:Wind:
Aussen-T/F 1851 24-01-2010 10:14:01 0.2 C 4.22 g/m*3 0.2 C 0 km/h
1852 24-01-2010 10:26:02 0.2 C 4.22 g/m*3 0.2 C 0 km/h
1853 24-01-2010 10:38:01 0.3 C 4.2 g/m*3 0.3 C 0 km/h
1854 24-01-2010 10:50:02 0.5 C 4.26 g/m*3 0.5 C 0 km/h
1855 24-01-2010 11:02:02 0.5 C 4.26 g/m*3 0.5 C 0 km/h
1856 24-01-2010 11:14:02 0.7 C 4.27 g/m*3 0.7 C 0 km/h
1857 24-01-2010 11:26:02 0.9 C 4.33 g/m*3 0.9 C 0 km/h
1858 24-01-2010 11:38:02 0.9 C 4.28 g/m*3 0.9 C 0 km/h
1859 24-01-2010 11:50:02 0.9 C 4.23 g/m*3 0.9 C 0 km/h
1860 24-01-2010 12:02:02 0.8 C 4.15 g/m*3 0.8 C 0 km/h
1861 24-01-2010 12:14:02 0.8 C 4.15 g/m*3 0.8 C 0 km/h
1862 24-01-2010 12:26:02 0.8 C 4.15 g/m*3 0.8 C 0 km/h
1863 24-01-2010 12:38:02 1 C 4.2 g/m*3 1 C 0 km/h
1864 24-01-2010 12:50:02 1.1 C 4.23 g/m*3 1.1 C 0 km/h
1865 24-01-2010 13:02:01 1.1 C 4.23 g/m*3 1.1 C 0 km/h
1866 24-01-2010 13:14:01 1.2 C 4.31 g/m*3 1.2 C 0 km/h
1867 24-01-2010 13:26:02 1.2 C 4.31 g/m*3 1.2 C 0 km/h
1868 24-01-2010 13:38:01 1.4 C 4.43 g/m*3 1.4 C 0 km/h
1869 24-01-2010 13:50:01 1.4 C 4.43 g/m*3 1.4 C 0 km/h
1870 24-01-2010 14:02:01 1.6 C 4.49 g/m*3 1.6 C 0 km/h
1871 24-01-2010 14:14:01 1.7 C 4.52 g/m*3 1.7 C 0 km/h
1872 24-01-2010 14:26:01 1.6 C 4.49 g/m*3 1.6 C 0 km/h
1873 24-01-2010 14:38:02 1.7 C 4.52 g/m*3 1.7 C 0 km/h
1874 24-01-2010 14:50:02 1.5 C 4.4 g/m*3 1.5 C 0 km/h
1875 24-01-2010 15:02:02 1.4 C 4.37 g/m*3 1.4 C 0 km/h
Sensor: Nr:Datum:Temp:Abs-Feuchte:Windchill:Wind:
Aussen-T/F 1876 24-01-2010 15:14:02 1.1 C 4.29 g/m*3 1.1 C 0 km/h
1877 24-01-2010 15:26:02 1.3 C 4.4 g/m*3 1.3 C 0 km/h
1878 24-01-2010 15:38:02 1.3 C 4.4 g/m*3 1.3 C 0 km/h
1879 24-01-2010 15:50:02 1.3 C 4.4 g/m*3 1.3 C 0 km/h
1880 24-01-2010 16:02:02 1.3 C 4.45 g/m*3 1.3 C 0 km/h
1881 24-01-2010 16:14:02 1.2 C 4.42 g/m*3 1.2 C 0 km/h
1882 24-01-2010 16:26:02 1.3 C 4.45 g/m*3 1.3 C 0 km/h
1883 24-01-2010 16:38:02 1.3 C 4.45 g/m*3 1.3 C 0 km/h
1884 24-01-2010 16:50:01 1.2 C 4.42 g/m*3 1.2 C 0 km/h
1885 24-01-2010 17:02:02 1.1 C 4.39 g/m*3 1.1 C 0 km/h
1886 24-01-2010 17:14:03 1 C 4.41 g/m*3 1 C 0 km/h
1887 24-01-2010 17:26:01 1 C 4.46 g/m*3 1 C 0 km/h
1888 24-01-2010 17:38:01 1 C 4.46 g/m*3 1 C 0 km/h
1889 24-01-2010 17:50:01 1 C 4.46 g/m*3 1 C 0 km/h
1890 24-01-2010 18:02:01 0.9 C 4.48 g/m*3 0.9 C 0 km/h
1891 24-01-2010 18:14:01 0.7 C 4.37 g/m*3 0.7 C 0 km/h
1892 24-01-2010 18:26:02 0.7 C 4.37 g/m*3 0.7 C 0 km/h
1893 24-01-2010 18:38:01 0.6 C 4.39 g/m*3 0.6 C 0 km/h
1894 24-01-2010 18:50:01 0.6 C 4.39 g/m*3 0.6 C 0 km/h
1895 24-01-2010 19:02:01 0.5 C 4.36 g/m*3 0.5 C 0 km/h
1896 24-01-2010 19:14:01 0.6 C 4.44 g/m*3 0.6 C 0 km/h
1897 24-01-2010 19:26:01 0.6 C 4.44 g/m*3 0.6 C 0 km/h
1898 24-01-2010 19:38:01 0.6 C 4.44 g/m*3 0.6 C 0 km/h
1899 24-01-2010 19:50:01 0.5 C 4.41 g/m*3 0.5 C 0 km/h
1900 24-01-2010 20:02:02 0.5 C 4.41 g/m*3 0.5 C 0 km/h
Sensor: Nr:Datum:Temp:Abs-Feuchte:Windchill:Wind:
Aussen-T/F 1901 24-01-2010 20:14:03 0.5 C 4.46 g/m*3 0.5 C 0 km/h
1902 24-01-2010 20:26:01 0.6 C 4.49 g/m*3 0.6 C 0 km/h
1903 24-01-2010 20:38:01 0.6 C 4.49 g/m*3 0.6 C 0 km/h
1904 24-01-2010 20:50:01 0.5 C 4.41 g/m*3 0.5 C 0 km/h
1905 24-01-2010 21:02:02 0.5 C 4.46 g/m*3 0.5 C 0 km/h
1906 24-01-2010 21:14:02 0.5 C 4.41 g/m*3 0.5 C 0 km/h
1907 24-01-2010 21:26:02 0.4 C 4.38 g/m*3 0.4 C 0 km/h
1908 24-01-2010 21:38:01 0.4 C 4.38 g/m*3 0.4 C 0 km/h
1909 24-01-2010 21:50:01 0.4 C 4.43 g/m*3 0.4 C 0 km/h
1910 24-01-2010 22:02:01 0.2 C 4.37 g/m*3 0.2 C 0 km/h
1911 24-01-2010 22:14:01 0.2 C 4.37 g/m*3 0.2 C 0 km/h
1912 24-01-2010 22:26:02 0.2 C 4.37 g/m*3 0.2 C 0 km/h
1913 24-01-2010 22:38:01 0.2 C 4.37 g/m*3 0.2 C 0 km/h
1914 24-01-2010 22:50:01 0.2 C 4.37 g/m*3 0.2 C 0 km/h
1915 24-01-2010 23:02:01 0.2 C 4.42 g/m*3 0.2 C 0 km/h
1916 24-01-2010 23:14:01 0.1 C 4.39 g/m*3 0.1 C 0 km/h
1917 24-01-2010 23:27:02 0.1 C 4.39 g/m*3 0.1 C 0 km/h
1918 24-01-2010 23:39:02 0.1 C 4.44 g/m*3 0.1 C 0 km/h
1919 24-01-2010 23:51:02 0.1 C 4.44 g/m*3 0.1 C 0 km/h
1920 25-01-2010 00:03:02 0.1 C 4.44 g/m*3 0.1 C 0 km/h
1921 25-01-2010 00:15:02 0.1 C 4.44 g/m*3 0.1 C 0 km/h
1922 25-01-2010 00:27:02 0.1 C 4.44 g/m*3 0.1 C 0 km/h
1923 25-01-2010 00:39:02 0.1 C 4.44 g/m*3 0.1 C 0 km/h
1924 25-01-2010 00:51:02 0.1 C 4.44 g/m*3 0.1 C 0 km/h
1925 25-01-2010 01:03:02 0.1 C 4.44 g/m*3 0.1 C 0 km/h
Sensor: Nr:Datum:Temp:Abs-Feuchte:Windchill:Wind:
Aussen-T/F 1926 25-01-2010 01:15:02 0.1 C 4.44 g/m*3 0.1 C 0 km/h
1927 25-01-2010 01:27:02 0.1 C 4.44 g/m*3 0.1 C 0 km/h
1928 25-01-2010 01:39:02 0 C 4.41 g/m*3 0 C 0 km/h
1929 25-01-2010 01:51:02 0 C 4.46 g/m*3 0 C 0 km/h
1930 25-01-2010 02:03:02 0 C 4.46 g/m*3 0 C 0 km/h
1931 25-01-2010 02:15:02 0 C 4.46 g/m*3 0 C 0 km/h
1932 25-01-2010 02:27:02 0 C 4.46 g/m*3 0 C 0 km/h
1933 25-01-2010 02:39:03 0 C 4.46 g/m*3 0 C 0 km/h
1934 25-01-2010 02:51:03 0 C 4.46 g/m*3 0 C 0 km/h
1935 25-01-2010 03:03:03 0 C 4.46 g/m*3 0 C 0 km/h
1936 25-01-2010 03:15:03 -0.1 C 4.43 g/m*3 -0.1 C 0 km/h
1937 25-01-2010 03:27:03 -0.1 C 4.43 g/m*3 -0.1 C 0 km/h
1938 25-01-2010 03:39:03 -0.1 C 4.43 g/m*3 -0.1 C 0 km/h
1939 25-01-2010 03:51:03 -0.1 C 4.43 g/m*3 -0.1 C 0 km/h
1940 25-01-2010 04:03:03 -0.1 C 4.43 g/m*3 -0.1 C 0 km/h
1941 25-01-2010 04:15:03 -0.1 C 4.38 g/m*3 -0.1 C 0 km/h
1942 25-01-2010 04:27:03 -0.1 C 4.38 g/m*3 -0.1 C 0 km/h
1943 25-01-2010 04:39:03 -0.1 C 4.38 g/m*3 -0.1 C 0 km/h
1944 25-01-2010 04:51:03 -0.2 C 4.35 g/m*3 -0.2 C 0 km/h
1945 25-01-2010 05:03:03 -0.2 C 4.35 g/m*3 -0.2 C 0 km/h
1946 25-01-2010 05:15:03 -0.2 C 4.35 g/m*3 -0.2 C 0 km/h
1947 25-01-2010 05:27:03 -0.2 C 4.35 g/m*3 -0.2 C 0 km/h
1948 25-01-2010 05:39:03 -0.2 C 4.35 g/m*3 -0.2 C 0 km/h
1949 25-01-2010 05:51:03 -0.2 C 4.35 g/m*3 -0.2 C 0 km/h
1950 25-01-2010 06:03:03 -0.3 C 4.27 g/m*3 -0.3 C 0 km/h
Sensor: Nr:Datum:Temp:Abs-Feuchte:Windchill:Wind:
Aussen-T/F 1951 25-01-2010 06:15:03 -0.3 C 4.27 g/m*3 -0.3 C 0 km/h
1952 25-01-2010 06:27:03 -0.3 C 4.27 g/m*3 -0.3 C 0 km/h
1953 25-01-2010 06:39:04 -0.3 C 4.27 g/m*3 -0.3 C 0 km/h
1954 25-01-2010 06:51:04 -0.3 C 4.27 g/m*3 -0.3 C 0 km/h
1955 25-01-2010 07:03:01 -0.3 C 4.27 g/m*3 -0.3 C 0 km/h
1956 25-01-2010 07:15:02 -0.3 C 4.22 g/m*3 -0.3 C 0 km/h
1957 25-01-2010 07:27:02 -0.4 C 4.19 g/m*3 -0.4 C 0 km/h
1958 25-01-2010 07:39:01 -0.5 C 4.17 g/m*3 -0.5 C 0 km/h
1959 25-01-2010 07:51:03 -0.5 C 4.17 g/m*3 -0.5 C 0 km/h
1960 25-01-2010 08:03:02 -0.6 C 4.14 g/m*3 -0.6 C 0 km/h
1961 25-01-2010 08:15:02 -0.7 C 4.11 g/m*3 -0.7 C 0 km/h
1962 25-01-2010 08:27:03 -0.7 C 4.11 g/m*3 -0.7 C 0 km/h
1963 25-01-2010 08:39:02 -0.7 C 4.11 g/m*3 -0.7 C 0 km/h
1964 25-01-2010 08:51:02 -0.6 C 4.14 g/m*3 -0.6 C 0 km/h
1965 25-01-2010 09:03:02 -0.3 C 4.18 g/m*3 -0.3 C 0 km/h
1966 25-01-2010 09:15:02 -0.3 C 4.18 g/m*3 -0.3 C 0 km/h
1967 25-01-2010 09:27:02 -0.3 C 4.18 g/m*3 -0.3 C 0 km/h
1968 25-01-2010 09:39:02 -0.3 C 4.13 g/m*3 -0.3 C 0 km/h
1969 25-01-2010 09:51:02 -0.3 C 4.08 g/m*3 -0.3 C 0 km/h
1970 25-01-2010 10:03:03 -0.2 C 4.01 g/m*3 -0.2 C 0 km/h
1971 25-01-2010 10:15:02 -0.1 C 4.04 g/m*3 -0.1 C 0 km/h
1972 25-01-2010 10:27:02 0 C 4.02 g/m*3 0 C 0 km/h
1973 25-01-2010 10:39:02 0.1 C 4.05 g/m*3 0.1 C 0 km/h
1974 25-01-2010 10:51:01 0.2 C 4.08 g/m*3 0.2 C 0 km/h
1975 25-01-2010 11:03:02 0.3 C 4.06 g/m*3 0.3 C 0 km/h
Sensor: Nr:Datum:Temp:Abs-Feuchte:Windchill:Wind:
Aussen-T/F 1976 25-01-2010 11:15:01 0.4 C 4.13 g/m*3 0.4 C 0 km/h
1977 25-01-2010 11:27:01 0.4 C 4.08 g/m*3 0.4 C 0 km/h
1978 25-01-2010 11:39:02 0.4 C 4.03 g/m*3 0.4 C 0 km/h
1979 25-01-2010 11:51:01 0.6 C 4.09 g/m*3 0.6 C 0 km/h
1980 25-01-2010 12:03:02 0.7 C 4.12 g/m*3 0.7 C 0 km/h
1981 25-01-2010 12:15:01 0.9 C 4.12 g/m*3 0.9 C 0 km/h
1982 25-01-2010 12:27:01 1.2 C 4.16 g/m*3 1.2 C 0 km/h
1983 25-01-2010 12:39:02 1.2 C 4.05 g/m*3 1.2 C 0 km/h
1984 25-01-2010 12:51:01 1.1 C 3.87 g/m*3 1.1 C 0 km/h
1985 25-01-2010 13:03:02 1 C 3.84 g/m*3 1 C 0 km/h
1986 25-01-2010 13:15:02 1 C 3.84 g/m*3 1 C 0 km/h
1987 25-01-2010 13:27:02 0.9 C 3.87 g/m*3 0.9 C 0 km/h
1988 25-01-2010 13:39:01 1 C 3.84 g/m*3 1 C 0 km/h
1989 25-01-2010 13:51:02 1.2 C 3.95 g/m*3 1.2 C 0 km/h
1990 25-01-2010 14:03:01 1.2 C 3.95 g/m*3 1.2 C 0 km/h
1991 25-01-2010 14:15:02 1.2 C 3.95 g/m*3 1.2 C 0 km/h
1992 25-01-2010 14:27:03 1.1 C 3.92 g/m*3 1.1 C 0 km/h
1993 25-01-2010 14:39:01 1.1 C 3.92 g/m*3 1.1 C 0 km/h
1994 25-01-2010 14:51:02 1 C 3.94 g/m*3 1 C 0 km/h
1995 25-01-2010 15:03:02 1 C 3.94 g/m*3 1 C 0 km/h
1996 25-01-2010 15:15:02 1 C 3.94 g/m*3 1 C 0 km/h
1997 25-01-2010 15:27:02 0.8 C 3.99 g/m*3 0.8 C 0 km/h
1998 25-01-2010 15:39:02 1 C 4.05 g/m*3 1 C 0 km/h
1999 25-01-2010 15:51:02 1.1 C 4.13 g/m*3 1.1 C 0 km/h
2000 25-01-2010 16:03:01 1 C 4.1 g/m*3 1 C 0 km/h
Sensor: Nr:Datum:Temp:Abs-Feuchte:Windchill:Wind:
Aussen-T/F 2001 25-01-2010 16:15:02 0.9 C 4.18 g/m*3 0.9 C 0 km/h
2002 25-01-2010 16:27:02 0.7 C 4.12 g/m*3 0.7 C 0 km/h
2003 25-01-2010 16:39:02 0.7 C 4.17 g/m*3 0.7 C 0 km/h
2004 25-01-2010 16:51:02 0.7 C 4.17 g/m*3 0.7 C 0 km/h
2005 25-01-2010 17:03:01 0.6 C 4.14 g/m*3 0.6 C 0 km/h
2006 25-01-2010 17:15:01 0.5 C 4.11 g/m*3 0.5 C 0 km/h
2007 25-01-2010 17:27:01 0.4 C 4.08 g/m*3 0.4 C 0 km/h
2008 25-01-2010 17:39:02 0.3 C 4.11 g/m*3 0.3 C 0 km/h
2009 25-01-2010 17:51:02 0.2 C 4.13 g/m*3 0.2 C 0 km/h
2010 25-01-2010 18:03:03 0.2 C 4.13 g/m*3 0.2 C 0 km/h
2011 25-01-2010 18:15:02 0.2 C 4.22 g/m*3 0.2 C 0 km/h
2012 25-01-2010 18:27:02 0 C 4.22 g/m*3 0 C 0 km/h
2013 25-01-2010 18:39:01 0 C 4.26 g/m*3 0 C 0 km/h
2014 25-01-2010 18:51:02 -0.2 C 4.21 g/m*3 -0.2 C 0 km/h
2015 25-01-2010 19:03:01 -0.4 C 4.19 g/m*3 -0.4 C 0 km/h
2016 25-01-2010 19:15:02 -0.5 C 4.21 g/m*3 -0.5 C 0 km/h
2017 25-01-2010 19:27:02 -0.5 C 4.21 g/m*3 -0.5 C 0 km/h
2018 25-01-2010 19:39:02 -0.5 C 4.26 g/m*3 -0.5 C 0 km/h
2019 25-01-2010 19:51:02 -0.6 C 4.23 g/m*3 -0.6 C 0 km/h
2020 25-01-2010 20:03:03 -0.5 C 4.26 g/m*3 -0.5 C 0 km/h
2021 25-01-2010 20:15:02 -0.6 C 4.23 g/m*3 -0.6 C 0 km/h
2022 25-01-2010 20:27:02 -0.6 C 4.23 g/m*3 -0.6 C 0 km/h
2023 25-01-2010 20:39:02 -0.7 C 4.2 g/m*3 -0.7 C 0 km/h
2024 25-01-2010 20:51:01 -0.8 C 4.17 g/m*3 -0.8 C 0 km/h
2025 25-01-2010 21:03:02 -0.7 C 4.2 g/m*3 -0.7 C 0 km/h
Sensor: Nr:Datum:Temp:Abs-Feuchte:Windchill:Wind:
Aussen-T/F 2026 25-01-2010 21:15:01 -0.6 C 4.23 g/m*3 -0.6 C 0 km/h
2027 25-01-2010 21:27:01 -0.7 C 4.15 g/m*3 -0.7 C 0 km/h
2028 25-01-2010 21:39:02 -0.7 C 4.15 g/m*3 -0.7 C 0 km/h
2029 25-01-2010 21:51:02 -0.8 C 4.08 g/m*3 -0.8 C 0 km/h
2030 25-01-2010 22:03:02 -0.7 C 4.11 g/m*3 -0.7 C 0 km/h
2031 25-01-2010 22:15:02 -0.6 C 4.14 g/m*3 -0.6 C 0 km/h
2032 25-01-2010 22:27:02 -0.8 C 4.03 g/m*3 -0.8 C 0 km/h
2033 25-01-2010 22:40:03 -0.7 C 4.06 g/m*3 -0.7 C 0 km/h
2034 25-01-2010 22:52:03 -0.9 C 4.01 g/m*3 -0.9 C 0 km/h
2035 25-01-2010 23:04:03 -0.9 C 3.96 g/m*3 -0.9 C 0 km/h
2036 25-01-2010 23:16:03 -0.8 C 4.03 g/m*3 -0.8 C 0 km/h
2037 25-01-2010 23:28:03 -0.9 C 3.96 g/m*3 -0.9 C 0 km/h
2038 25-01-2010 23:40:03 -1 C 3.93 g/m*3 -1 C 0 km/h
2039 25-01-2010 23:52:03 -1 C 3.93 g/m*3 -1 C 0 km/h
2040 26-01-2010 00:04:03 -1.1 C 3.91 g/m*3 -1.1 C 0 km/h
2041 26-01-2010 00:16:03 -1.1 C 3.91 g/m*3 -1.1 C 0 km/h
2042 26-01-2010 00:28:03 -1.1 C 3.91 g/m*3 -1.1 C 0 km/h
2043 26-01-2010 00:40:03 -1.1 C 3.91 g/m*3 -1.1 C 0 km/h
2044 26-01-2010 00:52:03 -1.4 C 3.82 g/m*3 -1.4 C 0 km/h
2045 26-01-2010 01:04:03 -1.5 C 3.84 g/m*3 -1.5 C 0 km/h
2046 26-01-2010 01:16:03 -1.6 C 3.81 g/m*3 -1.6 C 0 km/h
2047 26-01-2010 01:28:03 -1.4 C 3.87 g/m*3 -1.4 C 0 km/h
2048 26-01-2010 01:40:04 -1.7 C 3.79 g/m*3 -1.7 C 0 km/h
2049 26-01-2010 01:52:04 -1.6 C 3.81 g/m*3 -1.6 C 0 km/h
2050 26-01-2010 02:04:04 -1.5 C 3.84 g/m*3 -1.5 C 0 km/h
Sensor: Nr:Datum:Temp:Abs-Feuchte:Windchill:Wind:
Aussen-T/F 2051 26-01-2010 02:16:04 -1.7 C 3.79 g/m*3 -1.7 C 0 km/h
2052 26-01-2010 02:28:04 -1.8 C 3.76 g/m*3 -1.8 C 0 km/h
2053 26-01-2010 02:40:04 -1.8 C 3.76 g/m*3 -1.8 C 0 km/h
2054 26-01-2010 02:52:04 -1.9 C 3.74 g/m*3 -1.9 C 0 km/h
2055 26-01-2010 03:04:04 -1.7 C 3.79 g/m*3 -1.7 C 0 km/h
2056 26-01-2010 03:16:04 -1.7 C 3.79 g/m*3 -1.7 C 0 km/h
2057 26-01-2010 03:28:04 -1.8 C 3.76 g/m*3 -1.8 C 0 km/h
2058 26-01-2010 03:40:04 -2.1 C 3.68 g/m*3 -2.1 C 0 km/h
2059 26-01-2010 03:52:04 -2 C 3.75 g/m*3 -2 C 0 km/h
2060 26-01-2010 04:04:04 -2.1 C 3.73 g/m*3 -2.1 C 0 km/h
2061 26-01-2010 04:16:04 -2.1 C 3.73 g/m*3 -2.1 C 0 km/h
2062 26-01-2010 04:28:04 -2.1 C 3.73 g/m*3 -2.1 C 0 km/h
2063 26-01-2010 04:40:04 -2.2 C 3.66 g/m*3 -2.2 C 0 km/h
2064 26-01-2010 04:52:04 -2.2 C 3.66 g/m*3 -2.2 C 0 km/h
2065 26-01-2010 05:04:04 -2.2 C 3.66 g/m*3 -2.2 C 0 km/h
2066 26-01-2010 05:16:04 -2.1 C 3.68 g/m*3 -2.1 C 0 km/h
2067 26-01-2010 05:28:04 -2.2 C 3.66 g/m*3 -2.2 C 0 km/h
2068 26-01-2010 05:40:05 -2.1 C 3.68 g/m*3 -2.1 C 0 km/h
2069 26-01-2010 05:52:05 -2.3 C 3.59 g/m*3 -2.3 C 0 km/h
2070 26-01-2010 06:04:05 -2.3 C 3.59 g/m*3 -2.3 C 0 km/h
2071 26-01-2010 06:16:05 -2.3 C 3.59 g/m*3 -2.3 C 0 km/h
2072 26-01-2010 06:28:05 -2.3 C 3.59 g/m*3 -2.3 C 0 km/h
2073 26-01-2010 06:40:05 -2.4 C 3.57 g/m*3 -2.4 C 0 km/h
2074 26-01-2010 06:52:05 -2.4 C 3.57 g/m*3 -2.4 C 0 km/h
2075 26-01-2010 07:04:02 -2.3 C 3.59 g/m*3 -2.3 C 0 km/h
Sensor: Nr:Datum:Temp:Abs-Feuchte:Windchill:Wind:
Aussen-T/F 2076 26-01-2010 07:16:02 -2.2 C 3.62 g/m*3 -2.2 C 0 km/h
2077 26-01-2010 07:28:02 -2.1 C 3.64 g/m*3 -2.1 C 0 km/h
2078 26-01-2010 07:40:02 -2.1 C 3.6 g/m*3 -2.1 C 0 km/h
2079 26-01-2010 07:52:02 -2.1 C 3.56 g/m*3 -2.1 C 0 km/h
2080 26-01-2010 08:04:02 -2.1 C 3.52 g/m*3 -2.1 C 0 km/h
2081 26-01-2010 08:16:02 -2.7 C 3.21 g/m*3 -2.7 C 0 km/h
2082 26-01-2010 08:28:02 -2.8 C 3.11 g/m*3 -2.8 C 0 km/h
2083 26-01-2010 08:40:02 -3 C 2.99 g/m*3 -3 C 0 km/h
2084 26-01-2010 08:52:02 -3.3 C 2.81 g/m*3 -3.3 C 0 km/h
2085 26-01-2010 09:04:02 -3.3 C 2.81 g/m*3 -3.3 C 0 km/h
2086 26-01-2010 09:16:02 -3.3 C 2.77 g/m*3 -3.3 C 0 km/h
2087 26-01-2010 09:28:02 -3.3 C 2.73 g/m*3 -3.3 C 0 km/h
2088 26-01-2010 09:40:02 -3.8 C 2.49 g/m*3 -3.8 C 0 km/h
2089 26-01-2010 09:52:02 -3.9 C 2.47 g/m*3 -3.9 C 0 km/h
2090 26-01-2010 10:04:02 -3.7 C 2.47 g/m*3 -3.7 C 0 km/h
2091 26-01-2010 10:16:02 -3.5 C 2.46 g/m*3 -3.5 C 0 km/h
2092 26-01-2010 10:28:02 -3.5 C 2.39 g/m*3 -3.5 C 0 km/h
2093 26-01-2010 10:40:02 -3.2 C 2.44 g/m*3 -3.2 C 0 km/h
2094 26-01-2010 10:52:01 -3.2 C 2.4 g/m*3 -3.2 C 0 km/h
2095 26-01-2010 11:04:01 -3.3 C 2.31 g/m*3 -3.3 C 0 km/h
2096 26-01-2010 11:16:02 -3.4 C 2.29 g/m*3 -3.4 C 0 km/h
2097 26-01-2010 11:28:02 -3.1 C 2.38 g/m*3 -3.1 C 0 km/h
2098 26-01-2010 11:40:01 -2.8 C 2.43 g/m*3 -2.8 C 0 km/h
2099 26-01-2010 11:52:02 -2.7 C 2.45 g/m*3 -2.7 C 0 km/h
2100 26-01-2010 12:04:02 -2.9 C 2.37 g/m*3 -2.9 C 0 km/h
Sensor: Nr:Datum:Temp:Abs-Feuchte:Windchill:Wind:
Aussen-T/F 2101 26-01-2010 12:16:03 -2.7 C 2.41 g/m*3 -2.7 C 0 km/h
2102 26-01-2010 12:28:03 -2.7 C 2.37 g/m*3 -2.7 C 0 km/h
2103 26-01-2010 12:40:02 -2.5 C 2.36 g/m*3 -2.5 C 0 km/h
2104 26-01-2010 12:52:03 -2.5 C 2.36 g/m*3 -2.5 C 0 km/h
2105 26-01-2010 13:04:02 -3 C 2.24 g/m*3 -3 C 0 km/h
2106 26-01-2010 13:16:02 -3 C 2.24 g/m*3 -3 C 0 km/h
2107 26-01-2010 13:28:02 -2.5 C 2.36 g/m*3 -2.5 C 0 km/h
2108 26-01-2010 13:40:02 -2.1 C 2.34 g/m*3 -2.1 C 0 km/h
2109 26-01-2010 13:52:02 -1.7 C 2.37 g/m*3 -1.7 C 0 km/h
2110 26-01-2010 14:04:02 -1.4 C 2.37 g/m*3 -1.4 C 0 km/h
2111 26-01-2010 14:16:02 -1.1 C 2.38 g/m*3 -1.1 C 0 km/h
2112 26-01-2010 14:28:02 -0.9 C 2.37 g/m*3 -0.9 C 0 km/h
2113 26-01-2010 14:40:01 -0.9 C 2.32 g/m*3 -0.9 C 0 km/h
2114 26-01-2010 14:52:02 -1.1 C 2.29 g/m*3 -1.1 C 0 km/h
2115 26-01-2010 15:04:01 -1 C 2.35 g/m*3 -1 C 0 km/h
2116 26-01-2010 15:16:02 -0.7 C 2.4 g/m*3 -0.7 C 0 km/h
2117 26-01-2010 15:28:02 -1.1 C 2.29 g/m*3 -1.1 C 0 km/h
2118 26-01-2010 15:40:02 -1.4 C 2.29 g/m*3 -1.4 C 0 km/h
2119 26-01-2010 15:52:02 -1.6 C 2.34 g/m*3 -1.6 C 0 km/h
2120 26-01-2010 16:04:02 -1.9 C 2.33 g/m*3 -1.9 C 0 km/h
2121 26-01-2010 16:16:02 -2.1 C 2.34 g/m*3 -2.1 C 0 km/h
2122 26-01-2010 16:28:02 -2.4 C 2.34 g/m*3 -2.4 C 0 km/h
2123 26-01-2010 16:40:03 -2.8 C 2.31 g/m*3 -2.8 C 0 km/h
2124 26-01-2010 16:52:02 -3 C 2.32 g/m*3 -3 C 0 km/h
2125 26-01-2010 17:04:02 -3.3 C 2.31 g/m*3 -3.3 C 0 km/h
Sensor: Nr:Datum:Temp:Abs-Feuchte:Windchill:Wind:
Aussen-T/F 2126 26-01-2010 17:16:01 -3.5 C 2.31 g/m*3 -3.5 C 0 km/h
2127 26-01-2010 17:28:01 -3.7 C 2.32 g/m*3 -3.7 C 0 km/h
2128 26-01-2010 17:40:02 -4.1 C 2.29 g/m*3 -4.1 C 0 km/h
2129 26-01-2010 17:52:02 -4.3 C 2.33 g/m*3 -4.3 C 0 km/h
2130 26-01-2010 18:04:02 -4.6 C 2.31 g/m*3 -4.6 C 0 km/h
2131 26-01-2010 18:16:02 -4.8 C 2.31 g/m*3 -4.8 C 0 km/h
2132 26-01-2010 18:28:02 -4.9 C 2.33 g/m*3 -4.9 C 0 km/h
2133 26-01-2010 18:40:02 -4.9 C 2.37 g/m*3 -4.9 C 0 km/h
2134 26-01-2010 18:52:01 -5.1 C 2.3 g/m*3 -5.1 C 0 km/h
2135 26-01-2010 19:04:02 -5.3 C 2.3 g/m*3 -5.3 C 0 km/h
2136 26-01-2010 19:16:01 -5.4 C 2.32 g/m*3 -5.4 C 0 km/h
2137 26-01-2010 19:28:01 -5.6 C 2.28 g/m*3 -5.6 C 0 km/h
2138 26-01-2010 19:40:01 -5.7 C 2.3 g/m*3 -5.7 C 0 km/h
2139 26-01-2010 19:52:01 -5.9 C 2.3 g/m*3 -5.9 C 0 km/h
2140 26-01-2010 20:04:02 -6 C 2.31 g/m*3 -6 C 0 km/h
2141 26-01-2010 20:16:01 -6 C 2.34 g/m*3 -6 C 0 km/h
2142 26-01-2010 20:28:01 -6.2 C 2.31 g/m*3 -6.2 C 0 km/h
2143 26-01-2010 20:40:01 -6.4 C 2.28 g/m*3 -6.4 C 0 km/h
2144 26-01-2010 20:52:01 -6.4 C 2.28 g/m*3 -6.4 C 0 km/h
2145 26-01-2010 21:04:02 -6.6 C 2.27 g/m*3 -6.6 C 0 km/h
2146 26-01-2010 21:16:02 -6.7 C 2.26 g/m*3 -6.7 C 0 km/h
2147 26-01-2010 21:28:02 -6.9 C 2.22 g/m*3 -6.9 C 0 km/h
2148 26-01-2010 21:40:01 -7 C 2.21 g/m*3 -7 C 0 km/h
2149 26-01-2010 21:52:01 -6.9 C 2.25 g/m*3 -6.9 C 0 km/h
2150 26-01-2010 22:04:01 -7 C 2.27 g/m*3 -7 C 0 km/h
Sensor: Nr:Datum:Temp:Abs-Feuchte:Windchill:Wind:
Aussen-T/F 2151 26-01-2010 22:16:01 -7.1 C 2.25 g/m*3 -7.1 C 0 km/h
2152 26-01-2010 22:28:01 -7.2 C 2.23 g/m*3 -7.2 C 0 km/h
2153 26-01-2010 22:40:02 -7.1 C 2.25 g/m*3 -7.1 C 0 km/h
2154 26-01-2010 22:52:02 -7.2 C 2.23 g/m*3 -7.2 C 0 km/h
2155 26-01-2010 23:04:02 -7.5 C 2.16 g/m*3 -7.5 C 0 km/h
2156 26-01-2010 23:16:02 -7.6 C 2.14 g/m*3 -7.6 C 0 km/h
2157 26-01-2010 23:28:02 -7.7 C 2.13 g/m*3 -7.7 C 0 km/h
2158 26-01-2010 23:40:02 -7.7 C 2.13 g/m*3 -7.7 C 0 km/h
2159 26-01-2010 23:52:01 -8.1 C 2.06 g/m*3 -8.1 C 0 km/h
2160 27-01-2010 00:04:02 -8.2 C 2.05 g/m*3 -8.2 C 0 km/h
2161 27-01-2010 00:16:01 -8.3 C 2.03 g/m*3 -8.3 C 0 km/h
2162 27-01-2010 00:28:01 -8.2 C 2.07 g/m*3 -8.2 C 0 km/h
2163 27-01-2010 00:40:02 -8.3 C 2.06 g/m*3 -8.3 C 0 km/h
2164 27-01-2010 00:53:02 -8.6 C 2.01 g/m*3 -8.6 C 0 km/h
2165 27-01-2010 01:05:02 -8.8 C 1.98 g/m*3 -8.8 C 0 km/h
2166 27-01-2010 01:17:02 -8.9 C 1.97 g/m*3 -8.9 C 0 km/h
2167 27-01-2010 01:29:02 -8.9 C 1.97 g/m*3 -8.9 C 0 km/h
2168 27-01-2010 01:41:02 -8.9 C 1.97 g/m*3 -8.9 C 0 km/h
2169 27-01-2010 01:53:02 -9.2 C 1.93 g/m*3 -9.2 C 0 km/h
2170 27-01-2010 02:05:02 -9.3 C 1.91 g/m*3 -9.3 C 0 km/h
2171 27-01-2010 02:17:02 -9.1 C 1.94 g/m*3 -9.1 C 0 km/h
2172 27-01-2010 02:29:02 -9.3 C 1.91 g/m*3 -9.3 C 0 km/h
2173 27-01-2010 02:41:02 -9.4 C 1.9 g/m*3 -9.4 C 0 km/h
2174 27-01-2010 02:53:02 -9.4 C 1.9 g/m*3 -9.4 C 0 km/h
2175 27-01-2010 03:05:02 -9.3 C 1.91 g/m*3 -9.3 C 0 km/h
Sensor: Nr:Datum:Temp:Abs-Feuchte:Windchill:Wind:
Aussen-T/F 2176 27-01-2010 03:17:02 -9.1 C 1.94 g/m*3 -9.1 C 0 km/h
2177 27-01-2010 03:29:02 -9.1 C 1.94 g/m*3 -9.1 C 0 km/h
2178 27-01-2010 03:41:02 -8.9 C 1.97 g/m*3 -8.9 C 0 km/h
2179 27-01-2010 03:53:03 -8.9 C 1.94 g/m*3 -8.9 C 0 km/h
2180 27-01-2010 04:05:03 -8.8 C 1.96 g/m*3 -8.8 C 0 km/h
2181 27-01-2010 04:17:03 -8.8 C 1.93 g/m*3 -8.8 C 0 km/h
2182 27-01-2010 04:29:03 -8.5 C 2 g/m*3 -8.5 C 0 km/h
2183 27-01-2010 04:41:03 -8.4 C 2.02 g/m*3 -8.4 C 0 km/h
2184 27-01-2010 04:53:03 -8.4 C 2.02 g/m*3 -8.4 C 0 km/h
2185 27-01-2010 05:05:03 -8.4 C 2.04 g/m*3 -8.4 C 0 km/h
2186 27-01-2010 05:17:03 -8.4 C 2.02 g/m*3 -8.4 C 0 km/h
2187 27-01-2010 05:29:03 -8.6 C 1.96 g/m*3 -8.6 C 0 km/h
2188 27-01-2010 05:41:03 -8.7 C 1.92 g/m*3 -8.7 C 0 km/h
2189 27-01-2010 05:53:03 -8.8 C 1.91 g/m*3 -8.8 C 0 km/h
2190 27-01-2010 06:05:03 -8.7 C 1.95 g/m*3 -8.7 C 0 km/h
2191 27-01-2010 06:17:03 -8.8 C 1.93 g/m*3 -8.8 C 0 km/h
2192 27-01-2010 06:29:03 -8.9 C 1.92 g/m*3 -8.9 C 0 km/h
2193 27-01-2010 06:41:03 -9.1 C 1.89 g/m*3 -9.1 C 0 km/h
2194 27-01-2010 06:53:03 -9.2 C 1.88 g/m*3 -9.2 C 0 km/h
2195 27-01-2010 07:05:01 -9.4 C 1.82 g/m*3 -9.4 C 0 km/h
2196 27-01-2010 07:17:02 -9.3 C 1.84 g/m*3 -9.3 C 0 km/h
2197 27-01-2010 07:29:02 -9.1 C 1.89 g/m*3 -9.1 C 0 km/h
2198 27-01-2010 07:41:02 -9.1 C 1.89 g/m*3 -9.1 C 0 km/h
2199 27-01-2010 07:53:01 -9.2 C 1.88 g/m*3 -9.2 C 0 km/h
2200 27-01-2010 08:05:02 -9.3 C 1.84 g/m*3 -9.3 C 0 km/h
Sensor: Nr:Datum:Temp:Abs-Feuchte:Windchill:Wind:
Aussen-T/F 2201 27-01-2010 08:17:01 -9.2 C 1.88 g/m*3 -9.2 C 0 km/h
2202 27-01-2010 08:29:01 -9.2 C 1.88 g/m*3 -9.2 C 0 km/h
2203 27-01-2010 08:41:02 -9.2 C 1.88 g/m*3 -9.2 C 0 km/h
2204 27-01-2010 08:53:02 -9.3 C 1.86 g/m*3 -9.3 C 0 km/h
2205 27-01-2010 09:05:02 -9.2 C 1.88 g/m*3 -9.2 C 0 km/h
2206 27-01-2010 09:17:01 -9 C 1.88 g/m*3 -9 C 0 km/h
2207 27-01-2010 09:29:01 -8.8 C 1.91 g/m*3 -8.8 C 0 km/h
2208 27-01-2010 09:41:02 -8.6 C 1.91 g/m*3 -8.6 C 0 km/h
2209 27-01-2010 09:53:02 -8.6 C 1.88 g/m*3 -8.6 C 0 km/h
2210 27-01-2010 10:05:02 -8.7 C 1.84 g/m*3 -8.7 C 0 km/h
2211 27-01-2010 10:17:01 -8.6 C 1.86 g/m*3 -8.6 C 0 km/h
2212 27-01-2010 10:29:01 -8.4 C 1.88 g/m*3 -8.4 C 0 km/h
2213 27-01-2010 10:41:02 -7.8 C 1.94 g/m*3 -7.8 C 0 km/h
2214 27-01-2010 10:53:02 -7.5 C 1.96 g/m*3 -7.5 C 0 km/h
2215 27-01-2010 11:05:02 -6.9 C 2.02 g/m*3 -6.9 C 0 km/h
2216 27-01-2010 11:17:01 -7 C 1.94 g/m*3 -7 C 0 km/h
2217 27-01-2010 11:29:01 -6.9 C 1.96 g/m*3 -6.9 C 0 km/h
2218 27-01-2010 11:41:02 -6.5 C 2.02 g/m*3 -6.5 C 0 km/h
2219 27-01-2010 11:53:02 -5.8 C 2.09 g/m*3 -5.8 C 0 km/h
2220 27-01-2010 12:05:02 -5.3 C 2.13 g/m*3 -5.3 C 0 km/h
2221 27-01-2010 12:17:02 -5.1 C 2.1 g/m*3 -5.1 C 0 km/h
2222 27-01-2010 12:29:02 -4.7 C 2.16 g/m*3 -4.7 C 0 km/h
2223 27-01-2010 12:41:02 -4.2 C 2.16 g/m*3 -4.2 C 0 km/h
2224 27-01-2010 12:53:01 -3.9 C 2.14 g/m*3 -3.9 C 0 km/h
2225 27-01-2010 13:05:02 -4.5 C 1.98 g/m*3 -4.5 C 0 km/h
Sensor: Nr:Datum:Temp:Abs-Feuchte:Windchill:Wind:
Aussen-T/F 2226 27-01-2010 13:17:02 -4.4 C 2.06 g/m*3 -4.4 C 0 km/h
2227 27-01-2010 13:29:02 -3.9 C 2.1 g/m*3 -3.9 C 0 km/h
2228 27-01-2010 13:41:01 -3.3 C 2.19 g/m*3 -3.3 C 0 km/h
2229 27-01-2010 13:53:02 -2.6 C 2.34 g/m*3 -2.6 C 0 km/h
2230 27-01-2010 14:05:01 -2.2 C 2.37 g/m*3 -2.2 C 0 km/h
2231 27-01-2010 14:17:02 -2.4 C 2.25 g/m*3 -2.4 C 0 km/h
2232 27-01-2010 14:29:02 -2.2 C 2.33 g/m*3 -2.2 C 0 km/h
2233 27-01-2010 14:41:01 -2.1 C 2.34 g/m*3 -2.1 C 0 km/h
2234 27-01-2010 14:53:02 -2 C 2.44 g/m*3 -2 C 0 km/h
2235 27-01-2010 15:05:01 -2 C 2.44 g/m*3 -2 C 0 km/h
2236 27-01-2010 15:17:01 -2.1 C 2.43 g/m*3 -2.1 C 0 km/h
2237 27-01-2010 15:29:02 -2.1 C 2.47 g/m*3 -2.1 C 0 km/h
2238 27-01-2010 15:41:01 -2.3 C 2.44 g/m*3 -2.3 C 0 km/h
2239 27-01-2010 15:53:02 -2.2 C 2.45 g/m*3 -2.2 C 0 km/h
2240 27-01-2010 16:05:01 -2.1 C 2.39 g/m*3 -2.1 C 0 km/h
2241 27-01-2010 16:17:02 -2.1 C 2.39 g/m*3 -2.1 C 0 km/h
2242 27-01-2010 16:29:02 -2 C 2.32 g/m*3 -2 C 0 km/h
2243 27-01-2010 16:41:02 -2.1 C 2.26 g/m*3 -2.1 C 0 km/h
2244 27-01-2010 16:53:02 -2.1 C 2.18 g/m*3 -2.1 C 0 km/h
2245 27-01-2010 17:05:01 -2.3 C 2.06 g/m*3 -2.3 C 0 km/h
2246 27-01-2010 17:17:02 -2.4 C 2.13 g/m*3 -2.4 C 0 km/h
2247 27-01-2010 17:29:02 -2.4 C 2.17 g/m*3 -2.4 C 0 km/h
2248 27-01-2010 17:41:02 -2.4 C 2.21 g/m*3 -2.4 C 0 km/h
2249 27-01-2010 17:53:02 -2.4 C 2.21 g/m*3 -2.4 C 0 km/h
2250 27-01-2010 18:05:02 -2.3 C 2.27 g/m*3 -2.3 C 0 km/h
Sensor: Nr:Datum:Temp:Abs-Feuchte:Windchill:Wind:
Aussen-T/F 2251 27-01-2010 18:17:02 -2.4 C 2.29 g/m*3 -2.4 C 0 km/h
2252 27-01-2010 18:29:02 -2.3 C 2.31 g/m*3 -2.3 C 0 km/h
2253 27-01-2010 18:41:02 -2.3 C 2.35 g/m*3 -2.3 C 0 km/h
2254 27-01-2010 18:53:02 -2.3 C 2.39 g/m*3 -2.3 C 0 km/h
2255 27-01-2010 19:05:02 -2.1 C 2.39 g/m*3 -2.1 C 0 km/h
2256 27-01-2010 19:17:03 -2 C 2.4 g/m*3 -2 C 0 km/h
2257 27-01-2010 19:29:03 -1.9 C 2.42 g/m*3 -1.9 C 0 km/h
2258 27-01-2010 19:41:02 -1.6 C 2.34 g/m*3 -1.6 C 0 km/h
2259 27-01-2010 19:53:02 -1.6 C 2.38 g/m*3 -1.6 C 0 km/h
2260 27-01-2010 20:05:02 -1.7 C 2.37 g/m*3 -1.7 C 0 km/h
2261 27-01-2010 20:17:02 -2 C 2.57 g/m*3 -2 C 0 km/h
2262 27-01-2010 20:29:02 -2 C 2.57 g/m*3 -2 C 0 km/h
2263 27-01-2010 20:41:02 -1.9 C 2.59 g/m*3 -1.9 C 0 km/h
2264 27-01-2010 20:53:02 -1.9 C 2.55 g/m*3 -1.9 C 0 km/h
2265 27-01-2010 21:05:02 -1.9 C 2.55 g/m*3 -1.9 C 0 km/h
2266 27-01-2010 21:17:02 -2 C 2.66 g/m*3 -2 C 0 km/h
2267 27-01-2010 21:29:02 -1.8 C 2.61 g/m*3 -1.8 C 0 km/h
2268 27-01-2010 21:41:02 -2 C 2.66 g/m*3 -2 C 0 km/h
2269 27-01-2010 21:53:02 -1.9 C 2.67 g/m*3 -1.9 C 0 km/h
2270 27-01-2010 22:06:03 -2 C 2.74 g/m*3 -2 C 0 km/h
2271 27-01-2010 22:18:03 -2 C 2.74 g/m*3 -2 C 0 km/h
2272 27-01-2010 22:30:03 -1.9 C 2.67 g/m*3 -1.9 C 0 km/h
2273 27-01-2010 22:42:03 -1.9 C 2.67 g/m*3 -1.9 C 0 km/h
2274 27-01-2010 22:54:03 -1.9 C 2.72 g/m*3 -1.9 C 0 km/h
2275 27-01-2010 23:06:03 -2 C 2.82 g/m*3 -2 C 0 km/h
Sensor: Nr:Datum:Temp:Abs-Feuchte:Windchill:Wind:
Aussen-T/F 2276 27-01-2010 23:18:03 -2 C 2.91 g/m*3 -2 C 0 km/h
2277 27-01-2010 23:30:03 -2 C 2.87 g/m*3 -2 C 0 km/h
2278 27-01-2010 23:42:03 -2.1 C 2.89 g/m*3 -2.1 C 0 km/h
2279 27-01-2010 23:54:03 -2.2 C 2.95 g/m*3 -2.2 C 0 km/h
2280 28-01-2010 00:06:03 -2.1 C 2.93 g/m*3 -2.1 C 0 km/h
2281 28-01-2010 00:18:03 -2 C 2.99 g/m*3 -2 C 0 km/h
2282 28-01-2010 00:30:03 -2.1 C 3.06 g/m*3 -2.1 C 0 km/h
2283 28-01-2010 00:42:03 -2 C 3.16 g/m*3 -2 C 0 km/h
2284 28-01-2010 00:54:03 -1.9 C 3.18 g/m*3 -1.9 C 0 km/h
2285 28-01-2010 01:06:03 -2 C 3.25 g/m*3 -2 C 0 km/h
2286 28-01-2010 01:18:03 -2.1 C 3.43 g/m*3 -2.1 C 0 km/h
2287 28-01-2010 01:30:03 -2 C 3.5 g/m*3 -2 C 0 km/h
2288 28-01-2010 01:42:03 -1.7 C 3.57 g/m*3 -1.7 C 0 km/h
2289 28-01-2010 01:54:03 -1.4 C 3.56 g/m*3 -1.4 C 0 km/h
2290 28-01-2010 02:06:04 -1.2 C 3.52 g/m*3 -1.2 C 0 km/h
2291 28-01-2010 02:18:04 -1.1 C 3.5 g/m*3 -1.1 C 0 km/h
2292 28-01-2010 02:30:04 -1.1 C 3.46 g/m*3 -1.1 C 0 km/h
2293 28-01-2010 02:42:04 -1.1 C 3.46 g/m*3 -1.1 C 0 km/h
2294 28-01-2010 02:54:04 -1 C 3.53 g/m*3 -1 C 0 km/h
2295 28-01-2010 03:06:04 -1 C 3.53 g/m*3 -1 C 0 km/h
2296 28-01-2010 03:18:04 -0.9 C 3.55 g/m*3 -0.9 C 0 km/h
2297 28-01-2010 03:30:04 -0.9 C 3.55 g/m*3 -0.9 C 0 km/h
2298 28-01-2010 03:42:04 -0.9 C 3.6 g/m*3 -0.9 C 0 km/h
2299 28-01-2010 03:54:04 -0.9 C 3.64 g/m*3 -0.9 C 0 km/h
2300 28-01-2010 04:06:04 -0.9 C 3.69 g/m*3 -0.9 C 0 km/h
Sensor: Nr:Datum:Temp:Abs-Feuchte:Windchill:Wind:
Aussen-T/F 2301 28-01-2010 04:18:04 -0.8 C 3.71 g/m*3 -0.8 C 0 km/h
2302 28-01-2010 04:30:04 -0.7 C 3.78 g/m*3 -0.7 C 0 km/h
2303 28-01-2010 04:42:04 -0.5 C 3.84 g/m*3 -0.5 C 0 km/h
2304 28-01-2010 04:54:04 -0.5 C 3.84 g/m*3 -0.5 C 0 km/h
2305 28-01-2010 05:06:04 -0.7 C 3.92 g/m*3 -0.7 C 0 km/h
2306 28-01-2010 05:18:04 -0.7 C 4.06 g/m*3 -0.7 C 0 km/h
2307 28-01-2010 05:30:04 -0.7 C 4.11 g/m*3 -0.7 C 0 km/h
2308 28-01-2010 05:42:04 -0.5 C 4.21 g/m*3 -0.5 C 0 km/h
2309 28-01-2010 05:54:04 0.1 C 4.44 g/m*3 0.1 C 0 km/h
2310 28-01-2010 06:06:05 0.3 C 4.5 g/m*3 0.3 C 0 km/h
2311 28-01-2010 06:18:05 0.4 C 4.53 g/m*3 0.4 C 0 km/h
2312 28-01-2010 06:30:05 1 C 4.67 g/m*3 1 C 0 km/h
2313 28-01-2010 06:42:05 1.5 C 4.62 g/m*3 1.5 C 0 km/h
2314 28-01-2010 06:54:05 1.3 C 4.45 g/m*3 1.3 C 0 km/h
2315 28-01-2010 07:06:03 1.3 C 4.34 g/m*3 1.3 C 0 km/h
2316 28-01-2010 07:18:02 1.2 C 4.31 g/m*3 1.2 C 0 km/h
2317 28-01-2010 07:30:02 1.1 C 4.29 g/m*3 1.1 C 0 km/h
2318 28-01-2010 07:42:02 1.1 C 4.29 g/m*3 1.1 C 0 km/h
2319 28-01-2010 07:54:01 1.2 C 4.31 g/m*3 1.2 C 0 km/h
2320 28-01-2010 08:06:02 1.1 C 4.34 g/m*3 1.1 C 0 km/h
2321 28-01-2010 08:18:01 1 C 4.36 g/m*3 1 C 0 km/h
2322 28-01-2010 08:30:01 1.4 C 4.48 g/m*3 1.4 C 0 km/h
2323 28-01-2010 08:42:01 1.4 C 4.48 g/m*3 1.4 C 0 km/h
2324 28-01-2010 08:54:01 1.5 C 4.46 g/m*3 1.5 C 0 km/h
2325 28-01-2010 09:06:01 1.5 C 4.46 g/m*3 1.5 C 0 km/h
Sensor: Nr:Datum:Temp:Abs-Feuchte:Windchill:Wind:
Aussen-T/F 2326 28-01-2010 09:18:02 1.6 C 4.43 g/m*3 1.6 C 0 km/h
2327 28-01-2010 09:30:02 1.7 C 4.41 g/m*3 1.7 C 0 km/h
2328 28-01-2010 09:42:01 1.8 C 4.39 g/m*3 1.8 C 0 km/h
2329 28-01-2010 09:54:02 1.9 C 4.42 g/m*3 1.9 C 0 km/h
2330 28-01-2010 10:06:01 2.1 C 4.31 g/m*3 2.1 C 0 km/h
2331 28-01-2010 10:18:02 2.2 C 4.22 g/m*3 2.2 C 0 km/h
2332 28-01-2010 10:30:02 2.4 C 4.17 g/m*3 2.4 C 0 km/h
2333 28-01-2010 10:42:01 2.6 C 4.11 g/m*3 2.6 C 0 km/h
2334 28-01-2010 10:54:02 2.8 C 4.05 g/m*3 2.8 C 0 km/h
2335 28-01-2010 11:06:02 3 C 3.98 g/m*3 3 C 0 km/h
2336 28-01-2010 11:18:02 2.8 C 3.99 g/m*3 2.8 C 0 km/h
2337 28-01-2010 11:30:02 2.6 C 3.99 g/m*3 2.6 C 0 km/h
2338 28-01-2010 11:42:01 2.5 C 4.02 g/m*3 2.5 C 0 km/h
2339 28-01-2010 11:54:02 2.8 C 4.05 g/m*3 2.8 C 0 km/h
2340 28-01-2010 12:06:01 3.3 C 3.94 g/m*3 3.3 C 0 km/h
2341 28-01-2010 12:18:01 3.1 C 3.89 g/m*3 3.1 C 0 km/h
2342 28-01-2010 12:30:01 3.4 C 3.91 g/m*3 3.4 C 0 km/h
2343 28-01-2010 12:42:02 3.3 C 3.82 g/m*3 3.3 C 0 km/h
2344 28-01-2010 12:54:02 2.9 C 3.96 g/m*3 2.9 C 0 km/h
2345 28-01-2010 13:06:02 2.9 C 4.07 g/m*3 2.9 C 0 km/h
2346 28-01-2010 13:18:02 3.3 C 4 g/m*3 3.3 C 0 km/h
2347 28-01-2010 13:30:02 3.5 C 3.87 g/m*3 3.5 C 0 km/h
2348 28-01-2010 13:42:02 3.6 C 3.71 g/m*3 3.6 C 0 km/h
2349 28-01-2010 13:54:02 3.6 C 3.71 g/m*3 3.6 C 0 km/h
2350 28-01-2010 14:06:02 2.7 C 3.9 g/m*3 2.7 C 0 km/h
Sensor: Nr:Datum:Temp:Abs-Feuchte:Windchill:Wind:
Aussen-T/F 2351 28-01-2010 14:18:02 2.3 C 4.14 g/m*3 2.3 C 0 km/h
2352 28-01-2010 14:30:02 2.1 C 4.2 g/m*3 2.1 C 0 km/h
2353 28-01-2010 14:42:02 1.8 C 4.44 g/m*3 1.8 C 0 km/h
2354 28-01-2010 14:54:02 2.1 C 4.59 g/m*3 2.1 C 0 km/h
2355 28-01-2010 15:06:02 2.1 C 4.42 g/m*3 2.1 C 0 km/h
2356 28-01-2010 15:18:03 2.3 C 4.2 g/m*3 2.3 C 0 km/h
2357 28-01-2010 15:30:03 3.1 C 3.95 g/m*3 3.1 C 0 km/h
2358 28-01-2010 15:42:02 3 C 3.75 g/m*3 3 C 0 km/h
2359 28-01-2010 15:54:02 3 C 3.69 g/m*3 3 C 0 km/h
2360 28-01-2010 16:06:02 3 C 3.69 g/m*3 3 C 0 km/h
2361 28-01-2010 16:18:02 3 C 3.63 g/m*3 3 C 0 km/h
2362 28-01-2010 16:30:02 2.9 C 3.72 g/m*3 2.9 C 0 km/h
2363 28-01-2010 16:42:02 2.8 C 3.75 g/m*3 2.8 C 0 km/h
2364 28-01-2010 16:54:02 2.7 C 3.79 g/m*3 2.7 C 0 km/h
2365 28-01-2010 17:06:02 2.6 C 3.88 g/m*3 2.6 C 0 km/h
2366 28-01-2010 17:18:02 2.4 C 3.88 g/m*3 2.4 C 0 km/h
2367 28-01-2010 17:30:02 2.4 C 3.94 g/m*3 2.4 C 0 km/h
2368 28-01-2010 17:42:02 2.4 C 4 g/m*3 2.4 C 0 km/h
2369 28-01-2010 17:54:02 1.8 C 4.17 g/m*3 1.8 C 0 km/h
2370 28-01-2010 18:06:02 1.7 C 4.3 g/m*3 1.7 C 0 km/h
2371 28-01-2010 18:18:02 1.5 C 4.35 g/m*3 1.5 C 0 km/h
2372 28-01-2010 18:30:02 1.1 C 4.34 g/m*3 1.1 C 0 km/h
2373 28-01-2010 18:42:02 1.2 C 4.53 g/m*3 1.2 C 0 km/h
2374 28-01-2010 18:54:02 1.2 C 4.58 g/m*3 1.2 C 0 km/h
2375 28-01-2010 19:06:01 1.2 C 4.58 g/m*3 1.2 C 0 km/h
Sensor: Nr:Datum:Temp:Abs-Feuchte:Windchill:Wind:
Aussen-T/F 2376 28-01-2010 19:18:02 1.2 C 4.58 g/m*3 1.2 C 0 km/h
2377 28-01-2010 19:30:02 1.4 C 4.59 g/m*3 1.4 C 0 km/h
2378 28-01-2010 19:42:02 1.5 C 4.51 g/m*3 1.5 C 0 km/h
2379 28-01-2010 19:54:01 1.5 C 4.4 g/m*3 1.5 C 0 km/h
2380 28-01-2010 20:06:01 1.7 C 4.36 g/m*3 1.7 C 0 km/h
2381 28-01-2010 20:18:01 1.7 C 4.3 g/m*3 1.7 C 0 km/h
2382 28-01-2010 20:30:01 1.6 C 4.27 g/m*3 1.6 C 0 km/h
2383 28-01-2010 20:42:02 1.6 C 4.22 g/m*3 1.6 C 0 km/h
2384 28-01-2010 20:54:02 1.5 C 4.19 g/m*3 1.5 C 0 km/h
2385 28-01-2010 21:06:02 1.5 C 4.19 g/m*3 1.5 C 0 km/h
2386 28-01-2010 21:18:02 1.7 C 4.25 g/m*3 1.7 C 0 km/h
2387 28-01-2010 21:30:02 1.6 C 4.22 g/m*3 1.6 C 0 km/h
2388 28-01-2010 21:42:02 1.5 C 4.19 g/m*3 1.5 C 0 km/h
2389 28-01-2010 21:54:01 1.6 C 4.22 g/m*3 1.6 C 0 km/h
2390 28-01-2010 22:06:01 1.6 C 4.22 g/m*3 1.6 C 0 km/h
2391 28-01-2010 22:18:02 1.7 C 4.19 g/m*3 1.7 C 0 km/h
2392 28-01-2010 22:30:02 1.7 C 4.19 g/m*3 1.7 C 0 km/h
2393 28-01-2010 22:42:02 1.6 C 4.16 g/m*3 1.6 C 0 km/h
2394 28-01-2010 22:54:02 1.7 C 4.14 g/m*3 1.7 C 0 km/h
2395 28-01-2010 23:06:02 1.6 C 4.11 g/m*3 1.6 C 0 km/h
2396 28-01-2010 23:18:02 1.6 C 4.16 g/m*3 1.6 C 0 km/h
2397 28-01-2010 23:30:02 1.6 C 4.16 g/m*3 1.6 C 0 km/h
2398 28-01-2010 23:42:02 1.6 C 4.16 g/m*3 1.6 C 0 km/h
2399 28-01-2010 23:54:02 1.4 C 4.21 g/m*3 1.4 C 0 km/h
2400 29-01-2010 00:06:02 1.4 C 4.27 g/m*3 1.4 C 0 km/h
Sensor: Nr:Datum:Temp:Abs-Feuchte:Windchill:Wind:
Aussen-T/F 2401 29-01-2010 00:18:02 1.4 C 4.27 g/m*3 1.4 C 0 km/h
2402 29-01-2010 00:30:02 1.5 C 4.3 g/m*3 1.5 C 0 km/h
2403 29-01-2010 00:42:02 1.5 C 4.24 g/m*3 1.5 C 0 km/h
2404 29-01-2010 00:54:02 1.5 C 4.3 g/m*3 1.5 C 0 km/h
2405 29-01-2010 01:06:02 1.5 C 4.3 g/m*3 1.5 C 0 km/h
2406 29-01-2010 01:18:02 1.4 C 4.32 g/m*3 1.4 C 0 km/h
2407 29-01-2010 01:30:02 1.4 C 4.32 g/m*3 1.4 C 0 km/h
2408 29-01-2010 01:42:02 1.4 C 4.37 g/m*3 1.4 C 0 km/h
2409 29-01-2010 01:54:02 1.3 C 4.34 g/m*3 1.3 C 0 km/h
2410 29-01-2010 02:06:02 1.1 C 4.39 g/m*3 1.1 C 0 km/h
2411 29-01-2010 02:18:02 1 C 4.41 g/m*3 1 C 0 km/h
2412 29-01-2010 02:30:03 1.1 C 4.49 g/m*3 1.1 C 0 km/h
2413 29-01-2010 02:42:03 1.1 C 4.49 g/m*3 1.1 C 0 km/h
2414 29-01-2010 02:54:03 1.1 C 4.55 g/m*3 1.1 C 0 km/h
2415 29-01-2010 03:06:03 1.3 C 4.56 g/m*3 1.3 C 0 km/h
2416 29-01-2010 03:18:03 1.3 C 4.56 g/m*3 1.3 C 0 km/h
2417 29-01-2010 03:30:03 1.3 C 4.56 g/m*3 1.3 C 0 km/h
2418 29-01-2010 03:42:03 1.3 C 4.56 g/m*3 1.3 C 0 km/h
2419 29-01-2010 03:54:03 1.3 C 4.56 g/m*3 1.3 C 0 km/h
2420 29-01-2010 04:06:03 1.3 C 4.56 g/m*3 1.3 C 0 km/h
2421 29-01-2010 04:18:03 1.4 C 4.59 g/m*3 1.4 C 0 km/h
2422 29-01-2010 04:30:03 1.3 C 4.56 g/m*3 1.3 C 0 km/h
2423 29-01-2010 04:42:03 1.4 C 4.59 g/m*3 1.4 C 0 km/h
2424 29-01-2010 04:54:03 1.3 C 4.56 g/m*3 1.3 C 0 km/h
2425 29-01-2010 05:06:03 1.2 C 4.58 g/m*3 1.2 C 0 km/h
Sensor: Nr:Datum:Temp:Abs-Feuchte:Windchill:Wind:
Aussen-T/F 2426 29-01-2010 05:18:03 1 C 4.57 g/m*3 1 C 0 km/h
2427 29-01-2010 05:30:03 1 C 4.62 g/m*3 1 C 0 km/h
2428 29-01-2010 05:42:03 0.9 C 4.64 g/m*3 0.9 C 0 km/h
2429 29-01-2010 05:54:03 0.9 C 4.69 g/m*3 0.9 C 0 km/h
2430 29-01-2010 06:06:03 0.9 C 4.69 g/m*3 0.9 C 0 km/h
2431 29-01-2010 06:18:03 0.9 C 4.74 g/m*3 0.9 C 0 km/h
2432 29-01-2010 06:30:03 1 C 4.72 g/m*3 1 C 0 km/h
2433 29-01-2010 06:42:04 1 C 4.67 g/m*3 1 C 0 km/h
2434 29-01-2010 06:54:04 1 C 4.67 g/m*3 1 C 0 km/h
2435 29-01-2010 07:06:01 1 C 4.62 g/m*3 1 C 0 km/h
2436 29-01-2010 07:18:02 1 C 4.62 g/m*3 1 C 0 km/h
2437 29-01-2010 07:30:02 1 C 4.57 g/m*3 1 C 0 km/h
2438 29-01-2010 07:42:01 1 C 4.57 g/m*3 1 C 0 km/h
2439 29-01-2010 07:54:02 1.2 C 4.58 g/m*3 1.2 C 0 km/h
2440 29-01-2010 08:06:01 1.4 C 4.53 g/m*3 1.4 C 0 km/h
2441 29-01-2010 08:18:01 1.5 C 4.46 g/m*3 1.5 C 0 km/h
2442 29-01-2010 08:30:01 1.6 C 4.43 g/m*3 1.6 C 0 km/h
2443 29-01-2010 08:42:01 1.6 C 4.38 g/m*3 1.6 C 0 km/h
2444 29-01-2010 08:54:02 1.5 C 4.4 g/m*3 1.5 C 0 km/h
2445 29-01-2010 09:06:01 1.5 C 4.4 g/m*3 1.5 C 0 km/h
2446 29-01-2010 09:18:01 1.6 C 4.43 g/m*3 1.6 C 0 km/h
2447 29-01-2010 09:30:01 1.7 C 4.46 g/m*3 1.7 C 0 km/h
2448 29-01-2010 09:42:02 1.8 C 4.44 g/m*3 1.8 C 0 km/h
2449 29-01-2010 09:54:01 1.9 C 4.42 g/m*3 1.9 C 0 km/h
2450 29-01-2010 10:06:02 2.1 C 4.36 g/m*3 2.1 C 0 km/h
Sensor: Nr:Datum:Temp:Abs-Feuchte:Windchill:Wind:
Aussen-T/F 2451 29-01-2010 10:18:01 2.1 C 4.36 g/m*3 2.1 C 0 km/h
2452 29-01-2010 10:30:01 2.2 C 4.39 g/m*3 2.2 C 0 km/h
2453 29-01-2010 10:42:01 2.3 C 4.42 g/m*3 2.3 C 0 km/h
2454 29-01-2010 10:54:01 2.4 C 4.4 g/m*3 2.4 C 0 km/h
2455 29-01-2010 11:06:01 2.5 C 4.37 g/m*3 2.5 C 0 km/h
2456 29-01-2010 11:18:01 2.5 C 4.37 g/m*3 2.5 C 0 km/h
2457 29-01-2010 11:30:01 2.6 C 4.4 g/m*3 2.6 C 0 km/h
2458 29-01-2010 11:42:01 2.7 C 4.37 g/m*3 2.7 C 0 km/h
2459 29-01-2010 11:54:01 2.7 C 4.31 g/m*3 2.7 C 0 km/h
2460 29-01-2010 12:06:01 2.8 C 4.34 g/m*3 2.8 C 0 km/h
2461 29-01-2010 12:18:02 2.8 C 4.34 g/m*3 2.8 C 0 km/h
2462 29-01-2010 12:30:02 2.8 C 4.34 g/m*3 2.8 C 0 km/h
2463 29-01-2010 12:42:01 2.8 C 4.34 g/m*3 2.8 C 0 km/h
2464 29-01-2010 12:54:02 2.8 C 4.4 g/m*3 2.8 C 0 km/h
2465 29-01-2010 13:06:01 2.7 C 4.37 g/m*3 2.7 C 0 km/h
2466 29-01-2010 13:18:02 2.7 C 4.43 g/m*3 2.7 C 0 km/h
2467 29-01-2010 13:30:02 2.7 C 4.43 g/m*3 2.7 C 0 km/h
2468 29-01-2010 13:42:01 2.7 C 4.43 g/m*3 2.7 C 0 km/h
2469 29-01-2010 13:54:02 2.5 C 4.43 g/m*3 2.5 C 0 km/h
2470 29-01-2010 14:06:01 2.4 C 4.51 g/m*3 2.4 C 0 km/h
2471 29-01-2010 14:18:01 2.2 C 4.56 g/m*3 2.2 C 0 km/h
2472 29-01-2010 14:30:01 2.2 C 4.56 g/m*3 2.2 C 0 km/h
2473 29-01-2010 14:42:02 2.2 C 4.56 g/m*3 2.2 C 0 km/h
2474 29-01-2010 14:54:01 2.2 C 4.51 g/m*3 2.2 C 0 km/h
2475 29-01-2010 15:06:01 2.1 C 4.53 g/m*3 2.1 C 0 km/h
Sensor: Nr:Datum:Temp:Abs-Feuchte:Windchill:Wind:
Aussen-T/F 2476 29-01-2010 15:18:01 2.1 C 4.53 g/m*3 2.1 C 0 km/h
2477 29-01-2010 15:30:01 2 C 4.56 g/m*3 2 C 0 km/h
2478 29-01-2010 15:42:02 2 C 4.56 g/m*3 2 C 0 km/h
2479 29-01-2010 15:54:01 2.1 C 4.53 g/m*3 2.1 C 0 km/h
2480 29-01-2010 16:06:01 2.1 C 4.53 g/m*3 2.1 C 0 km/h
2481 29-01-2010 16:18:01 2 C 4.5 g/m*3 2 C 0 km/h
2482 29-01-2010 16:30:01 1.8 C 4.55 g/m*3 1.8 C 0 km/h
2483 29-01-2010 16:42:02 1.6 C 4.54 g/m*3 1.6 C 0 km/h
2484 29-01-2010 16:54:01 1.6 C 4.65 g/m*3 1.6 C 0 km/h
2485 29-01-2010 17:06:02 1.5 C 4.67 g/m*3 1.5 C 0 km/h
2486 29-01-2010 17:18:01 1.4 C 4.69 g/m*3 1.4 C 0 km/h
2487 29-01-2010 17:30:01 1.3 C 4.72 g/m*3 1.3 C 0 km/h
2488 29-01-2010 17:42:02 1.3 C 4.72 g/m*3 1.3 C 0 km/h
2489 29-01-2010 17:54:02 1.2 C 4.74 g/m*3 1.2 C 0 km/h
2490 29-01-2010 18:06:01 1 C 4.67 g/m*3 1 C 0 km/h
2491 29-01-2010 18:18:01 0.9 C 4.69 g/m*3 0.9 C 0 km/h
2492 29-01-2010 18:30:01 0.8 C 4.71 g/m*3 0.8 C 0 km/h
2493 29-01-2010 18:42:01 0.8 C 4.71 g/m*3 0.8 C 0 km/h
2494 29-01-2010 18:54:01 0.7 C 4.73 g/m*3 0.7 C 0 km/h
2495 29-01-2010 19:06:01 0.7 C 4.78 g/m*3 0.7 C 0 km/h
2496 29-01-2010 19:18:01 0.8 C 4.81 g/m*3 0.8 C 0 km/h
2497 29-01-2010 19:30:01 0.8 C 4.81 g/m*3 0.8 C 0 km/h
2498 29-01-2010 19:42:02 0.8 C 4.81 g/m*3 0.8 C 0 km/h
2499 29-01-2010 19:54:01 0.8 C 4.81 g/m*3 0.8 C 0 km/h
2500 29-01-2010 20:06:02 0.8 C 4.81 g/m*3 0.8 C 0 km/h
Sensor: Nr:Datum:Temp:Abs-Feuchte:Windchill:Wind:
Aussen-T/F 2501 29-01-2010 20:18:01 0.8 C 4.76 g/m*3 0.8 C 0 km/h
2502 29-01-2010 20:30:01 0.7 C 4.73 g/m*3 0.7 C 0 km/h
2503 29-01-2010 20:42:01 0.7 C 4.68 g/m*3 0.7 C 0 km/h
2504 29-01-2010 20:54:01 0.7 C 4.68 g/m*3 0.7 C 0 km/h
2505 29-01-2010 21:06:01 0.6 C 4.6 g/m*3 0.6 C 0 km/h
2506 29-01-2010 21:18:01 0.5 C 4.51 g/m*3 0.5 C 0 km/h
2507 29-01-2010 21:30:01 0.4 C 4.48 g/m*3 0.4 C 0 km/h
2508 29-01-2010 21:42:01 0.5 C 4.56 g/m*3 0.5 C 0 km/h
2509 29-01-2010 21:54:01 0.4 C 4.48 g/m*3 0.4 C 0 km/h
2510 29-01-2010 22:06:01 0.3 C 4.35 g/m*3 0.3 C 0 km/h
2511 29-01-2010 22:18:01 0.1 C 4.2 g/m*3 0.1 C 0 km/h
2512 29-01-2010 22:30:01 0 C 4.12 g/m*3 0 C 0 km/h
2513 29-01-2010 22:42:01 0.1 C 4.1 g/m*3 0.1 C 0 km/h
2514 29-01-2010 22:54:01 0.2 C 4.13 g/m*3 0.2 C 0 km/h
2515 29-01-2010 23:06:01 0.3 C 4.16 g/m*3 0.3 C 0 km/h
2516 29-01-2010 23:20:12 0 C 4.12 g/m*3 0 C 0 km/h
2517 29-01-2010 23:32:12 -0.1 C 4.09 g/m*3 -0.1 C 0 km/h
2518 29-01-2010 23:44:12 -0.5 C 3.98 g/m*3 -0.5 C 0 km/h
2519 29-01-2010 23:56:12 -0.4 C 4.01 g/m*3 -0.4 C 0 km/h
2520 30-01-2010 00:08:12 -0.5 C 3.93 g/m*3 -0.5 C 0 km/h
2521 30-01-2010 00:20:12 -0.3 C 3.94 g/m*3 -0.3 C 0 km/h
2522 30-01-2010 00:32:12 -0.3 C 3.84 g/m*3 -0.3 C 0 km/h
2523 30-01-2010 00:44:12 -0.1 C 3.8 g/m*3 -0.1 C 0 km/h
2524 30-01-2010 00:56:12 0.1 C 3.81 g/m*3 0.1 C 0 km/h
2525 30-01-2010 01:08:12 -0.1 C 3.8 g/m*3 -0.1 C 0 km/h
Sensor: Nr:Datum:Temp:Abs-Feuchte:Windchill:Wind:
Aussen-T/F 2526 30-01-2010 01:20:12 -0.1 C 3.8 g/m*3 -0.1 C 0 km/h
2527 30-01-2010 01:32:12 -0.1 C 3.8 g/m*3 -0.1 C 0 km/h
2528 30-01-2010 01:44:12 -0.4 C 3.77 g/m*3 -0.4 C 0 km/h
2529 30-01-2010 01:56:12 -0.4 C 3.82 g/m*3 -0.4 C 0 km/h
2530 30-01-2010 02:08:12 -0.6 C 3.81 g/m*3 -0.6 C 0 km/h
2531 30-01-2010 02:20:12 -0.9 C 3.78 g/m*3 -0.9 C 0 km/h
2532 30-01-2010 02:32:12 -0.9 C 3.82 g/m*3 -0.9 C 0 km/h
2533 30-01-2010 02:44:12 -0.9 C 3.82 g/m*3 -0.9 C 0 km/h
2534 30-01-2010 02:56:12 -1 C 3.8 g/m*3 -1 C 0 km/h
2535 30-01-2010 03:08:12 -0.8 C 3.85 g/m*3 -0.8 C 0 km/h
2536 30-01-2010 03:20:12 -0.9 C 3.78 g/m*3 -0.9 C 0 km/h
2537 30-01-2010 03:32:12 -1.3 C 3.67 g/m*3 -1.3 C 0 km/h
2538 30-01-2010 03:44:13 -1.5 C 3.62 g/m*3 -1.5 C 0 km/h
2539 30-01-2010 03:56:13 -1.5 C 3.67 g/m*3 -1.5 C 0 km/h
2540 30-01-2010 04:08:13 -1.3 C 3.67 g/m*3 -1.3 C 0 km/h
2541 30-01-2010 04:20:13 -1.5 C 3.54 g/m*3 -1.5 C 0 km/h
2542 30-01-2010 04:32:13 -1.5 C 3.49 g/m*3 -1.5 C 0 km/h
2543 30-01-2010 04:44:13 -1.4 C 3.52 g/m*3 -1.4 C 0 km/h
2544 30-01-2010 04:56:13 -1.4 C 3.47 g/m*3 -1.4 C 0 km/h
2545 30-01-2010 05:08:13 -1.4 C 3.47 g/m*3 -1.4 C 0 km/h
2546 30-01-2010 05:20:13 -1.2 C 3.52 g/m*3 -1.2 C 0 km/h
2547 30-01-2010 05:32:13 -0.9 C 3.51 g/m*3 -0.9 C 0 km/h
2548 30-01-2010 05:44:13 -0.9 C 3.46 g/m*3 -0.9 C 0 km/h
2549 30-01-2010 05:56:13 -0.5 C 3.46 g/m*3 -0.5 C 0 km/h
2550 30-01-2010 06:08:13 -0.4 C 3.44 g/m*3 -0.4 C 0 km/h
Sensor: Nr:Datum:Temp:Abs-Feuchte:Windchill:Wind:
Aussen-T/F 2551 30-01-2010 06:20:13 -0.3 C 3.42 g/m*3 -0.3 C 0 km/h
2552 30-01-2010 06:32:13 -0.1 C 3.51 g/m*3 -0.1 C 0 km/h
2553 30-01-2010 06:44:13 -0.1 C 3.51 g/m*3 -0.1 C 0 km/h
2554 30-01-2010 06:56:13 0.1 C 3.42 g/m*3 0.1 C 0 km/h
2555 30-01-2010 07:08:13 -0.1 C 3.42 g/m*3 -0.1 C 0 km/h
2556 30-01-2010 07:20:13 -0.1 C 3.42 g/m*3 -0.1 C 0 km/h
2557 30-01-2010 07:32:13 -0.1 C 3.42 g/m*3 -0.1 C 0 km/h
2558 30-01-2010 07:44:13 -0.2 C 3.44 g/m*3 -0.2 C 0 km/h
2559 30-01-2010 07:56:02 -0.2 C 3.49 g/m*3 -0.2 C 0 km/h
2560 30-01-2010 08:08:02 -0.2 C 3.49 g/m*3 -0.2 C 0 km/h
2561 30-01-2010 08:20:02 -0.1 C 3.51 g/m*3 -0.1 C 0 km/h
2562 30-01-2010 08:32:02 -0.2 C 3.68 g/m*3 -0.2 C 0 km/h
2563 30-01-2010 08:44:02 -0.3 C 3.7 g/m*3 -0.3 C 0 km/h
2564 30-01-2010 08:56:03 -0.4 C 3.72 g/m*3 -0.4 C 0 km/h
2565 30-01-2010 09:08:02 -0.4 C 3.77 g/m*3 -0.4 C 0 km/h
2566 30-01-2010 09:20:02 -0.4 C 3.72 g/m*3 -0.4 C 0 km/h
2567 30-01-2010 09:32:03 -0.3 C 3.7 g/m*3 -0.3 C 0 km/h
2568 30-01-2010 09:44:03 0 C 3.68 g/m*3 0 C 0 km/h
2569 30-01-2010 09:56:02 0.1 C 3.61 g/m*3 0.1 C 0 km/h
2570 30-01-2010 10:08:02 0 C 3.59 g/m*3 0 C 0 km/h
2571 30-01-2010 10:20:02 0 C 3.63 g/m*3 0 C 0 km/h
2572 30-01-2010 10:32:02 -0.1 C 3.61 g/m*3 -0.1 C 0 km/h
2573 30-01-2010 10:44:02 -0.1 C 3.75 g/m*3 -0.1 C 0 km/h
2574 30-01-2010 10:56:02 -0.1 C 3.9 g/m*3 -0.1 C 0 km/h
2575 30-01-2010 11:08:02 -0.4 C 3.91 g/m*3 -0.4 C 0 km/h
Sensor: Nr:Datum:Temp:Abs-Feuchte:Windchill:Wind:
Aussen-T/F 2576 30-01-2010 11:20:02 -0.5 C 3.93 g/m*3 -0.5 C 0 km/h
2577 30-01-2010 11:32:02 -0.3 C 4.03 g/m*3 -0.3 C 0 km/h
2578 30-01-2010 11:44:02 0 C 4.02 g/m*3 0 C 0 km/h
2579 30-01-2010 11:56:01 0.4 C 3.98 g/m*3 0.4 C 0 km/h
2580 30-01-2010 12:08:02 0.2 C 3.88 g/m*3 0.2 C 0 km/h
2581 30-01-2010 12:20:02 -0.2 C 3.92 g/m*3 -0.2 C 0 km/h
2582 30-01-2010 12:32:01 -0.4 C 4.01 g/m*3 -0.4 C 0 km/h
2583 30-01-2010 12:44:01 -0.3 C 4.08 g/m*3 -0.3 C 0 km/h
2584 30-01-2010 12:56:01 -0.2 C 4.01 g/m*3 -0.2 C 0 km/h
2585 30-01-2010 13:08:01 0 C 3.88 g/m*3 0 C 0 km/h
2586 30-01-2010 13:20:02 0 C 3.63 g/m*3 0 C 0 km/h
2587 30-01-2010 13:32:01 -0.2 C 3.49 g/m*3 -0.2 C 0 km/h
2588 30-01-2010 13:44:01 0.3 C 3.56 g/m*3 0.3 C 0 km/h
2589 30-01-2010 13:56:02 0.5 C 3.46 g/m*3 0.5 C 0 km/h
2590 30-01-2010 14:08:01 0.6 C 3.48 g/m*3 0.6 C 0 km/h
2591 30-01-2010 14:20:02 0.5 C 3.41 g/m*3 0.5 C 0 km/h
2592 30-01-2010 14:32:01 0.4 C 3.44 g/m*3 0.4 C 0 km/h
2593 30-01-2010 14:44:01 0.3 C 3.51 g/m*3 0.3 C 0 km/h
2594 30-01-2010 14:56:03 -1.1 C 3.41 g/m*3 -1.1 C 0 km/h
2595 30-01-2010 15:08:02 -1.3 C 3.5 g/m*3 -1.3 C 0 km/h
2596 30-01-2010 15:20:02 -1.1 C 3.59 g/m*3 -1.1 C 0 km/h
2597 30-01-2010 15:32:02 -0.9 C 3.6 g/m*3 -0.9 C 0 km/h
2598 30-01-2010 15:44:02 -0.7 C 3.6 g/m*3 -0.7 C 0 km/h
2599 30-01-2010 15:56:02 -0.9 C 3.41 g/m*3 -0.9 C 0 km/h
2600 30-01-2010 16:08:02 -1.3 C 3.19 g/m*3 -1.3 C 0 km/h
Sensor: Nr:Datum:Temp:Abs-Feuchte:Windchill:Wind:
Aussen-T/F 2601 30-01-2010 16:20:02 -1.4 C 3.21 g/m*3 -1.4 C 0 km/h
2602 30-01-2010 16:32:01 -1.6 C 3.21 g/m*3 -1.6 C 0 km/h
2603 30-01-2010 16:44:01 -1.5 C 3.27 g/m*3 -1.5 C 0 km/h
2604 30-01-2010 16:56:02 -1.5 C 3.32 g/m*3 -1.5 C 0 km/h
2605 30-01-2010 17:08:01 -1.6 C 3.34 g/m*3 -1.6 C 0 km/h
2606 30-01-2010 17:20:02 -1.7 C 3.36 g/m*3 -1.7 C 0 km/h
2607 30-01-2010 17:32:02 -2 C 3.29 g/m*3 -2 C 0 km/h
2608 30-01-2010 17:44:02 -2.4 C 3.16 g/m*3 -2.4 C 0 km/h
2609 30-01-2010 17:56:02 -2.6 C 3.15 g/m*3 -2.6 C 0 km/h
2610 30-01-2010 18:08:02 -2.4 C 3.24 g/m*3 -2.4 C 0 km/h
2611 30-01-2010 18:20:02 -2.4 C 3.24 g/m*3 -2.4 C 0 km/h
2612 30-01-2010 18:32:03 -2.3 C 3.26 g/m*3 -2.3 C 0 km/h
2613 30-01-2010 18:44:03 -2.4 C 3.2 g/m*3 -2.4 C 0 km/h
2614 30-01-2010 18:56:02 -2.6 C 3.11 g/m*3 -2.6 C 0 km/h
2615 30-01-2010 19:08:01 -2.9 C 3.05 g/m*3 -2.9 C 0 km/h
2616 30-01-2010 19:20:02 -3.1 C 3 g/m*3 -3.1 C 0 km/h
2617 30-01-2010 19:32:02 -3.3 C 2.96 g/m*3 -3.3 C 0 km/h
2618 30-01-2010 19:44:02 -3.5 C 2.92 g/m*3 -3.5 C 0 km/h
2619 30-01-2010 19:56:01 -3.7 C 2.92 g/m*3 -3.7 C 0 km/h
2620 30-01-2010 20:08:02 -4 C 2.85 g/m*3 -4 C 0 km/h
2621 30-01-2010 20:20:01 -4.2 C 2.81 g/m*3 -4.2 C 0 km/h
2622 30-01-2010 20:32:02 -4.5 C 2.75 g/m*3 -4.5 C 0 km/h
2623 30-01-2010 20:44:02 -4.9 C 2.68 g/m*3 -4.9 C 0 km/h
2624 30-01-2010 20:56:02 -4.7 C 2.75 g/m*3 -4.7 C 0 km/h
2625 30-01-2010 21:08:02 -4.3 C 2.86 g/m*3 -4.3 C 0 km/h
Sensor: Nr:Datum:Temp:Abs-Feuchte:Windchill:Wind:
Aussen-T/F 2626 30-01-2010 21:20:02 -4.1 C 2.91 g/m*3 -4.1 C 0 km/h
2627 30-01-2010 21:32:02 -4.2 C 2.89 g/m*3 -4.2 C 0 km/h
2628 30-01-2010 21:44:02 -4.6 C 2.77 g/m*3 -4.6 C 0 km/h
2629 30-01-2010 21:56:02 -5.1 C 2.64 g/m*3 -5.1 C 0 km/h
2630 30-01-2010 22:08:02 -5.6 C 2.54 g/m*3 -5.6 C 0 km/h
2631 30-01-2010 22:21:03 -5.9 C 2.49 g/m*3 -5.9 C 0 km/h
2632 30-01-2010 22:33:04 -5.7 C 2.56 g/m*3 -5.7 C 0 km/h
2633 30-01-2010 22:45:04 -6 C 2.5 g/m*3 -6 C 0 km/h
2634 30-01-2010 22:57:04 -6.1 C 2.48 g/m*3 -6.1 C 0 km/h
2635 30-01-2010 23:09:04 -6.3 C 2.45 g/m*3 -6.3 C 0 km/h
2636 30-01-2010 23:21:04 -6.2 C 2.47 g/m*3 -6.2 C 0 km/h
2637 30-01-2010 23:33:04 -6.4 C 2.43 g/m*3 -6.4 C 0 km/h
2638 30-01-2010 23:45:04 -6.4 C 2.43 g/m*3 -6.4 C 0 km/h
2639 30-01-2010 23:57:04 -6.3 C 2.48 g/m*3 -6.3 C 0 km/h
2640 31-01-2010 00:09:04 -6.2 C 2.5 g/m*3 -6.2 C 0 km/h
2641 31-01-2010 00:21:04 -6.1 C 2.52 g/m*3 -6.1 C 0 km/h
2642 31-01-2010 00:33:04 -6 C 2.53 g/m*3 -6 C 0 km/h
2643 31-01-2010 00:45:04 -6 C 2.5 g/m*3 -6 C 0 km/h
2644 31-01-2010 00:57:04 -5.6 C 2.58 g/m*3 -5.6 C 0 km/h
2645 31-01-2010 01:09:04 -5.1 C 2.67 g/m*3 -5.1 C 0 km/h
2646 31-01-2010 01:21:04 -5 C 2.69 g/m*3 -5 C 0 km/h
2647 31-01-2010 01:33:04 -4.7 C 2.71 g/m*3 -4.7 C 0 km/h
2648 31-01-2010 01:45:04 -4.6 C 2.73 g/m*3 -4.6 C 0 km/h
2649 31-01-2010 01:57:04 -4.6 C 2.8 g/m*3 -4.6 C 0 km/h
2650 31-01-2010 02:09:04 -4.4 C 2.88 g/m*3 -4.4 C 0 km/h
Sensor: Nr:Datum:Temp:Abs-Feuchte:Windchill:Wind:
Aussen-T/F 2651 31-01-2010 02:21:04 -4.3 C 2.94 g/m*3 -4.3 C 0 km/h
2652 31-01-2010 02:33:04 -4.2 C 2.96 g/m*3 -4.2 C 0 km/h
2653 31-01-2010 02:45:04 -4.2 C 2.99 g/m*3 -4.2 C 0 km/h
2654 31-01-2010 02:57:05 -4.2 C 3.03 g/m*3 -4.2 C 0 km/h
2655 31-01-2010 03:09:05 -4 C 3.07 g/m*3 -4 C 0 km/h
2656 31-01-2010 03:21:05 -3.9 C 3.06 g/m*3 -3.9 C 0 km/h
2657 31-01-2010 03:33:05 -3.7 C 3.1 g/m*3 -3.7 C 0 km/h
2658 31-01-2010 03:45:05 -3.5 C 3.11 g/m*3 -3.5 C 0 km/h
2659 31-01-2010 03:57:05 -3.5 C 3.15 g/m*3 -3.5 C 0 km/h
2660 31-01-2010 04:09:05 -3.4 C 3.17 g/m*3 -3.4 C 0 km/h
2661 31-01-2010 04:21:05 -3.4 C 3.17 g/m*3 -3.4 C 0 km/h
2662 31-01-2010 04:33:05 -3.3 C 3.19 g/m*3 -3.3 C 0 km/h
2663 31-01-2010 04:45:05 -3.2 C 3.18 g/m*3 -3.2 C 0 km/h
2664 31-01-2010 04:57:05 -3.2 C 3.18 g/m*3 -3.2 C 0 km/h
2665 31-01-2010 05:09:05 -3.2 C 3.21 g/m*3 -3.2 C 0 km/h
2666 31-01-2010 05:21:05 -3.1 C 3.24 g/m*3 -3.1 C 0 km/h
2667 31-01-2010 05:33:05 -2.9 C 3.24 g/m*3 -2.9 C 0 km/h
2668 31-01-2010 05:45:05 -2.9 C 3.24 g/m*3 -2.9 C 0 km/h
2669 31-01-2010 05:57:05 -2.9 C 3.24 g/m*3 -2.9 C 0 km/h
2670 31-01-2010 06:09:05 -2.8 C 3.27 g/m*3 -2.8 C 0 km/h
2671 31-01-2010 06:21:05 -2.8 C 3.27 g/m*3 -2.8 C 0 km/h
2672 31-01-2010 06:33:05 -2.8 C 3.27 g/m*3 -2.8 C 0 km/h
2673 31-01-2010 06:45:05 -2.8 C 3.27 g/m*3 -2.8 C 0 km/h
2674 31-01-2010 06:57:05 -2.7 C 3.29 g/m*3 -2.7 C 0 km/h
2675 31-01-2010 07:09:05 -2.6 C 3.31 g/m*3 -2.6 C 0 km/h
Sensor: Nr:Datum:Temp:Abs-Feuchte:Windchill:Wind:
Aussen-T/F 2676 31-01-2010 07:21:05 -2.6 C 3.31 g/m*3 -2.6 C 0 km/h
2677 31-01-2010 07:33:06 -2.6 C 3.31 g/m*3 -2.6 C 0 km/h
2678 31-01-2010 07:45:06 -2.5 C 3.3 g/m*3 -2.5 C 0 km/h
2679 31-01-2010 07:57:06 -2.5 C 3.3 g/m*3 -2.5 C 0 km/h
2680 31-01-2010 08:09:06 -2.4 C 3.36 g/m*3 -2.4 C 0 km/h
2681 31-01-2010 08:21:06 -2.4 C 3.4 g/m*3 -2.4 C 0 km/h
2682 31-01-2010 08:33:03 -2.4 C 3.36 g/m*3 -2.4 C 0 km/h
2683 31-01-2010 08:45:02 -2.4 C 3.36 g/m*3 -2.4 C 0 km/h
2684 31-01-2010 08:57:02 -2.4 C 3.36 g/m*3 -2.4 C 0 km/h
2685 31-01-2010 09:09:02 -2.1 C 3.43 g/m*3 -2.1 C 0 km/h
2686 31-01-2010 09:21:02 -2 C 3.41 g/m*3 -2 C 0 km/h
2687 31-01-2010 09:33:01 -2.2 C 3.33 g/m*3 -2.2 C 0 km/h
2688 31-01-2010 09:45:02 -2 C 3.33 g/m*3 -2 C 0 km/h
2689 31-01-2010 09:57:02 -1.8 C 3.33 g/m*3 -1.8 C 0 km/h
2690 31-01-2010 10:09:01 -1.6 C 3.38 g/m*3 -1.6 C 0 km/h
2691 31-01-2010 10:21:02 -1.7 C 3.31 g/m*3 -1.7 C 0 km/h
2692 31-01-2010 10:33:01 -1.7 C 3.27 g/m*3 -1.7 C 0 km/h
2693 31-01-2010 10:45:02 -1.7 C 3.27 g/m*3 -1.7 C 0 km/h
2694 31-01-2010 10:57:02 -1.6 C 3.29 g/m*3 -1.6 C 0 km/h
2695 31-01-2010 11:09:02 -1.4 C 3.34 g/m*3 -1.4 C 0 km/h
2696 31-01-2010 11:21:02 -1.1 C 3.41 g/m*3 -1.1 C 0 km/h
2697 31-01-2010 11:33:03 -0.7 C 3.42 g/m*3 -0.7 C 0 km/h
2698 31-01-2010 11:45:02 -0.6 C 3.39 g/m*3 -0.6 C 0 km/h
2699 31-01-2010 11:57:03 -0.4 C 3.44 g/m*3 -0.4 C 0 km/h
2700 31-01-2010 12:09:01 -0.2 C 3.44 g/m*3 -0.2 C 0 km/h
Sensor: Nr:Datum:Temp:Abs-Feuchte:Windchill:Wind:
Aussen-T/F 2701 31-01-2010 12:21:02 0.2 C 3.54 g/m*3 0.2 C 0 km/h
2702 31-01-2010 12:33:02 0.7 C 3.61 g/m*3 0.7 C 0 km/h
2703 31-01-2010 12:45:02 1.1 C 3.5 g/m*3 1.1 C 0 km/h
2704 31-01-2010 12:57:02 1.3 C 3.5 g/m*3 1.3 C 0 km/h
2705 31-01-2010 13:09:03 1.6 C 3.46 g/m*3 1.6 C 0 km/h
2706 31-01-2010 13:21:02 1.7 C 3.38 g/m*3 1.7 C 0 km/h
2707 31-01-2010 13:33:03 2 C 3.28 g/m*3 2 C 0 km/h
2708 31-01-2010 13:45:02 2 C 3.22 g/m*3 2 C 0 km/h
2709 31-01-2010 13:57:02 2.2 C 3.15 g/m*3 2.2 C 0 km/h
2710 31-01-2010 14:09:02 2.1 C 3.08 g/m*3 2.1 C 0 km/h
2711 31-01-2010 14:21:01 2.2 C 3.15 g/m*3 2.2 C 0 km/h
2712 31-01-2010 14:33:02 2.4 C 3.14 g/m*3 2.4 C 0 km/h
2713 31-01-2010 14:45:02 2.2 C 2.99 g/m*3 2.2 C 0 km/h
2714 31-01-2010 14:57:02 2.2 C 2.93 g/m*3 2.2 C 0 km/h
2715 31-01-2010 15:09:02 1.7 C 2.94 g/m*3 1.7 C 0 km/h
2716 31-01-2010 15:21:02 1.3 C 2.97 g/m*3 1.3 C 0 km/h
2717 31-01-2010 15:33:02 1.1 C 2.93 g/m*3 1.1 C 0 km/h
2718 31-01-2010 15:45:02 1.1 C 3.03 g/m*3 1.1 C 0 km/h
2719 31-01-2010 15:57:02 1.3 C 3.13 g/m*3 1.3 C 0 km/h
2720 31-01-2010 16:09:02 1.2 C 3.1 g/m*3 1.2 C 0 km/h
2721 31-01-2010 16:21:02 0.8 C 3.12 g/m*3 0.8 C 0 km/h
2722 31-01-2010 16:33:02 0.7 C 3.1 g/m*3 0.7 C 0 km/h
2723 31-01-2010 16:45:02 0.7 C 3.15 g/m*3 0.7 C 0 km/h
2724 31-01-2010 16:57:02 0.5 C 3.11 g/m*3 0.5 C 0 km/h
2725 31-01-2010 17:09:03 0.3 C 3.07 g/m*3 0.3 C 0 km/h
Sensor: Nr:Datum:Temp:Abs-Feuchte:Windchill:Wind:
Aussen-T/F 2726 31-01-2010 17:21:02 0 C 3.15 g/m*3 0 C 0 km/h
2727 31-01-2010 17:33:02 -0.4 C 3.11 g/m*3 -0.4 C 0 km/h
2728 31-01-2010 17:45:01 -0.6 C 3.11 g/m*3 -0.6 C 0 km/h
2729 31-01-2010 17:57:01 -1 C 3.07 g/m*3 -1 C 0 km/h
2730 31-01-2010 18:09:02 -1.1 C 3.14 g/m*3 -1.1 C 0 km/h
2731 31-01-2010 18:21:01 -1.3 C 3.1 g/m*3 -1.3 C 0 km/h
2732 31-01-2010 18:33:01 -1.5 C 3.1 g/m*3 -1.5 C 0 km/h
2733 31-01-2010 18:45:01 -1.7 C 3.1 g/m*3 -1.7 C 0 km/h
2734 31-01-2010 18:57:01 -1.8 C 3.16 g/m*3 -1.8 C 0 km/h
2735 31-01-2010 19:09:02 -1.8 C 3.16 g/m*3 -1.8 C 0 km/h
2736 31-01-2010 19:21:01 -1.8 C 3.12 g/m*3 -1.8 C 0 km/h
2737 31-01-2010 19:33:02 -1.9 C 3.1 g/m*3 -1.9 C 0 km/h
2738 31-01-2010 19:45:01 -1.8 C 3.12 g/m*3 -1.8 C 0 km/h
2739 31-01-2010 19:57:01 -2.1 C 3.06 g/m*3 -2.1 C 0 km/h
2740 31-01-2010 20:09:02 -2.1 C 3.14 g/m*3 -2.1 C 0 km/h
2741 31-01-2010 20:21:01 -1.9 C 3.18 g/m*3 -1.9 C 0 km/h
2742 31-01-2010 20:33:02 -2 C 3.16 g/m*3 -2 C 0 km/h
2743 31-01-2010 20:45:01 -2 C 3.2 g/m*3 -2 C 0 km/h
2744 31-01-2010 20:57:01 -2 C 3.2 g/m*3 -2 C 0 km/h
2745 31-01-2010 21:09:02 -1.8 C 3.25 g/m*3 -1.8 C 0 km/h
2746 31-01-2010 21:21:01 -1.6 C 3.29 g/m*3 -1.6 C 0 km/h
2747 31-01-2010 21:33:02 -1.5 C 3.32 g/m*3 -1.5 C 0 km/h
2748 31-01-2010 21:45:01 -1.3 C 3.32 g/m*3 -1.3 C 0 km/h
2749 31-01-2010 21:57:01 -1.1 C 3.37 g/m*3 -1.1 C 0 km/h
2750 31-01-2010 22:09:02 -0.8 C 3.39 g/m*3 -0.8 C 0 km/h
Sensor: Nr:Datum:Temp:Abs-Feuchte:Windchill:Wind:
Aussen-T/F 2751 31-01-2010 22:21:02 -0.6 C 3.39 g/m*3 -0.6 C 0 km/h
2752 31-01-2010 22:33:01 -0.6 C 3.35 g/m*3 -0.6 C 0 km/h
2753 31-01-2010 22:46:02 -0.7 C 3.32 g/m*3 -0.7 C 0 km/h
2754 31-01-2010 22:58:02 -0.7 C 3.37 g/m*3 -0.7 C 0 km/h
2755 31-01-2010 23:10:02 -0.6 C 3.39 g/m*3 -0.6 C 0 km/h
2756 31-01-2010 23:22:02 -0.5 C 3.37 g/m*3 -0.5 C 0 km/h
2757 31-01-2010 23:34:02 -0.6 C 3.35 g/m*3 -0.6 C 0 km/h
2758 31-01-2010 23:46:02 -0.7 C 3.37 g/m*3 -0.7 C 0 km/h
2759 31-01-2010 23:58:02 -0.7 C 3.42 g/m*3 -0.7 C 0 km/h
2760 01-02-2010 00:10:02 -0.8 C 3.39 g/m*3 -0.8 C 0 km/h
2761 01-02-2010 00:22:02 -1 C 3.35 g/m*3 -1 C 0 km/h
2762 01-02-2010 00:34:02 -1.1 C 3.32 g/m*3 -1.1 C 0 km/h
2763 01-02-2010 00:46:02 -0.7 C 3.42 g/m*3 -0.7 C 0 km/h
2764 01-02-2010 00:58:03 -0.7 C 3.37 g/m*3 -0.7 C 0 km/h
2765 01-02-2010 01:10:03 -0.6 C 3.35 g/m*3 -0.6 C 0 km/h
2766 01-02-2010 01:22:03 -0.5 C 3.37 g/m*3 -0.5 C 0 km/h
2767 01-02-2010 01:34:03 -0.5 C 3.37 g/m*3 -0.5 C 0 km/h
2768 01-02-2010 01:46:03 -0.4 C 3.35 g/m*3 -0.4 C 0 km/h
2769 01-02-2010 01:58:03 -0.4 C 3.35 g/m*3 -0.4 C 0 km/h
2770 01-02-2010 02:10:03 -0.6 C 3.25 g/m*3 -0.6 C 0 km/h
2771 01-02-2010 02:22:03 -0.8 C 3.25 g/m*3 -0.8 C 0 km/h
2772 01-02-2010 02:34:03 -0.8 C 3.25 g/m*3 -0.8 C 0 km/h
2773 01-02-2010 02:46:03 -0.8 C 3.25 g/m*3 -0.8 C 0 km/h
2774 01-02-2010 02:58:03 -0.8 C 3.25 g/m*3 -0.8 C 0 km/h
2775 01-02-2010 03:10:03 -0.7 C 3.28 g/m*3 -0.7 C 0 km/h
Sensor: Nr:Datum:Temp:Abs-Feuchte:Windchill:Wind:
Aussen-T/F 2776 01-02-2010 03:22:03 -0.8 C 3.25 g/m*3 -0.8 C 0 km/h
2777 01-02-2010 03:34:03 -0.8 C 3.25 g/m*3 -0.8 C 0 km/h
2778 01-02-2010 03:46:03 -0.7 C 3.32 g/m*3 -0.7 C 0 km/h
2779 01-02-2010 03:58:03 -0.8 C 3.25 g/m*3 -0.8 C 0 km/h
2780 01-02-2010 04:10:03 -0.8 C 3.25 g/m*3 -0.8 C 0 km/h
2781 01-02-2010 04:22:03 -0.9 C 3.28 g/m*3 -0.9 C 0 km/h
2782 01-02-2010 04:34:03 -1 C 3.25 g/m*3 -1 C 0 km/h
2783 01-02-2010 04:46:03 -0.8 C 3.3 g/m*3 -0.8 C 0 km/h
2784 01-02-2010 04:58:03 -0.7 C 3.28 g/m*3 -0.7 C 0 km/h
2785 01-02-2010 05:10:03 -0.7 C 3.28 g/m*3 -0.7 C 0 km/h
2786 01-02-2010 05:22:04 -0.6 C 3.3 g/m*3 -0.6 C 0 km/h
2787 01-02-2010 05:34:04 -0.5 C 3.32 g/m*3 -0.5 C 0 km/h
2788 01-02-2010 05:46:04 -0.4 C 3.35 g/m*3 -0.4 C 0 km/h
2789 01-02-2010 05:58:04 -0.4 C 3.35 g/m*3 -0.4 C 0 km/h
2790 01-02-2010 06:10:04 -0.4 C 3.35 g/m*3 -0.4 C 0 km/h
2791 01-02-2010 06:22:04 -0.4 C 3.35 g/m*3 -0.4 C 0 km/h
2792 01-02-2010 06:34:04 -0.3 C 3.37 g/m*3 -0.3 C 0 km/h
2793 01-02-2010 06:46:04 -0.3 C 3.37 g/m*3 -0.3 C 0 km/h
2794 01-02-2010 06:58:04 -0.4 C 3.35 g/m*3 -0.4 C 0 km/h
2795 01-02-2010 07:10:02 -0.5 C 3.37 g/m*3 -0.5 C 0 km/h
2796 01-02-2010 07:22:03 -0.7 C 3.32 g/m*3 -0.7 C 0 km/h
2797 01-02-2010 07:34:02 -0.7 C 3.37 g/m*3 -0.7 C 0 km/h
2798 01-02-2010 07:46:02 -0.6 C 3.39 g/m*3 -0.6 C 0 km/h
2799 01-02-2010 07:58:02 -0.5 C 3.42 g/m*3 -0.5 C 0 km/h
2800 01-02-2010 08:10:02 -0.4 C 3.39 g/m*3 -0.4 C 0 km/h
Sensor: Nr:Datum:Temp:Abs-Feuchte:Windchill:Wind:
Aussen-T/F 2801 01-02-2010 08:22:02 -0.4 C 3.44 g/m*3 -0.4 C 0 km/h
2802 01-02-2010 08:34:02 -0.4 C 3.39 g/m*3 -0.4 C 0 km/h
2803 01-02-2010 08:46:02 -0.4 C 3.39 g/m*3 -0.4 C 0 km/h
2804 01-02-2010 08:58:02 -0.4 C 3.39 g/m*3 -0.4 C 0 km/h
2805 01-02-2010 09:10:02 -0.4 C 3.39 g/m*3 -0.4 C 0 km/h
2806 01-02-2010 09:22:02 -0.3 C 3.37 g/m*3 -0.3 C 0 km/h
2807 01-02-2010 09:34:02 -0.3 C 3.37 g/m*3 -0.3 C 0 km/h
2808 01-02-2010 09:46:02 -0.2 C 3.39 g/m*3 -0.2 C 0 km/h
2809 01-02-2010 09:58:02 -0.2 C 3.39 g/m*3 -0.2 C 0 km/h
2810 01-02-2010 10:10:02 -0.1 C 3.37 g/m*3 -0.1 C 0 km/h
2811 01-02-2010 10:22:02 0.2 C 3.44 g/m*3 0.2 C 0 km/h
2812 01-02-2010 10:34:01 0.2 C 3.34 g/m*3 0.2 C 0 km/h
2813 01-02-2010 10:46:02 0.3 C 3.36 g/m*3 0.3 C 0 km/h
2814 01-02-2010 10:58:02 0.3 C 3.31 g/m*3 0.3 C 0 km/h
2815 01-02-2010 11:10:01 0.5 C 3.31 g/m*3 0.5 C 0 km/h
2816 01-02-2010 11:22:02 0.5 C 3.26 g/m*3 0.5 C 0 km/h
2817 01-02-2010 11:34:01 0.7 C 3.3 g/m*3 0.7 C 0 km/h
2818 01-02-2010 11:46:02 1 C 3.22 g/m*3 1 C 0 km/h
2819 01-02-2010 11:58:02 1 C 3.22 g/m*3 1 C 0 km/h
2820 01-02-2010 12:10:02 1.4 C 3.31 g/m*3 1.4 C 0 km/h
2821 01-02-2010 12:22:02 1.3 C 3.23 g/m*3 1.3 C 0 km/h
2822 01-02-2010 12:34:02 1.7 C 3.32 g/m*3 1.7 C 0 km/h
2823 01-02-2010 12:46:02 1.5 C 3.28 g/m*3 1.5 C 0 km/h
2824 01-02-2010 12:58:02 1.5 C 3.28 g/m*3 1.5 C 0 km/h
2825 01-02-2010 13:10:01 1.4 C 3.25 g/m*3 1.4 C 0 km/h
Sensor: Nr:Datum:Temp:Abs-Feuchte:Windchill:Wind:
Aussen-T/F 2826 01-02-2010 13:22:02 1.6 C 3.3 g/m*3 1.6 C 0 km/h
2827 01-02-2010 13:34:01 1.7 C 3.32 g/m*3 1.7 C 0 km/h
2828 01-02-2010 13:46:02 2.3 C 3.29 g/m*3 2.3 C 0 km/h
2829 01-02-2010 13:58:02 2.3 C 3.18 g/m*3 2.3 C 0 km/h
2830 01-02-2010 14:10:01 2.4 C 3.25 g/m*3 2.4 C 0 km/h
2831 01-02-2010 14:22:01 2.4 C 3.25 g/m*3 2.4 C 0 km/h
2832 01-02-2010 14:34:02 2.1 C 3.24 g/m*3 2.1 C 0 km/h
2833 01-02-2010 14:46:02 1.5 C 3.44 g/m*3 1.5 C 0 km/h
2834 01-02-2010 14:58:03 1.4 C 3.68 g/m*3 1.4 C 0 km/h
2835 01-02-2010 15:10:01 1.3 C 3.71 g/m*3 1.3 C 0 km/h
2836 01-02-2010 15:22:02 1.8 C 3.73 g/m*3 1.8 C 0 km/h
2837 01-02-2010 15:34:02 1.5 C 3.71 g/m*3 1.5 C 0 km/h
2838 01-02-2010 15:46:02 1.1 C 3.81 g/m*3 1.1 C 0 km/h
2839 01-02-2010 15:58:02 0.9 C 3.92 g/m*3 0.9 C 0 km/h
2840 01-02-2010 16:10:01 0.7 C 4.02 g/m*3 0.7 C 0 km/h
2841 01-02-2010 16:22:02 0.7 C 4.12 g/m*3 0.7 C 0 km/h
2842 01-02-2010 16:34:01 0.7 C 4.12 g/m*3 0.7 C 0 km/h
2843 01-02-2010 16:46:03 0.8 C 4.1 g/m*3 0.8 C 0 km/h
2844 01-02-2010 16:58:03 1 C 4 g/m*3 1 C 0 km/h
2845 01-02-2010 17:10:03 0.8 C 4.04 g/m*3 0.8 C 0 km/h
2846 01-02-2010 17:22:02 0.4 C 4.13 g/m*3 0.4 C 0 km/h
2847 01-02-2010 17:34:03 0.4 C 4.28 g/m*3 0.4 C 0 km/h
2848 01-02-2010 17:46:01 0.4 C 4.33 g/m*3 0.4 C 0 km/h
2849 01-02-2010 17:58:01 0.3 C 4.3 g/m*3 0.3 C 0 km/h
2850 01-02-2010 18:10:02 0.2 C 4.32 g/m*3 0.2 C 0 km/h
Sensor: Nr:Datum:Temp:Abs-Feuchte:Windchill:Wind:
Aussen-T/F 2851 01-02-2010 18:22:02 0.2 C 4.37 g/m*3 0.2 C 0 km/h
2852 01-02-2010 18:34:02 0.2 C 4.42 g/m*3 0.2 C 0 km/h
2853 01-02-2010 18:46:02 0.2 C 4.47 g/m*3 0.2 C 0 km/h
2854 01-02-2010 18:58:02 0.2 C 4.52 g/m*3 0.2 C 0 km/h
2855 01-02-2010 19:10:02 0.3 C 4.55 g/m*3 0.3 C 0 km/h
2856 01-02-2010 19:22:02 0.3 C 4.55 g/m*3 0.3 C 0 km/h
2857 01-02-2010 19:34:01 0.3 C 4.5 g/m*3 0.3 C 0 km/h
2858 01-02-2010 19:46:02 0.3 C 4.5 g/m*3 0.3 C 0 km/h
2859 01-02-2010 19:58:02 0.5 C 4.56 g/m*3 0.5 C 0 km/h
2860 01-02-2010 20:10:01 0.5 C 4.51 g/m*3 0.5 C 0 km/h
2861 01-02-2010 20:22:02 0.5 C 4.46 g/m*3 0.5 C 0 km/h
2862 01-02-2010 20:34:01 0.5 C 4.41 g/m*3 0.5 C 0 km/h
2863 01-02-2010 20:46:02 0.3 C 4.35 g/m*3 0.3 C 0 km/h
2864 01-02-2010 20:58:02 0.3 C 4.35 g/m*3 0.3 C 0 km/h
2865 01-02-2010 21:10:01 0.2 C 4.32 g/m*3 0.2 C 0 km/h
2866 01-02-2010 21:22:02 0.3 C 4.35 g/m*3 0.3 C 0 km/h
2867 01-02-2010 21:34:01 0.3 C 4.35 g/m*3 0.3 C 0 km/h
2868 01-02-2010 21:46:03 0.2 C 4.32 g/m*3 0.2 C 0 km/h
2869 01-02-2010 21:58:03 0.2 C 4.32 g/m*3 0.2 C 0 km/h
2870 01-02-2010 22:10:02 0.2 C 4.37 g/m*3 0.2 C 0 km/h
2871 01-02-2010 22:23:02 0.2 C 4.37 g/m*3 0.2 C 0 km/h
2872 01-02-2010 22:35:02 0.5 C 4.51 g/m*3 0.5 C 0 km/h
2873 01-02-2010 22:47:02 0.5 C 4.46 g/m*3 0.5 C 0 km/h
2874 01-02-2010 22:59:02 0.5 C 4.46 g/m*3 0.5 C 0 km/h
2875 01-02-2010 23:11:02 0.4 C 4.33 g/m*3 0.4 C 0 km/h
Sensor: Nr:Datum:Temp:Abs-Feuchte:Windchill:Wind:
Aussen-T/F 2876 01-02-2010 23:23:03 0.4 C 4.28 g/m*3 0.4 C 0 km/h
2877 01-02-2010 23:35:03 0.3 C 4.25 g/m*3 0.3 C 0 km/h
2878 01-02-2010 23:47:03 0.3 C 4.3 g/m*3 0.3 C 0 km/h
2879 01-02-2010 23:59:03 0.3 C 4.3 g/m*3 0.3 C 0 km/h
2880 02-02-2010 00:11:03 0.3 C 4.11 g/m*3 0.3 C 0 km/h
2881 02-02-2010 00:23:03 0.4 C 3.84 g/m*3 0.4 C 0 km/h
2882 02-02-2010 00:35:03 0.2 C 3.68 g/m*3 0.2 C 0 km/h
2883 02-02-2010 00:47:03 0.1 C 3.66 g/m*3 0.1 C 0 km/h
2884 02-02-2010 00:59:03 -0.1 C 3.56 g/m*3 -0.1 C 0 km/h
2885 02-02-2010 01:11:03 -0.3 C 3.51 g/m*3 -0.3 C 0 km/h
2886 02-02-2010 01:23:03 -0.5 C 3.51 g/m*3 -0.5 C 0 km/h
2887 02-02-2010 01:35:03 -0.8 C 3.48 g/m*3 -0.8 C 0 km/h
2888 02-02-2010 01:47:03 -0.7 C 3.6 g/m*3 -0.7 C 0 km/h
2889 02-02-2010 01:59:03 -0.6 C 3.63 g/m*3 -0.6 C 0 km/h
2890 02-02-2010 02:11:03 -0.6 C 3.53 g/m*3 -0.6 C 0 km/h
2891 02-02-2010 02:23:03 -0.7 C 3.46 g/m*3 -0.7 C 0 km/h
2892 02-02-2010 02:35:03 -1 C 3.3 g/m*3 -1 C 0 km/h
2893 02-02-2010 02:47:03 -1.6 C 3.25 g/m*3 -1.6 C 0 km/h
2894 02-02-2010 02:59:03 -2.1 C 3.22 g/m*3 -2.1 C 0 km/h
2895 02-02-2010 03:11:03 -2.5 C 3.17 g/m*3 -2.5 C 0 km/h
2896 02-02-2010 03:23:03 -2.8 C 3.15 g/m*3 -2.8 C 0 km/h
2897 02-02-2010 03:35:03 -3 C 3.14 g/m*3 -3 C 0 km/h
2898 02-02-2010 03:47:04 -3 C 3.18 g/m*3 -3 C 0 km/h
2899 02-02-2010 03:59:04 -3 C 3.22 g/m*3 -3 C 0 km/h
2900 02-02-2010 04:11:04 -3.1 C 3.24 g/m*3 -3.1 C 0 km/h
Sensor: Nr:Datum:Temp:Abs-Feuchte:Windchill:Wind:
Aussen-T/F 2901 02-02-2010 04:23:04 -3 C 3.3 g/m*3 -3 C 0 km/h
2902 02-02-2010 04:35:04 -2.9 C 3.36 g/m*3 -2.9 C 0 km/h
2903 02-02-2010 04:47:04 -2.7 C 3.45 g/m*3 -2.7 C 0 km/h
2904 02-02-2010 04:59:04 -2.6 C 3.48 g/m*3 -2.6 C 0 km/h
2905 02-02-2010 05:11:04 -2.4 C 3.57 g/m*3 -2.4 C 0 km/h
2906 02-02-2010 05:23:04 -2.2 C 3.62 g/m*3 -2.2 C 0 km/h
2907 02-02-2010 05:35:04 -2.3 C 3.59 g/m*3 -2.3 C 0 km/h
2908 02-02-2010 05:47:04 -2.4 C 3.52 g/m*3 -2.4 C 0 km/h
2909 02-02-2010 05:59:04 -2.4 C 3.52 g/m*3 -2.4 C 0 km/h
2910 02-02-2010 06:11:04 -2.3 C 3.55 g/m*3 -2.3 C 0 km/h
2911 02-02-2010 06:23:04 -1.7 C 3.75 g/m*3 -1.7 C 0 km/h
2912 02-02-2010 06:35:04 -1.2 C 3.74 g/m*3 -1.2 C 0 km/h
2913 02-02-2010 06:47:04 -1.2 C 3.66 g/m*3 -1.2 C 0 km/h
2914 02-02-2010 06:59:04 -1.3 C 3.59 g/m*3 -1.3 C 0 km/h
2915 02-02-2010 07:11:02 -1.3 C 3.59 g/m*3 -1.3 C 0 km/h
2916 02-02-2010 07:23:02 -1.6 C 3.47 g/m*3 -1.6 C 0 km/h
2917 02-02-2010 07:35:02 -1.8 C 3.46 g/m*3 -1.8 C 0 km/h
2918 02-02-2010 07:47:02 -1.7 C 3.49 g/m*3 -1.7 C 0 km/h
2919 02-02-2010 07:59:02 -1.5 C 3.49 g/m*3 -1.5 C 0 km/h
2920 02-02-2010 08:11:03 -1.4 C 3.52 g/m*3 -1.4 C 0 km/h
2921 02-02-2010 08:23:02 -1.3 C 3.5 g/m*3 -1.3 C 0 km/h
2922 02-02-2010 08:35:02 -1.2 C 3.48 g/m*3 -1.2 C 0 km/h
2923 02-02-2010 08:47:02 -1.1 C 3.5 g/m*3 -1.1 C 0 km/h
2924 02-02-2010 08:59:02 -0.8 C 3.53 g/m*3 -0.8 C 0 km/h
2925 02-02-2010 09:11:02 -0.7 C 3.55 g/m*3 -0.7 C 0 km/h
Sensor: Nr:Datum:Temp:Abs-Feuchte:Windchill:Wind:
Aussen-T/F 2926 02-02-2010 09:23:02 -0.6 C 3.63 g/m*3 -0.6 C 0 km/h
2927 02-02-2010 09:35:02 -0.3 C 3.7 g/m*3 -0.3 C 0 km/h
2928 02-02-2010 09:47:02 -0.1 C 3.75 g/m*3 -0.1 C 0 km/h
2929 02-02-2010 09:59:02 0.1 C 3.81 g/m*3 0.1 C 0 km/h
2930 02-02-2010 10:11:02 0.4 C 3.88 g/m*3 0.4 C 0 km/h
2931 02-02-2010 10:23:02 0.6 C 3.89 g/m*3 0.6 C 0 km/h
2932 02-02-2010 10:35:01 0.8 C 3.89 g/m*3 0.8 C 0 km/h
2933 02-02-2010 10:47:02 1 C 3.89 g/m*3 1 C 0 km/h
2934 02-02-2010 10:59:02 1.1 C 3.92 g/m*3 1.1 C 0 km/h
2935 02-02-2010 11:11:01 1.3 C 3.92 g/m*3 1.3 C 0 km/h
2936 02-02-2010 11:23:02 1.5 C 3.97 g/m*3 1.5 C 0 km/h
2937 02-02-2010 11:35:01 1.5 C 3.97 g/m*3 1.5 C 0 km/h
2938 02-02-2010 11:47:03 1.5 C 3.97 g/m*3 1.5 C 0 km/h
2939 02-02-2010 11:59:03 1.6 C 4.06 g/m*3 1.6 C 0 km/h
2940 02-02-2010 12:11:02 1.8 C 4.11 g/m*3 1.8 C 0 km/h
2941 02-02-2010 12:23:03 1.9 C 4.14 g/m*3 1.9 C 0 km/h
2942 02-02-2010 12:35:02 2 C 4.11 g/m*3 2 C 0 km/h
2943 02-02-2010 12:47:02 2.1 C 4.14 g/m*3 2.1 C 0 km/h
2944 02-02-2010 12:59:02 2.2 C 4.22 g/m*3 2.2 C 0 km/h
2945 02-02-2010 13:11:02 2.2 C 4.22 g/m*3 2.2 C 0 km/h
2946 02-02-2010 13:23:02 2.4 C 4.23 g/m*3 2.4 C 0 km/h
2947 02-02-2010 13:35:02 2.6 C 4.22 g/m*3 2.6 C 0 km/h
2948 02-02-2010 13:47:02 2.6 C 4.17 g/m*3 2.6 C 0 km/h
2949 02-02-2010 13:59:02 2.8 C 4.22 g/m*3 2.8 C 0 km/h
2950 02-02-2010 14:11:02 2.8 C 4.22 g/m*3 2.8 C 0 km/h
Sensor: Nr:Datum:Temp:Abs-Feuchte:Windchill:Wind:
Aussen-T/F 2951 02-02-2010 14:23:02 2.9 C 4.25 g/m*3 2.9 C 0 km/h
2952 02-02-2010 14:35:01 2.9 C 4.25 g/m*3 2.9 C 0 km/h
2953 02-02-2010 14:47:02 2.9 C 4.19 g/m*3 2.9 C 0 km/h
2954 02-02-2010 14:59:02 2.7 C 4.2 g/m*3 2.7 C 0 km/h
2955 02-02-2010 15:11:01 2.7 C 4.31 g/m*3 2.7 C 0 km/h
2956 02-02-2010 15:23:02 2.7 C 4.37 g/m*3 2.7 C 0 km/h
2957 02-02-2010 15:35:01 2.7 C 4.37 g/m*3 2.7 C 0 km/h
2958 02-02-2010 15:47:03 2.6 C 4.4 g/m*3 2.6 C 0 km/h
2959 02-02-2010 15:59:03 2.6 C 4.4 g/m*3 2.6 C 0 km/h
2960 02-02-2010 16:11:02 2.5 C 4.37 g/m*3 2.5 C 0 km/h
2961 02-02-2010 16:23:03 2.4 C 4.4 g/m*3 2.4 C 0 km/h
2962 02-02-2010 16:35:02 2.4 C 4.45 g/m*3 2.4 C 0 km/h
2963 02-02-2010 16:47:03 2.3 C 4.48 g/m*3 2.3 C 0 km/h
2964 02-02-2010 16:59:03 2.2 C 4.45 g/m*3 2.2 C 0 km/h
2965 02-02-2010 17:11:02 2.1 C 4.48 g/m*3 2.1 C 0 km/h
2966 02-02-2010 17:23:02 2.1 C 4.48 g/m*3 2.1 C 0 km/h
2967 02-02-2010 17:35:02 2.1 C 4.48 g/m*3 2.1 C 0 km/h
2968 02-02-2010 17:47:02 2.2 C 4.45 g/m*3 2.2 C 0 km/h
2969 02-02-2010 17:59:02 2.2 C 4.45 g/m*3 2.2 C 0 km/h
2970 02-02-2010 18:11:02 2.3 C 4.48 g/m*3 2.3 C 0 km/h
2971 02-02-2010 18:23:02 2.2 C 4.45 g/m*3 2.2 C 0 km/h
2972 02-02-2010 18:35:01 2.2 C 4.45 g/m*3 2.2 C 0 km/h
2973 02-02-2010 18:47:02 2.2 C 4.39 g/m*3 2.2 C 0 km/h
2974 02-02-2010 18:59:02 2.2 C 4.39 g/m*3 2.2 C 0 km/h
2975 02-02-2010 19:11:01 2.3 C 4.42 g/m*3 2.3 C 0 km/h
Sensor: Nr:Datum:Temp:Abs-Feuchte:Windchill:Wind:
Aussen-T/F 2976 02-02-2010 19:23:02 2.2 C 4.45 g/m*3 2.2 C 0 km/h
2977 02-02-2010 19:35:01 2.1 C 4.48 g/m*3 2.1 C 0 km/h
2978 02-02-2010 19:47:02 2.1 C 4.53 g/m*3 2.1 C 0 km/h
2979 02-02-2010 19:59:02 2.2 C 4.56 g/m*3 2.2 C 0 km/h
2980 02-02-2010 20:11:01 2.2 C 4.56 g/m*3 2.2 C 0 km/h
2981 02-02-2010 20:23:02 2.4 C 4.62 g/m*3 2.4 C 0 km/h
2982 02-02-2010 20:35:01 2.5 C 4.6 g/m*3 2.5 C 0 km/h
2983 02-02-2010 20:47:02 2.4 C 4.57 g/m*3 2.4 C 0 km/h
2984 02-02-2010 20:59:02 2.5 C 4.6 g/m*3 2.5 C 0 km/h
2985 02-02-2010 21:11:02 2.6 C 4.57 g/m*3 2.6 C 0 km/h
2986 02-02-2010 21:23:02 2.6 C 4.57 g/m*3 2.6 C 0 km/h
2987 02-02-2010 21:35:02 2.6 C 4.57 g/m*3 2.6 C 0 km/h
2988 02-02-2010 21:48:03 2.6 C 4.63 g/m*3 2.6 C 0 km/h
2989 02-02-2010 22:00:03 2.7 C 4.66 g/m*3 2.7 C 0 km/h
2990 02-02-2010 22:12:03 2.6 C 4.69 g/m*3 2.6 C 0 km/h
2991 02-02-2010 22:24:03 2.5 C 4.77 g/m*3 2.5 C 0 km/h
2992 02-02-2010 22:36:03 2.4 C 4.8 g/m*3 2.4 C 0 km/h
2993 02-02-2010 22:48:03 2.4 C 4.8 g/m*3 2.4 C 0 km/h
2994 02-02-2010 23:00:03 2.5 C 4.83 g/m*3 2.5 C 0 km/h
2995 02-02-2010 23:12:03 2.7 C 4.84 g/m*3 2.7 C 0 km/h
2996 02-02-2010 23:24:03 2.7 C 4.78 g/m*3 2.7 C 0 km/h
2997 02-02-2010 23:36:03 2.8 C 4.81 g/m*3 2.8 C 0 km/h
2998 02-02-2010 23:48:04 2.9 C 4.84 g/m*3 2.9 C 0 km/h
2999 03-02-2010 00:00:04 2.8 C 4.81 g/m*3 2.8 C 0 km/h
3000 03-02-2010 00:12:04 3.3 C 4.91 g/m*3 3.3 C 0 km/h
Sensor: Nr:Datum:Temp:Abs-Feuchte:Windchill:Wind:
Aussen-T/F 3001 03-02-2010 00:24:04 3.6 C 4.89 g/m*3 3.6 C 0 km/h
3002 03-02-2010 00:36:04 3.7 C 4.92 g/m*3 3.7 C 0 km/h
3003 03-02-2010 00:48:04 4 C 4.96 g/m*3 4 C 0 km/h
3004 03-02-2010 01:00:04 4 C 4.9 g/m*3 4 C 0 km/h
3005 03-02-2010 01:12:04 4 C 4.9 g/m*3 4 C 0 km/h
3006 03-02-2010 01:24:04 4 C 4.96 g/m*3 4 C 0 km/h
3007 03-02-2010 01:36:04 4.3 C 5.06 g/m*3 4.3 C 0 km/h
3008 03-02-2010 01:48:04 4.4 C 5.09 g/m*3 4.4 C 0 km/h
3009 03-02-2010 02:00:04 4.6 C 5.16 g/m*3 4.6 C 0 km/h
3010 03-02-2010 02:12:04 4.8 C 5.16 g/m*3 4.8 C 0 km/h
3011 03-02-2010 02:24:04 4.7 C 5.13 g/m*3 4.7 C 0 km/h
3012 03-02-2010 02:36:04 2.9 C 4.78 g/m*3 2.9 C 0 km/h
3013 03-02-2010 02:48:04 2.4 C 4.8 g/m*3 2.4 C 0 km/h
3014 03-02-2010 03:00:04 2.1 C 4.81 g/m*3 2.1 C 0 km/h
3015 03-02-2010 03:12:04 1.9 C 4.86 g/m*3 1.9 C 0 km/h
3016 03-02-2010 03:24:04 1.7 C 4.85 g/m*3 1.7 C 0 km/h
3017 03-02-2010 03:36:04 1.6 C 4.87 g/m*3 1.6 C 0 km/h
3018 03-02-2010 03:48:04 1.6 C 4.87 g/m*3 1.6 C 0 km/h
3019 03-02-2010 04:00:05 1.5 C 4.89 g/m*3 1.5 C 0 km/h
3020 03-02-2010 04:12:05 1.2 C 4.79 g/m*3 1.2 C 0 km/h
3021 03-02-2010 04:24:05 0.9 C 4.69 g/m*3 0.9 C 0 km/h
3022 03-02-2010 04:36:05 0.8 C 4.66 g/m*3 0.8 C 0 km/h
3023 03-02-2010 04:48:05 1 C 4.72 g/m*3 1 C 0 km/h
3024 03-02-2010 05:00:05 1.1 C 4.81 g/m*3 1.1 C 0 km/h
3025 03-02-2010 05:12:05 1.1 C 4.81 g/m*3 1.1 C 0 km/h
Sensor: Nr:Datum:Temp:Abs-Feuchte:Windchill:Wind:
Aussen-T/F 3026 03-02-2010 05:24:05 1.1 C 4.86 g/m*3 1.1 C 0 km/h
3027 03-02-2010 05:36:05 1.1 C 4.86 g/m*3 1.1 C 0 km/h
3028 03-02-2010 05:48:05 1.2 C 4.89 g/m*3 1.2 C 0 km/h
3029 03-02-2010 06:00:05 1.1 C 4.91 g/m*3 1.1 C 0 km/h
3030 03-02-2010 06:12:05 1.1 C 4.91 g/m*3 1.1 C 0 km/h
3031 03-02-2010 06:24:05 1.1 C 4.91 g/m*3 1.1 C 0 km/h
3032 03-02-2010 06:36:05 1 C 4.88 g/m*3 1 C 0 km/h
3033 03-02-2010 06:48:05 1.1 C 4.91 g/m*3 1.1 C 0 km/h
3034 03-02-2010 07:00:05 1 C 4.88 g/m*3 1 C 0 km/h
3035 03-02-2010 07:12:03 0.9 C 4.9 g/m*3 0.9 C 0 km/h
3036 03-02-2010 07:24:02 1 C 4.88 g/m*3 1 C 0 km/h
3037 03-02-2010 07:36:03 1 C 4.93 g/m*3 1 C 0 km/h
3038 03-02-2010 07:48:02 1 C 4.93 g/m*3 1 C 0 km/h
3039 03-02-2010 08:00:02 1 C 4.93 g/m*3 1 C 0 km/h
3040 03-02-2010 08:12:01 1 C 4.93 g/m*3 1 C 0 km/h
3041 03-02-2010 08:24:02 1 C 4.93 g/m*3 1 C 0 km/h
3042 03-02-2010 08:36:02 1.1 C 4.96 g/m*3 1.1 C 0 km/h
3043 03-02-2010 08:48:02 1.2 C 5 g/m*3 1.2 C 0 km/h
3044 03-02-2010 09:00:02 1.2 C 5 g/m*3 1.2 C 0 km/h
3045 03-02-2010 09:12:03 1.3 C 5.03 g/m*3 1.3 C 0 km/h
3046 03-02-2010 09:24:02 1.5 C 5.1 g/m*3 1.5 C 0 km/h
3047 03-02-2010 09:36:02 1.5 C 5.1 g/m*3 1.5 C 0 km/h
3048 03-02-2010 09:48:02 1.7 C 5.17 g/m*3 1.7 C 0 km/h
3049 03-02-2010 10:00:02 2 C 5.22 g/m*3 2 C 0 km/h
3050 03-02-2010 10:12:01 2.2 C 5.29 g/m*3 2.2 C 0 km/h
Sensor: Nr:Datum:Temp:Abs-Feuchte:Windchill:Wind:
Aussen-T/F 3051 03-02-2010 10:24:02 2.3 C 5.27 g/m*3 2.3 C 0 km/h
3052 03-02-2010 10:36:02 2.7 C 5.36 g/m*3 2.7 C 0 km/h
3053 03-02-2010 10:48:02 3.1 C 5.45 g/m*3 3.1 C 0 km/h
3054 03-02-2010 11:00:02 3.1 C 5.33 g/m*3 3.1 C 0 km/h
3055 03-02-2010 11:12:02 3 C 5.11 g/m*3 3 C 0 km/h
3056 03-02-2010 11:24:02 3.3 C 5.22 g/m*3 3.3 C 0 km/h
3057 03-02-2010 11:36:02 3.3 C 5.1 g/m*3 3.3 C 0 km/h
3058 03-02-2010 11:48:02 3.1 C 4.97 g/m*3 3.1 C 0 km/h
3059 03-02-2010 12:00:02 3.2 C 5.06 g/m*3 3.2 C 0 km/h
3060 03-02-2010 12:12:01 3.1 C 5.03 g/m*3 3.1 C 0 km/h
3061 03-02-2010 12:24:02 3 C 5.05 g/m*3 3 C 0 km/h
3062 03-02-2010 12:36:02 3 C 5.11 g/m*3 3 C 0 km/h
3063 03-02-2010 12:48:02 3.1 C 5.15 g/m*3 3.1 C 0 km/h
3064 03-02-2010 13:00:02 3.1 C 5.21 g/m*3 3.1 C 0 km/h
3065 03-02-2010 13:12:02 3.1 C 5.21 g/m*3 3.1 C 0 km/h
3066 03-02-2010 13:24:02 3.3 C 5.28 g/m*3 3.3 C 0 km/h
3067 03-02-2010 13:36:02 3.2 C 5.24 g/m*3 3.2 C 0 km/h
3068 03-02-2010 13:48:02 3.3 C 5.28 g/m*3 3.3 C 0 km/h
3069 03-02-2010 14:00:02 3.3 C 5.28 g/m*3 3.3 C 0 km/h
3070 03-02-2010 14:12:02 3.3 C 5.28 g/m*3 3.3 C 0 km/h
3071 03-02-2010 14:24:02 3.3 C 5.28 g/m*3 3.3 C 0 km/h
3072 03-02-2010 14:36:02 3.3 C 5.28 g/m*3 3.3 C 0 km/h
3073 03-02-2010 14:48:02 3.2 C 5.24 g/m*3 3.2 C 0 km/h
3074 03-02-2010 15:00:02 3.2 C 5.24 g/m*3 3.2 C 0 km/h
3075 03-02-2010 15:12:02 3.1 C 5.27 g/m*3 3.1 C 0 km/h
Sensor: Nr:Datum:Temp:Abs-Feuchte:Windchill:Wind:
Aussen-T/F 3076 03-02-2010 15:24:02 2.9 C 5.2 g/m*3 2.9 C 0 km/h
3077 03-02-2010 15:36:02 3 C 5.23 g/m*3 3 C 0 km/h
3078 03-02-2010 15:48:02 2.9 C 5.26 g/m*3 2.9 C 0 km/h
3079 03-02-2010 16:00:02 2.8 C 5.22 g/m*3 2.8 C 0 km/h
3080 03-02-2010 16:12:02 2.6 C 5.15 g/m*3 2.6 C 0 km/h
3081 03-02-2010 16:24:02 2.6 C 5.15 g/m*3 2.6 C 0 km/h
3082 03-02-2010 16:36:02 2.5 C 5.12 g/m*3 2.5 C 0 km/h
3083 03-02-2010 16:48:02 2.4 C 5.08 g/m*3 2.4 C 0 km/h
3084 03-02-2010 17:00:02 2.4 C 5.14 g/m*3 2.4 C 0 km/h
3085 03-02-2010 17:12:02 2.3 C 5.1 g/m*3 2.3 C 0 km/h
3086 03-02-2010 17:24:02 2.2 C 5.07 g/m*3 2.2 C 0 km/h
3087 03-02-2010 17:36:02 2.1 C 5.04 g/m*3 2.1 C 0 km/h
3088 03-02-2010 17:48:01 1.9 C 5.02 g/m*3 1.9 C 0 km/h
3089 03-02-2010 18:00:01 1.9 C 5.02 g/m*3 1.9 C 0 km/h
3090 03-02-2010 18:12:02 1.9 C 5.02 g/m*3 1.9 C 0 km/h
3091 03-02-2010 18:24:01 1.9 C 5.08 g/m*3 1.9 C 0 km/h
3092 03-02-2010 18:36:01 1.9 C 5.08 g/m*3 1.9 C 0 km/h
3093 03-02-2010 18:48:01 1.8 C 5.04 g/m*3 1.8 C 0 km/h
3094 03-02-2010 19:00:01 1.8 C 5.04 g/m*3 1.8 C 0 km/h
3095 03-02-2010 19:12:02 1.7 C 5.01 g/m*3 1.7 C 0 km/h
3096 03-02-2010 19:20:01 1.7 C 5.01 g/m*3 1.7 C 0 km/h
3097 03-02-2010 19:45:01 1.8 C 5.04 g/m*3 1.8 C 0 km/h
3098 03-02-2010 20:10:02 1.9 C 5.13 g/m*3 1.9 C 0 km/h
3099 03-02-2010 20:35:01 1.8 C 5.1 g/m*3 1.8 C 0 km/h
3100 03-02-2010 21:00:01 1.7 C 5.06 g/m*3 1.7 C 0 km/h
Sensor: Nr:Datum:Temp:Abs-Feuchte:Windchill:Wind:
Aussen-T/F 3101 03-02-2010 21:25:01 1.7 C 5.06 g/m*3 1.7 C 0 km/h
3102 03-02-2010 21:50:02 1.8 C 5.1 g/m*3 1.8 C 0 km/h
3103 03-02-2010 22:15:03 1.8 C 5.1 g/m*3 1.8 C 0 km/h
3104 03-02-2010 22:40:02 1.8 C 5.1 g/m*3 1.8 C 0 km/h
3105 03-02-2010 23:05:02 1.8 C 5.1 g/m*3 1.8 C 0 km/h
3106 03-02-2010 23:30:02 1.8 C 5.1 g/m*3 1.8 C 0 km/h
3107 03-02-2010 23:55:02 2 C 5.17 g/m*3 2 C 0 km/h
3108 04-02-2010 00:20:02 2 C 5.17 g/m*3 2 C 0 km/h
3109 04-02-2010 00:45:02 2 C 5.17 g/m*3 2 C 0 km/h
3110 04-02-2010 01:10:02 2 C 5.17 g/m*3 2 C 0 km/h
3111 04-02-2010 01:35:02 2 C 5.22 g/m*3 2 C 0 km/h
3112 04-02-2010 02:00:02 2.1 C 5.26 g/m*3 2.1 C 0 km/h
3113 04-02-2010 02:25:03 2.2 C 5.29 g/m*3 2.2 C 0 km/h
3114 04-02-2010 02:51:03 2.1 C 5.26 g/m*3 2.1 C 0 km/h
3115 04-02-2010 03:16:04 2.2 C 5.29 g/m*3 2.2 C 0 km/h
3116 04-02-2010 03:41:01 2.3 C 5.33 g/m*3 2.3 C 0 km/h
3117 04-02-2010 04:06:02 2.3 C 5.33 g/m*3 2.3 C 0 km/h
3118 04-02-2010 04:31:02 2.3 C 5.33 g/m*3 2.3 C 0 km/h
3119 04-02-2010 04:56:01 2.4 C 5.37 g/m*3 2.4 C 0 km/h
3120 04-02-2010 05:21:02 2.5 C 5.46 g/m*3 2.5 C 0 km/h
3121 04-02-2010 05:46:02 2.7 C 5.54 g/m*3 2.7 C 0 km/h
3122 04-02-2010 06:11:01 3 C 5.65 g/m*3 3 C 0 km/h
3123 04-02-2010 06:51:02 3.6 C 5.88 g/m*3 3.6 C 0 km/h
3124 04-02-2010 07:16:02 3.4 C 5.8 g/m*3 3.4 C 0 km/h
3125 04-02-2010 07:41:02 3.2 C 5.72 g/m*3 3.2 C 0 km/h
Sensor: Nr:Datum:Temp:Abs-Feuchte:Windchill:Wind:
Aussen-T/F 3126 04-02-2010 08:06:02 3.3 C 5.76 g/m*3 3.3 C 0 km/h
3127 04-02-2010 08:31:02 3.2 C 5.72 g/m*3 3.2 C 0 km/h
3128 04-02-2010 08:56:02 3.3 C 5.76 g/m*3 3.3 C 0 km/h
3129 04-02-2010 09:21:02 3.7 C 5.92 g/m*3 3.7 C 0 km/h
3130 04-02-2010 09:46:02 4.5 C 6.24 g/m*3 4.5 C 0 km/h
3131 04-02-2010 10:11:02 4.7 C 6.19 g/m*3 4.7 C 0 km/h
3132 04-02-2010 10:36:02 5.2 C 6.13 g/m*3 5.2 C 0 km/h
3133 04-02-2010 11:01:02 5.7 C 6.19 g/m*3 5.7 C 0 km/h
3134 04-02-2010 11:26:02 6.3 C 6.07 g/m*3 6.3 C 0 km/h
3135 04-02-2010 11:51:02 6.9 C 6 g/m*3 6.9 C 0 km/h
3136 04-02-2010 12:16:02 7.1 C 5.85 g/m*3 7.1 C 0 km/h
3137 04-02-2010 12:41:02 7.5 C 5.92 g/m*3 7.5 C 0 km/h
3138 04-02-2010 13:06:02 8 C 5.95 g/m*3 8 C 0 km/h
3139 04-02-2010 13:31:02 8.5 C 5.98 g/m*3 8.5 C 0 km/h
3140 04-02-2010 13:56:02 8.7 C 5.88 g/m*3 8.7 C 0 km/h
3141 04-02-2010 14:21:02 8.5 C 5.81 g/m*3 8.5 C 0 km/h
3142 04-02-2010 14:46:03 8.2 C 5.61 g/m*3 8.2 C 0 km/h
3143 04-02-2010 15:11:03 8.8 C 5.92 g/m*3 8.8 C 0 km/h
3144 04-02-2010 15:36:03 8.8 C 5.74 g/m*3 8.8 C 0 km/h
3145 04-02-2010 16:01:03 7.8 C 5.55 g/m*3 7.8 C 0 km/h
3146 04-02-2010 16:26:03 7.5 C 5.52 g/m*3 7.5 C 0 km/h
3147 04-02-2010 16:51:03 6.2 C 5.37 g/m*3 6.2 C 0 km/h
3148 04-02-2010 17:16:03 5.7 C 5.48 g/m*3 5.7 C 0 km/h
3149 04-02-2010 17:41:03 5 C 5.37 g/m*3 5 C 0 km/h
3150 04-02-2010 18:06:03 4.4 C 5.29 g/m*3 4.4 C 0 km/h
Sensor: Nr:Datum:Temp:Abs-Feuchte:Windchill:Wind:
Aussen-T/F 3151 04-02-2010 18:31:03 4 C 5.28 g/m*3 4 C 0 km/h
3152 04-02-2010 18:56:03 3.6 C 5.2 g/m*3 3.6 C 0 km/h
3153 04-02-2010 19:21:03 3.3 C 5.16 g/m*3 3.3 C 0 km/h
3154 04-02-2010 19:46:03 3 C 5.11 g/m*3 3 C 0 km/h
3155 04-02-2010 20:11:03 2.7 C 5.13 g/m*3 2.7 C 0 km/h
3156 04-02-2010 20:36:03 2.5 C 5.12 g/m*3 2.5 C 0 km/h
3157 04-02-2010 21:01:03 2.5 C 5.17 g/m*3 2.5 C 0 km/h
3158 04-02-2010 21:26:03 2.6 C 5.27 g/m*3 2.6 C 0 km/h
3159 04-02-2010 21:51:03 2.1 C 5.04 g/m*3 2.1 C 0 km/h
3160 04-02-2010 22:16:03 2.2 C 5.18 g/m*3 2.2 C 0 km/h
3161 04-02-2010 22:41:03 1.8 C 5.04 g/m*3 1.8 C 0 km/h
3162 04-02-2010 23:06:03 1.8 C 5.1 g/m*3 1.8 C 0 km/h
3163 04-02-2010 23:31:03 1.7 C 5.06 g/m*3 1.7 C 0 km/h
3164 04-02-2010 23:56:04 2.1 C 5.2 g/m*3 2.1 C 0 km/h
3165 05-02-2010 00:21:04 2.6 C 5.44 g/m*3 2.6 C 0 km/h
3166 05-02-2010 00:46:04 2.2 C 5.24 g/m*3 2.2 C 0 km/h
3167 05-02-2010 01:11:04 2 C 5.17 g/m*3 2 C 0 km/h
3168 05-02-2010 01:36:04 1.7 C 5.12 g/m*3 1.7 C 0 km/h
3169 05-02-2010 02:01:04 2.2 C 5.24 g/m*3 2.2 C 0 km/h
3170 05-02-2010 02:26:04 2.6 C 5.38 g/m*3 2.6 C 0 km/h
3171 05-02-2010 02:51:04 2.7 C 5.3 g/m*3 2.7 C 0 km/h
3172 05-02-2010 03:16:04 2.7 C 5.19 g/m*3 2.7 C 0 km/h
3173 05-02-2010 03:41:04 2.8 C 5.04 g/m*3 2.8 C 0 km/h
3174 05-02-2010 04:06:04 2.8 C 5.04 g/m*3 2.8 C 0 km/h
3175 05-02-2010 04:31:04 2.8 C 4.93 g/m*3 2.8 C 0 km/h
Sensor: Nr:Datum:Temp:Abs-Feuchte:Windchill:Wind:
Aussen-T/F 3176 05-02-2010 04:56:04 2.8 C 4.93 g/m*3 2.8 C 0 km/h
3177 05-02-2010 05:21:04 2.7 C 4.89 g/m*3 2.7 C 0 km/h
3178 05-02-2010 05:46:04 2.7 C 4.84 g/m*3 2.7 C 0 km/h
3179 05-02-2010 06:11:04 2.8 C 4.87 g/m*3 2.8 C 0 km/h
3180 05-02-2010 06:36:04 2.7 C 4.84 g/m*3 2.7 C 0 km/h
3181 05-02-2010 07:01:04 2.4 C 4.74 g/m*3 2.4 C 0 km/h
3182 05-02-2010 07:26:04 2.5 C 4.89 g/m*3 2.5 C 0 km/h
3183 05-02-2010 07:51:04 2.8 C 4.99 g/m*3 2.8 C 0 km/h
3184 05-02-2010 08:16:04 3.2 C 4.88 g/m*3 3.2 C 0 km/h
3185 05-02-2010 08:41:05 3.4 C 4.89 g/m*3 3.4 C 0 km/h
3186 05-02-2010 09:06:05 3.6 C 4.89 g/m*3 3.6 C 0 km/h
3187 05-02-2010 09:31:05 3.8 C 4.83 g/m*3 3.8 C 0 km/h
3188 05-02-2010 09:56:05 4.1 C 4.67 g/m*3 4.1 C 0 km/h
3189 05-02-2010 10:21:05 4.1 C 4.54 g/m*3 4.1 C 0 km/h
3190 05-02-2010 10:46:05 4 C 4.51 g/m*3 4 C 0 km/h
3191 05-02-2010 11:11:05 4.3 C 4.54 g/m*3 4.3 C 0 km/h
3192 05-02-2010 11:36:05 4.3 C 4.41 g/m*3 4.3 C 0 km/h
3193 05-02-2010 12:01:05 4.4 C 4.37 g/m*3 4.4 C 0 km/h
3194 05-02-2010 12:26:05 4.4 C 4.31 g/m*3 4.4 C 0 km/h
3195 05-02-2010 12:51:05 4.3 C 4.28 g/m*3 4.3 C 0 km/h
3196 05-02-2010 13:16:05 4.5 C 4.4 g/m*3 4.5 C 0 km/h
3197 05-02-2010 13:41:05 4.9 C 4.52 g/m*3 4.9 C 0 km/h
3198 05-02-2010 14:06:05 5.1 C 4.38 g/m*3 5.1 C 0 km/h
3199 05-02-2010 14:31:05 4.8 C 4.36 g/m*3 4.8 C 0 km/h
3200 05-02-2010 14:56:05 4.6 C 4.37 g/m*3 4.6 C 0 km/h
Sensor: Nr:Datum:Temp:Abs-Feuchte:Windchill:Wind:
Aussen-T/F 3201 05-02-2010 15:21:05 4.5 C 4.4 g/m*3 4.5 C 0 km/h
3202 05-02-2010 15:46:05 4.2 C 4.38 g/m*3 4.2 C 0 km/h
3203 05-02-2010 16:11:05 3.8 C 4.64 g/m*3 3.8 C 0 km/h
3204 05-02-2010 16:36:05 3.6 C 4.7 g/m*3 3.6 C 0 km/h
3205 05-02-2010 17:01:05 3.4 C 4.83 g/m*3 3.4 C 0 km/h
3206 05-02-2010 17:26:05 3.4 C 4.95 g/m*3 3.4 C 0 km/h
3207 05-02-2010 17:51:06 3.2 C 4.94 g/m*3 3.2 C 0 km/h
3208 05-02-2010 18:16:06 3.3 C 5.04 g/m*3 3.3 C 0 km/h
3209 05-02-2010 18:41:06 3.1 C 5.03 g/m*3 3.1 C 0 km/h
3210 05-02-2010 19:06:06 3.2 C 5.12 g/m*3 3.2 C 0 km/h
3211 05-02-2010 19:31:06 3 C 5.05 g/m*3 3 C 0 km/h
3212 05-02-2010 19:56:06 3.1 C 5.09 g/m*3 3.1 C 0 km/h
3213 05-02-2010 20:21:06 3 C 5.11 g/m*3 3 C 0 km/h
3214 05-02-2010 20:46:06 2.8 C 5.1 g/m*3 2.8 C 0 km/h
3215 05-02-2010 21:11:06 2.8 C 5.16 g/m*3 2.8 C 0 km/h
3216 05-02-2010 21:36:06 2.6 C 5.09 g/m*3 2.6 C 0 km/h
3217 05-02-2010 22:01:06 2.7 C 5.19 g/m*3 2.7 C 0 km/h
3218 05-02-2010 22:26:06 2.9 C 5.26 g/m*3 2.9 C 0 km/h
3219 05-02-2010 22:51:06 3 C 5.23 g/m*3 3 C 0 km/h
3220 05-02-2010 23:16:06 3 C 5.23 g/m*3 3 C 0 km/h
3221 05-02-2010 23:41:06 3 C 5.23 g/m*3 3 C 0 km/h
3222 06-02-2010 00:06:06 2.8 C 5.22 g/m*3 2.8 C 0 km/h
3223 06-02-2010 00:31:06 2.8 C 5.22 g/m*3 2.8 C 0 km/h
3224 06-02-2010 00:56:06 2.7 C 5.19 g/m*3 2.7 C 0 km/h
3225 06-02-2010 01:21:06 2.4 C 5.08 g/m*3 2.4 C 0 km/h
Sensor: Nr:Datum:Temp:Abs-Feuchte:Windchill:Wind:
Aussen-T/F 3226 06-02-2010 01:46:06 2.1 C 4.98 g/m*3 2.1 C 0 km/h
3227 06-02-2010 02:11:06 2.4 C 5.14 g/m*3 2.4 C 0 km/h
3228 06-02-2010 02:36:06 2.7 C 5.24 g/m*3 2.7 C 0 km/h
3229 06-02-2010 03:01:07 2.8 C 5.28 g/m*3 2.8 C 0 km/h
3230 06-02-2010 03:26:07 2.5 C 5.17 g/m*3 2.5 C 0 km/h
3231 06-02-2010 03:51:07 2.4 C 5.14 g/m*3 2.4 C 0 km/h
3232 06-02-2010 04:16:07 2.6 C 5.27 g/m*3 2.6 C 0 km/h
3233 06-02-2010 04:41:07 2.8 C 5.34 g/m*3 2.8 C 0 km/h
3234 06-02-2010 05:06:07 3 C 5.41 g/m*3 3 C 0 km/h
3235 06-02-2010 05:31:07 3 C 5.41 g/m*3 3 C 0 km/h
3236 06-02-2010 05:56:07 3 C 5.41 g/m*3 3 C 0 km/h
3237 06-02-2010 06:21:07 3.2 C 5.48 g/m*3 3.2 C 0 km/h
3238 06-02-2010 06:46:07 3 C 5.41 g/m*3 3 C 0 km/h
3239 06-02-2010 07:11:07 3 C 5.41 g/m*3 3 C 0 km/h
3240 06-02-2010 07:36:07 3.1 C 5.45 g/m*3 3.1 C 0 km/h
3241 06-02-2010 08:01:07 3.1 C 5.45 g/m*3 3.1 C 0 km/h
3242 06-02-2010 08:26:07 3.2 C 5.48 g/m*3 3.2 C 0 km/h
3243 06-02-2010 08:51:07